ftp/pub/palmer/observations_modified/2017/November/AR171127_BASE.txt

Download

Sample DateTime	Unit Id	WS Avg 2min	WD Avg 2min	WGS 10min	WGD 10min	Air Temp	Rel Humidity	Dew Point	Pyranometer	Quantum	Air Pressure	Snow Level	Rainfall	PW Current	Visibility	CBase 1	CBase 2	CBase 3	Vert Vis
2017/11/27 00:00:00	BASE	1.63	264	3.24	240	-3.6	80	-6.6	32	80	975.4	NA	0.0000		9999	2070	6170	0	0
2017/11/27 00:01:00	BASE	1.88	268	3.24	240	-3.6	80	-6.6	32	79	975.4	NA	0.0000		9999	6100	0	0	0
2017/11/27 00:02:00	BASE	1.85	261	3.09	267	-3.6	80	-6.6	31	78	975.4	NA	0.0000		9999	6170	0	0	0
2017/11/27 00:03:00	BASE	1.52	257	3.09	267	-3.6	80	-6.5	31	77	975.4	NA	0.0000		9999	6140	0	0	0
2017/11/27 00:04:00	BASE	1.14	258	3.09	267	-3.6	80	-6.6	31	76	975.4	NA	0.0000		9999	6140	0	0	0
2017/11/27 00:05:00	BASE	1.18	255	3.09	267	-3.6	80	-6.6	30	75	975.4	NA	0.0000		9999	6070	0	0	0
2017/11/27 00:06:00	BASE	1.66	247	3.09	267	-3.6	79	-6.6	29	74	975.4	NA	0.0000		9999	6040	0	0	0
2017/11/27 00:07:00	BASE	2.08	250	2.62	252	-3.6	79	-6.7	29	73	975.4	NA	0.0000		9999	6070	0	0	0
2017/11/27 00:08:00	BASE	2.43	247	3.24	252	-3.6	79	-6.7	29	73	975.4	NA	0.0000		9999	6000	0	0	0
2017/11/27 00:09:00	BASE	2.26	242	3.24	252	-3.6	79	-6.8	30	73	975.4	NA	0.0000		9999	5970	0	0	0
2017/11/27 00:10:00	BASE	1.68	242	3.24	252	-3.6	79	-6.8	29	72	975.4	NA	0.0000		9999	5940	0	0	0
2017/11/27 00:11:00	BASE	1.57	244	3.24	252	-3.6	79	-6.8	29	72	975.4	NA	0.0000		9999	6100	0	0	0
2017/11/27 00:12:00	BASE	1.72	252	3.24	252	-3.6	79	-6.8	29	72	975.4	NA	0.0000		9999	6170	0	0	0
2017/11/27 00:13:00	BASE	1.79	255	3.24	252	-3.6	79	-6.7	29	71	975.4	NA	0.0000		9999	6100	0	0	0
2017/11/27 00:14:00	BASE	1.92	249	3.24	252	-3.6	79	-6.7	29	70	975.4	NA	0.0000		9999	6140	0	0	0
2017/11/27 00:15:00	BASE	1.88	246	3.24	252	-3.7	79	-6.8	29	71	975.4	NA	0.0000		9999	6100	0	0	0
2017/11/27 00:16:00	BASE	1.80	252	3.24	252	-3.7	79	-6.8	31	72	975.4	NA	0.0000		9999	6200	0	0	0
2017/11/27 00:17:00	BASE	2.08	249	3.24	252	-3.7	79	-6.8	31	74	975.4	NA	0.0000		9999	6370	0	0	0
2017/11/27 00:18:00	BASE	2.09	241	2.68	238	-3.7	79	-6.8	32	75	975.4	NA	0.0000		9999	6300	0	0	0
2017/11/27 00:19:00	BASE	1.77	243	2.68	238	-3.7	79	-6.8	33	75	975.4	NA	0.0000		9999	6270	0	0	0
2017/11/27 00:20:00	BASE	1.75	248	2.68	238	-3.7	79	-6.8	32	75	975.4	NA	0.0000		9999	6100	0	0	0
2017/11/27 00:21:00	BASE	1.94	252	2.68	238	-3.7	79	-6.8	32	74	975.4	NA	0.0000		9999	6370	0	0	0
2017/11/27 00:22:00	BASE	2.06	261	2.68	238	-3.7	79	-6.8	32	73	975.4	NA	0.0000		9999	6070	0	0	0
2017/11/27 00:23:00	BASE	2.13	266	2.68	238	-3.7	79	-6.8	33	74	975.4	NA	0.0000		9999	3670	6100	0	0
2017/11/27 00:24:00	BASE	2.46	262	2.93	260	-3.7	79	-6.8	34	77	975.4	NA	0.0000		9999	3640	5940	0	0
2017/11/27 00:25:00	BASE	2.47	255	2.93	260	-3.7	79	-6.8	36	78	975.4	NA	0.0000		9999	6070	0	0	0
2017/11/27 00:26:00	BASE	1.90	252	2.93	260	-3.7	78	-6.9	36	79	975.4	NA	0.0000		9999	3580	6140	0	0
2017/11/27 00:27:00	BASE	1.82	253	2.93	260	-3.6	78	-6.8	37	80	975.4	NA	0.0000		9999	3540	6140	0	0
2017/11/27 00:28:00	BASE	2.10	248	2.93	260	-3.6	78	-6.9	39	82	975.4	NA	0.0000		9999	6270	0	0	0
2017/11/27 00:29:00	BASE	1.80	246	2.93	260	-3.6	79	-6.8	40	84	975.4	NA	0.0000		9999	3580	6430	0	0
2017/11/27 00:30:00	BASE	1.49	252	2.93	260	-3.6	79	-6.8	41	85	975.4	NA	0.0000		9999	6200	0	0	0
2017/11/27 00:31:00	BASE	1.48	260	2.93	260	-3.6	79	-6.7	41	86	975.4	NA	0.0000		9999	6230	0	0	0
2017/11/27 00:32:00	BASE	1.61	269	2.93	260	-3.6	79	-6.7	60	110	975.4	NA	0.0000		9999	3610	6140	0	0
2017/11/27 00:33:00	BASE	1.68	269	2.93	260	-3.5	80	-6.6	83	139	975.4	NA	0.0000		9999	6400	0	0	0
2017/11/27 00:34:00	BASE	1.97	263	2.88	268	-3.5	80	-6.5	86	143	975.4	NA	0.0000		9999	3640	6370	0	0
2017/11/27 00:35:00	BASE	2.29	263	2.88	268	-3.5	80	-6.5	87	143	975.4	NA	0.0000		9999	3610	6400	0	0
2017/11/27 00:36:00	BASE	2.10	267	2.88	268	-3.5	80	-6.4	87	144	975.4	NA	0.0000		9999	3480	0	0	0
2017/11/27 00:37:00	BASE	1.75	270	2.88	268	-3.5	80	-6.4	86	141	975.4	NA	0.0000		9999	3480	6500	0	0
2017/11/27 00:38:00	BASE	1.52	276	2.88	268	-3.4	80	-6.4	84	138	975.4	NA	0.0000		9999	3480	0	0	0
2017/11/27 00:39:00	BASE	1.43	277	2.88	268	-3.4	80	-6.4	83	136	975.4	NA	0.0000		9999	3450	0	0	0
2017/11/27 00:40:00	BASE	1.39	268	2.88	268	-3.4	79	-6.4	82	134	975.4	NA	0.0000		9999	3510	0	0	0
2017/11/27 00:41:00	BASE	1.10	257	2.88	268	-3.3	79	-6.4	72	121	975.4	NA	0.0000		9999	3480	6500	0	0
2017/11/27 00:42:00	BASE	1.36	257	2.88	268	-3.4	79	-6.4	59	105	975.4	NA	0.0000		9999	3480	6560	0	0
2017/11/27 00:43:00	BASE	1.95	259	2.88	268	-3.4	79	-6.4	56	101	975.4	NA	0.0000		9999	3410	6820	0	0
2017/11/27 00:44:00	BASE	1.88	258	2.47	267	-3.4	79	-6.5	59	103	975.4	NA	0.0000		9999	3480	0	0	0
2017/11/27 00:45:00	BASE	1.58	255	2.31	255	-3.5	79	-6.5	62	105	975.4	NA	0.0000		9999	3480	0	0	0
2017/11/27 00:46:00	BASE	1.36	254	2.31	255	-3.5	79	-6.6	63	105	975.4	NA	0.0000		9999	3510	0	0	0
2017/11/27 00:47:00	BASE	1.76	255	2.68	256	-3.5	79	-6.6	61	101	975.4	NA	0.0000		9999	3580	0	0	0
2017/11/27 00:48:00	BASE	1.97	255	2.68	256	-3.6	79	-6.7	57	95	975.4	NA	0.0000		9999	3580	0	0	0
2017/11/27 00:49:00	BASE	1.71	258	2.68	256	-3.6	79	-6.7	55	93	975.4	NA	0.0000		9999	3610	0	0	0
2017/11/27 00:50:00	BASE	1.78	261	2.68	256	-3.6	79	-6.7	56	92	975.4	NA	0.0000		9999	3610	0	0	0
2017/11/27 00:51:00	BASE	1.68	259	2.68	256	-3.6	79	-6.7	56	92	975.4	NA	0.0000		9999	3540	0	0	0
2017/11/27 00:52:00	BASE	1.38	254	2.68	256	-3.7	79	-6.8	55	90	975.4	NA	0.0000		9999	3580	0	0	0
2017/11/27 00:53:00	BASE	1.33	248	2.68	256	-3.7	78	-6.9	53	87	975.4	NA	0.0000		9999	3610	0	0	0
2017/11/27 00:54:00	BASE	1.05	243	2.68	256	-3.7	78	-6.9	50	84	975.4	NA	0.0000		9999	3540	0	0	0
2017/11/27 00:55:00	BASE	1.04	249	2.68	256	-3.7	78	-7.0	46	79	975.4	NA	0.0000		9999	3580	0	0	0
2017/11/27 00:56:00	BASE	1.35	259	2.68	256	-3.7	78	-6.9	44	77	975.4	NA	0.0000		9999	1940	3510	0	0
2017/11/27 00:57:00	BASE	1.39	259	2.47	269	-3.7	78	-6.9	43	76	975.4	NA	0.0000		9999	1940	0	0	0
2017/11/27 00:58:00	BASE	1.21	262	2.47	269	-3.7	79	-6.9	41	74	975.4	NA	0.0000		9999	2100	3540	0	0
2017/11/27 00:59:00	BASE	1.09	276	2.47	269	-3.7	79	-6.8	40	72	975.4	NA	0.0000		9999	2100	3450	0	0
2017/11/27 01:00:00	BASE	1.72	280	2.68	274	-3.6	79	-6.7	38	70	975.4	NA	0.0000		9999	2100	3510	0	0
2017/11/27 01:01:00	BASE	2.17	269	2.68	274	-3.6	79	-6.7	37	68	975.4	NA	0.0000		9999	2100	3450	0	0
2017/11/27 01:02:00	BASE	1.93	256	2.68	274	-3.5	79	-6.6	37	67	975.4	NA	0.0000		9999	3350	6500	0	0
2017/11/27 01:03:00	BASE	1.88	255	2.68	274	-3.5	80	-6.5	40	70	975.4	NA	0.0000		9999	3380	6500	0	0
2017/11/27 01:04:00	BASE	1.84	255	2.68	274	-3.5	80	-6.5	43	72	975.4	NA	0.0000		9999	3450	0	0	0
2017/11/27 01:05:00	BASE	1.74	252	2.68	274	-3.5	80	-6.5	44	72	975.4	NA	0.0000		9999	2100	3480	0	0
2017/11/27 01:06:00	BASE	1.76	257	2.68	274	-3.6	80	-6.5	44	72	975.4	NA	0.0000		9999	1970	3480	0	0
2017/11/27 01:07:00	BASE	1.95	270	2.68	274	-3.6	80	-6.6	43	71	975.4	NA	0.0000		9999	2000	3480	0	0
2017/11/27 01:08:00	BASE	2.01	279	2.68	274	-3.6	80	-6.5	42	69	975.4	NA	0.0000		9999	1970	3410	6790	0
2017/11/27 01:09:00	BASE	1.89	273	2.68	274	-3.6	80	-6.5	41	68	975.4	NA	0.0000		9999	3380	6890	0	0
2017/11/27 01:10:00	BASE	1.89	266	2.31	273	-3.5	81	-6.4	40	66	975.4	NA	0.0000		9999	3380	0	0	0
2017/11/27 01:11:00	BASE	1.86	267	2.31	273	-3.5	81	-6.3	39	64	975.4	NA	0.0000		9999	3410	0	0	0
2017/11/27 01:12:00	BASE	1.94	259	2.52	253	-3.5	81	-6.3	38	63	975.4	NA	0.0000		9999	3350	6760	0	0
2017/11/27 01:13:00	BASE	1.89	252	2.52	253	-3.5	81	-6.3	38	62	975.4	NA	0.0000		9999	3310	6690	0	0
2017/11/27 01:14:00	BASE	1.87	249	2.52	253	-3.5	81	-6.4	37	61	975.4	NA	0.0000		9999	6630	0	0	0
2017/11/27 01:15:00	BASE	1.99	243	2.52	253	-3.6	81	-6.4	37	59	975.4	NA	0.0000		9999	3310	6690	0	0
2017/11/27 01:16:00	BASE	2.00	241	2.52	253	-3.6	80	-6.5	36	58	975.4	NA	0.0000		9999	3310	6760	0	0
2017/11/27 01:17:00	BASE	2.07	241	2.52	253	-3.7	80	-6.6	35	56	975.4	NA	0.0000		9999	3310	6660	0	0
2017/11/27 01:18:00	BASE	1.91	244	2.52	253	-3.7	80	-6.6	32	53	975.4	NA	0.0000		9999	3250	6660	0	0
2017/11/27 01:19:00	BASE	1.80	247	2.52	253	-3.7	80	-6.7	29	49	975.4	NA	0.0000		9999	3250	6690	0	0
2017/11/27 01:20:00	BASE	2.04	261	2.68	279	-3.7	80	-6.7	26	46	975.4	NA	0.0000		9999	6760	0	0	0
2017/11/27 01:21:00	BASE	2.29	274	2.68	279	-3.6	80	-6.6	24	44	975.4	NA	0.0000		9999	0	0	0	0
2017/11/27 01:22:00	BASE	2.08	270	2.68	279	-3.6	80	-6.6	22	41	975.4	NA	0.0000		9999	0	0	0	0
2017/11/27 01:23:00	BASE	1.86	267	2.68	279	-3.6	80	-6.5	21	40	975.4	NA	0.0000		9999	0	0	0	0
2017/11/27 01:24:00	BASE	1.87	268	2.68	279	-3.5	80	-6.5	20	38	975.4	NA	0.0000		9999	0	0	0	0
2017/11/27 01:25:00	BASE	1.84	277	2.68	279	-3.5	80	-6.4	19	37	975.4	NA	0.0000		9999	6730	0	0	0
2017/11/27 01:26:00	BASE	1.87	286	2.68	279	-3.5	80	-6.4	18	36	975.4	NA	0.0000		9999	6730	0	0	0
2017/11/27 01:27:00	BASE	1.84	288	2.68	279	-3.5	81	-6.4	17	35	975.4	NA	0.0000		9999	6820	0	0	0
2017/11/27 01:28:00	BASE	1.77	287	2.68	279	-3.5	81	-6.3	16	34	975.4	NA	0.0000		9999	6760	0	0	0
2017/11/27 01:29:00	BASE	1.75	292	2.68	279	-3.5	81	-6.3	15	33	975.4	NA	0.0000		9999	6820	0	0	0
2017/11/27 01:30:00	BASE	1.90	300	2.62	275	-3.6	82	-6.2	15	32	975.4	NA	0.0000		9999	6760	0	0	0
2017/11/27 01:31:00	BASE	1.96	296	2.42	276	-3.6	82	-6.3	14	31	975.4	NA	0.0000		9999	6760	0	0	0
2017/11/27 01:32:00	BASE	1.83	290	2.31	258	-3.6	82	-6.3	13	29	975.4	NA	0.0000		9999	6730	0	0	0
2017/11/27 01:33:00	BASE	1.65	297	2.26	296	-3.6	81	-6.4	12	28	975.4	NA	0.0000		9999	6730	0	0	0
2017/11/27 01:34:00	BASE	1.55	303	2.26	296	-3.7	81	-6.4	10	27	975.4	NA	0.0000		9999	6790	0	0	0
2017/11/27 01:35:00	BASE	1.66	297	2.26	296	-3.7	82	-6.4	10	26	975.3	NA	0.0000		9999	6790	0	0	0
2017/11/27 01:36:00	BASE	1.64	291	2.26	296	-3.7	82	-6.3	9	25	975.3	NA	0.0000		9999	6890	0	0	0
2017/11/27 01:37:00	BASE	1.50	288	2.26	296	-3.7	83	-6.2	9	24	975.3	NA	0.0000		9999	0	0	0	0
2017/11/27 01:38:00	BASE	1.49	289	2.26	296	-3.7	83	-6.2	8	23	975.3	NA	0.0000		9999	0	0	0	0
2017/11/27 01:39:00	BASE	1.53	292	2.26	296	-3.8	84	-6.1	8	22	975.3	NA	0.0000		9999	0	0	0	0
2017/11/27 01:40:00	BASE	1.61	292	2.06	287	-3.8	84	-6.1	8	22	975.3	NA	0.0000		9999	0	0	0	0
2017/11/27 01:41:00	BASE	1.87	295	2.37	299	-3.8	85	-6.0	7	21	975.3	NA	0.0000		9999	6860	0	0	0
2017/11/27 01:42:00	BASE	2.08	296	2.37	294	-3.8	85	-6.0	7	21	975.3	NA	0.0000		9999	6860	0	0	0
2017/11/27 01:43:00	BASE	2.04	296	2.37	294	-3.8	85	-6.0	7	20	975.3	NA	0.0000		9999	6860	0	0	0
2017/11/27 01:44:00	BASE	1.90	300	2.37	294	-3.9	85	-6.0	7	20	975.3	NA	0.0000		9999	2030	0	0	0
2017/11/27 01:45:00	BASE	2.00	301	2.42	298	-3.9	85	-6.0	7	19	975.3	NA	0.0000		9999	0	0	0	0
2017/11/27 01:46:00	BASE	2.26	295	2.62	290	-3.9	85	-6.0	6	18	975.3	NA	0.0000		9999	0	0	0	0
2017/11/27 01:47:00	BASE	2.16	289	2.62	290	-3.9	85	-6.1	6	18	975.3	NA	0.0000		9999	0	0	0	0
2017/11/27 01:48:00	BASE	2.20	290	2.98	290	-3.9	85	-6.0	6	18	975.3	NA	0.0000		9999	0	0	0	0
2017/11/27 01:49:00	BASE	2.59	289	3.19	286	-3.9	85	-6.0	6	17	975.3	NA	0.0000		9999	0	0	0	0
2017/11/27 01:50:00	BASE	2.65	288	3.19	286	-3.9	86	-6.0	6	17	975.3	NA	0.0000		9999	0	0	0	0
2017/11/27 01:51:00	BASE	2.51	295	3.19	286	-3.9	86	-5.9	6	16	975.3	NA	0.0000		9999	0	0	0	0
2017/11/27 01:52:00	BASE	2.54	302	3.19	286	-3.9	86	-5.9	5	16	975.3	NA	0.0000		9999	0	0	0	0
2017/11/27 01:53:00	BASE	2.61	302	3.19	286	-3.9	86	-5.9	5	15	975.3	NA	0.0000		9999	0	0	0	0
2017/11/27 01:54:00	BASE	2.45	298	3.19	286	-3.9	86	-5.9	5	15	975.3	NA	0.0000		9999	0	0	0	0
2017/11/27 01:55:00	BASE	2.20	298	3.19	286	-4.0	86	-6.0	5	14	975.3	NA	0.0000		9999	0	0	0	0
2017/11/27 01:56:00	BASE	2.08	300	3.19	286	-4.0	86	-6.0	5	14	975.3	NA	0.0000		9999	0	0	0	0
2017/11/27 01:57:00	BASE	2.11	301	3.19	286	-4.0	86	-6.0	5	14	975.3	NA	0.0000		9999	0	0	0	0
2017/11/27 01:58:00	BASE	2.12	302	3.19	286	-4.0	86	-6.0	5	13	975.3	NA	0.0000		9999	0	0	0	0
2017/11/27 01:59:00	BASE	2.02	304	2.88	299	-4.0	86	-6.0	5	13	975.4	NA	0.0000		9999	0	0	0	0
2017/11/27 02:00:00	BASE	2.01	310	2.88	299	-4.0	86	-6.0	5	13	975.3	NA	0.0000		9999	0	0	0	0
2017/11/27 02:01:00	BASE	2.10	315	2.88	299	-4.0	86	-6.0	4	12	975.3	NA	0.0000		9999	0	0	0	0
2017/11/27 02:02:00	BASE	2.05	316	2.88	299	-4.0	86	-6.0	4	12	975.3	NA	0.0000		9999	0	0	0	0
2017/11/27 02:03:00	BASE	1.94	323	2.62	295	-4.0	86	-6.0	4	11	975.3	NA	0.0000		9999	0	0	0	0
2017/11/27 02:04:00	BASE	1.86	334	2.52	313	-4.0	86	-5.9	4	11	975.3	NA	0.0000		9999	0	0	0	0
2017/11/27 02:05:00	BASE	1.80	338	2.52	313	-4.0	87	-5.9	4	11	975.3	NA	0.0000		9999	2000	0	0	0
2017/11/27 02:06:00	BASE	1.85	338	2.52	313	-4.0	87	-5.9	4	11	975.3	NA	0.0000		9999	0	0	0	0
2017/11/27 02:07:00	BASE	1.79	338	2.52	313	-4.0	87	-5.9	4	10	975.3	NA	0.0000		9999	0	0	0	0
2017/11/27 02:08:00	BASE	1.52	336	2.52	313	-4.0	87	-5.9	4	10	975.3	NA	0.0000		9999	0	0	0	0
2017/11/27 02:09:00	BASE	1.59	338	2.52	313	-4.0	87	-5.9	4	10	975.3	NA	0.0000		9999	0	0	0	0
2017/11/27 02:10:00	BASE	1.81	338	2.47	311	-4.1	87	-5.9	4	9	975.3	NA	0.0000		9999	0	0	0	0
2017/11/27 02:11:00	BASE	1.71	339	2.21	317	-4.1	87	-5.9	4	9	975.3	NA	0.0000		9999	0	0	0	0
2017/11/27 02:12:00	BASE	1.67	337	2.16	336	-4.1	87	-5.9	3	9	975.3	NA	0.0000		9999	0	0	0	0
2017/11/27 02:13:00	BASE	1.66	335	2.16	336	-4.1	87	-5.9	3	8	975.3	NA	0.0000		9999	0	0	0	0
2017/11/27 02:14:00	BASE	1.60	335	2.16	336	-4.1	87	-6.0	3	8	975.3	NA	0.0000		9999	0	0	0	0
2017/11/27 02:15:00	BASE	1.54	337	2.16	336	-4.1	87	-6.0	3	8	975.3	NA	0.0000		9999	0	0	0	0
2017/11/27 02:16:00	BASE	1.55	337	2.16	336	-4.1	87	-6.0	3	8	975.3	NA	0.0000		9999	0	0	0	0
2017/11/27 02:17:00	BASE	1.64	335	2.16	336	-4.1	87	-6.0	3	7	975.3	NA	0.0000		9999	0	0	0	0
2017/11/27 02:18:00	BASE	1.68	335	2.16	336	-4.1	87	-5.9	3	7	975.2	NA	0.0000		9999	0	0	0	0
2017/11/27 02:19:00	BASE	1.63	333	2.11	333	-4.1	87	-6.0	3	7	975.2	NA	0.0000		9999	0	0	0	0
2017/11/27 02:20:00	BASE	1.55	329	1.85	336	-4.1	87	-6.0	3	7	975.2	NA	0.0000		9999	0	0	0	0
2017/11/27 02:21:00	BASE	1.52	334	1.90	340	-4.1	87	-6.0	3	7	975.2	NA	0.0000		9999	0	0	0	0
2017/11/27 02:22:00	BASE	1.76	338	2.16	346	-4.1	87	-6.0	3	6	975.2	NA	0.0000		9999	0	0	0	0
2017/11/27 02:23:00	BASE	1.93	341	2.21	349	-4.1	87	-6.0	3	6	975.2	NA	0.0000		9999	0	0	0	0
2017/11/27 02:24:00	BASE	1.71	345	2.21	349	-4.2	87	-6.0	3	6	975.2	NA	0.0000		9999	0	0	0	0
2017/11/27 02:25:00	BASE	1.68	337	2.21	335	-4.2	87	-6.1	3	6	975.2	NA	0.0000		9999	0	0	0	0
2017/11/27 02:26:00	BASE	1.72	332	2.21	335	-4.2	87	-6.1	2	6	975.1	NA	0.0000		9999	0	0	0	0
2017/11/27 02:27:00	BASE	1.76	337	2.21	335	-4.2	87	-6.1	2	5	975.1	NA	0.0000		9999	0	0	0	0
2017/11/27 02:28:00	BASE	1.91	341	2.21	335	-4.2	87	-6.1	2	5	975.1	NA	0.0000		9999	0	0	0	0
2017/11/27 02:29:00	BASE	1.86	341	2.21	335	-4.2	87	-6.1	2	5	975.1	NA	0.0000		9999	0	0	0	0
2017/11/27 02:30:00	BASE	1.72	340	2.21	335	-4.2	87	-6.0	2	5	975.1	NA	0.0000		9999	0	0	0	0
2017/11/27 02:31:00	BASE	1.65	337	2.21	335	-4.2	87	-6.0	2	5	975.2	NA	0.0000		9999	0	0	0	0
2017/11/27 02:32:00	BASE	1.54	336	2.21	335	-4.2	87	-6.0	2	5	975.2	NA	0.0000		9999	0	0	0	0
2017/11/27 02:33:00	BASE	1.32	339	2.21	335	-4.2	87	-6.0	2	4	975.1	NA	0.0000		9999	0	0	0	0
2017/11/27 02:34:00	BASE	1.37	339	2.21	335	-4.2	87	-6.0	2	4	975.1	NA	0.0000		9999	0	0	0	0
2017/11/27 02:35:00	BASE	1.51	340	2.11	343	-4.3	87	-6.0	2	4	975.1	NA	0.0000		9999	0	0	0	0
2017/11/27 02:36:00	BASE	1.55	344	2.11	343	-4.3	88	-6.1	2	4	975.1	NA	0.0000		9999	0	0	0	0
2017/11/27 02:37:00	BASE	1.66	347	2.11	343	-4.4	88	-6.0	2	4	975.1	NA	0.0000		9999	0	0	0	0
2017/11/27 02:38:00	BASE	1.68	354	1.90	335	-4.4	88	-6.0	2	4	975.1	NA	0.0000		9999	0	0	0	0
2017/11/27 02:39:00	BASE	1.54	1	1.90	335	-4.4	89	-6.0	2	4	975.1	NA	0.0000		9999	0	0	0	0
2017/11/27 02:40:00	BASE	1.38	1	1.90	335	-4.5	89	-6.0	2	4	975.1	NA	0.0000		9999	0	0	0	0
2017/11/27 02:41:00	BASE	1.46	359	1.85	353	-4.4	89	-6.0	2	3	975.1	NA	0.0000		9999	0	0	0	0
2017/11/27 02:42:00	BASE	1.56	0	1.85	353	-4.4	89	-6.0	2	3	975.1	NA	0.0000		9999	0	0	0	0
2017/11/27 02:43:00	BASE	1.39	2	1.85	353	-4.4	88	-6.1	2	3	975.1	NA	0.0000		9999	0	0	0	0
2017/11/27 02:44:00	BASE	1.36	7	1.85	353	-4.4	88	-6.1	2	3	975.0	NA	0.0000		9999	0	0	0	0
2017/11/27 02:45:00	BASE	1.29	10	1.85	353	-4.4	88	-6.1	2	3	974.9	NA	0.0000		9999	0	0	0	0
2017/11/27 02:46:00	BASE	1.30	8	1.85	353	-4.4	88	-6.1	1	3	974.9	NA	0.0000		9999	0	0	0	0
2017/11/27 02:47:00	BASE	1.39	6	1.85	353	-4.4	87	-6.1	1	3	974.9	NA	0.0000		9999	0	0	0	0
2017/11/27 02:48:00	BASE	0.87	6	1.85	353	-4.3	87	-6.2	1	3	974.9	NA	0.0000		9999	0	0	0	0
2017/11/27 02:49:00	BASE	0.47	8	1.85	353	-4.3	87	-6.2	1	3	974.9	NA	0.0000		9999	0	0	0	0
2017/11/27 02:50:00	BASE	0.74	7	1.85	353	-4.3	86	-6.3	1	3	974.9	NA	0.0000		9999	0	0	0	0
2017/11/27 02:51:00	BASE	0.92	8	1.70	2	-4.4	86	-6.3	1	3	974.9	NA	0.0000		9999	0	0	0	0
2017/11/27 02:52:00	BASE	1.07	6	1.70	339	-4.4	86	-6.4	1	3	974.9	NA	0.0000		9999	0	0	0	0
2017/11/27 02:53:00	BASE	1.40	350	1.75	335	-4.4	86	-6.4	1	2	974.9	NA	0.0000		9999	0	0	0	0
2017/11/27 02:54:00	BASE	1.56	338	1.90	342	-4.4	86	-6.4	1	2	974.9	NA	0.0000		9999	0	0	0	0
2017/11/27 02:55:00	BASE	1.58	336	1.90	342	-4.4	86	-6.4	1	2	974.9	NA	0.0000		9999	0	0	0	0
2017/11/27 02:56:00	BASE	1.48	338	1.90	342	-4.5	86	-6.4	1	2	974.9	NA	0.0000		9999	0	0	0	0
2017/11/27 02:57:00	BASE	1.22	342	1.90	342	-4.5	86	-6.4	1	2	974.9	NA	0.0000		9999	0	0	0	0
2017/11/27 02:58:00	BASE	0.76	343	1.90	342	-4.5	86	-6.4	1	2	974.9	NA	0.0000		9999	0	0	0	0
2017/11/27 02:59:00	BASE	0.59	341	1.90	342	-4.5	87	-6.4	1	2	974.9	NA	0.0000		9999	0	0	0	0
2017/11/27 03:00:00	BASE	0.73	337	1.90	342	-4.5	87	-6.4	1	2	974.9	NA	0.0000		9999	0	0	0	0
2017/11/27 03:01:00	BASE	1.10	338	1.90	342	-4.5	87	-6.3	1	2	974.9	NA	0.0000		9999	0	0	0	0
2017/11/27 03:02:00	BASE	1.58	342	1.95	343	-4.5	87	-6.3	1	2	974.8	NA	0.0000		9999	0	0	0	0
2017/11/27 03:03:00	BASE	1.77	346	1.95	345	-4.6	88	-6.3	1	2	974.8	NA	0.0000		9999	0	0	0	0
2017/11/27 03:04:00	BASE	1.66	352	1.95	345	-4.6	88	-6.3	1	2	974.8	NA	0.0000		9999	0	0	0	0
2017/11/27 03:05:00	BASE	1.15	2	1.95	345	-4.6	88	-6.3	1	2	974.8	NA	0.0000		9999	0	0	0	0
2017/11/27 03:06:00	BASE	0.95	4	1.95	345	-4.6	88	-6.2	1	2	974.8	NA	0.0000		9999	0	0	0	0
2017/11/27 03:07:00	BASE	1.19	5	1.95	345	-4.6	88	-6.2	1	2	974.8	NA	0.0000		9999	0	0	0	0
2017/11/27 03:08:00	BASE	1.42	11	1.95	345	-4.5	88	-6.2	1	2	974.8	NA	0.0000		9999	0	0	0	0
2017/11/27 03:09:00	BASE	1.65	20	1.95	32	-4.5	88	-6.3	1	2	974.8	NA	0.0000		9999	0	0	0	0
2017/11/27 03:10:00	BASE	1.65	25	1.95	32	-4.5	88	-6.3	1	1	974.8	NA	0.0000		9999	0	0	0	0
2017/11/27 03:11:00	BASE	1.39	14	1.95	32	-4.5	87	-6.3	1	1	974.8	NA	0.0000		9999	0	0	0	0
2017/11/27 03:12:00	BASE	0.84	6	1.95	32	-4.5	87	-6.4	1	1	974.8	NA	0.0000		9999	0	0	0	0
2017/11/27 03:13:00	BASE	0.48	11	1.95	32	-4.5	87	-6.4	1	1	974.8	NA	0.0000		9999	0	0	0	0
2017/11/27 03:14:00	BASE	0.28	15	1.95	32	-4.5	86	-6.4	1	1	974.8	NA	0.0000		9999	0	0	0	0
2017/11/27 03:15:00	BASE	0.09	26	1.95	32	-4.5	86	-6.5	1	1	974.8	NA	0.0000		9999	0	0	0	0
2017/11/27 03:16:00	BASE	0.09	25	1.95	32	-4.5	86	-6.5	1	1	974.8	NA	0.0000		9999	0	0	0	0
2017/11/27 03:17:00	BASE	0.20	8	1.95	32	-4.5	85	-6.5	1	1	974.8	NA	0.0000		9999	0	0	0	0
2017/11/27 03:18:00	BASE	0.66	359	1.95	32	-4.4	85	-6.5	1	1	974.8	NA	0.0000		9999	2560	0	0	0
2017/11/27 03:19:00	BASE	0.46	4	1.75	39	-4.4	85	-6.5	1	1	974.8	NA	0.0000		9999	2530	0	0	0
2017/11/27 03:20:00	BASE	0.17	24	1.65	348	-4.4	85	-6.5	1	1	974.8	NA	0.0000		9999	2530	0	0	0
2017/11/27 03:21:00	BASE	0.43	44	1.65	348	-4.3	85	-6.6	1	1	974.8	NA	0.0000		9999	2530	0	0	0
2017/11/27 03:22:00	BASE	0.56	32	1.65	348	-4.3	84	-6.6	1	1	974.8	NA	0.0000		9999	2330	0	0	0
2017/11/27 03:23:00	BASE	0.63	8	1.65	348	-4.4	84	-6.6	1	1	974.8	NA	0.0000		9999	2200	0	0	0
2017/11/27 03:24:00	BASE	0.90	358	1.70	360	-4.4	84	-6.7	1	1	974.8	NA	0.0000		9999	2200	0	0	0
2017/11/27 03:25:00	BASE	1.24	3	1.70	360	-4.4	84	-6.7	1	1	974.8	NA	0.0000		9999	2200	0	0	0
2017/11/27 03:26:00	BASE	1.45	7	1.75	360	-4.5	85	-6.7	1	1	974.7	NA	0.0000		9999	2230	0	0	0
2017/11/27 03:27:00	BASE	1.55	1	1.75	352	-4.5	85	-6.7	1	1	974.7	NA	0.0000		9999	0	0	0	0
2017/11/27 03:28:00	BASE	1.61	355	2.06	345	-4.5	85	-6.6	1	1	974.7	NA	0.0000		9999	2100	0	0	0
2017/11/27 03:29:00	BASE	1.59	351	2.06	338	-4.4	85	-6.6	1	1	974.7	NA	0.0000		9999	2070	0	0	0
2017/11/27 03:30:00	BASE	1.66	348	2.06	344	-4.4	85	-6.6	1	1	974.7	NA	0.0000		9999	2030	0	0	0
2017/11/27 03:31:00	BASE	1.71	355	2.06	344	-4.4	85	-6.6	1	1	974.7	NA	0.0000		9999	2300	0	0	0
2017/11/27 03:32:00	BASE	1.66	5	2.06	344	-4.4	84	-6.6	1	1	974.6	NA	0.0000		9999	2330	0	0	0
2017/11/27 03:33:00	BASE	1.58	6	2.06	344	-4.4	84	-6.6	1	1	974.6	NA	0.0000		9999	2300	0	0	0
2017/11/27 03:34:00	BASE	1.58	5	2.11	1	-4.4	84	-6.7	0	1	974.6	NA	0.0000		9999	2260	0	0	0
2017/11/27 03:35:00	BASE	1.79	4	2.11	4	-4.4	85	-6.6	1	1	974.6	NA	0.0000		9999	2170	0	0	0
2017/11/27 03:36:00	BASE	1.83	12	2.11	4	-4.5	85	-6.6	0	1	974.5	NA	0.0000		9999	0	0	0	0
2017/11/27 03:37:00	BASE	1.74	22	2.11	4	-4.5	85	-6.6	0	1	974.5	NA	0.0000		9999	2260	0	0	0
2017/11/27 03:38:00	BASE	1.70	25	2.11	4	-4.5	85	-6.7	0	1	974.5	NA	0.0000		9999	2130	0	0	0
2017/11/27 03:39:00	BASE	1.64	28	2.11	4	-4.5	85	-6.7	0	1	974.5	NA	0.0000		9999	0	0	0	0
2017/11/27 03:40:00	BASE	1.82	32	2.31	34	-4.5	85	-6.7	0	1	974.5	NA	0.0000		9999	0	0	0	0
2017/11/27 03:41:00	BASE	2.19	29	2.68	27	-4.5	85	-6.7	0	1	974.5	NA	0.0000		9999	0	0	0	0
2017/11/27 03:42:00	BASE	2.34	31	2.68	27	-4.5	85	-6.7	0	1	974.5	NA	0.0000		9999	0	0	0	0
2017/11/27 03:43:00	BASE	2.13	33	2.68	27	-4.6	85	-6.7	0	1	974.5	NA	0.0000		9999	0	0	0	0
2017/11/27 03:44:00	BASE	1.87	33	2.68	27	-4.6	85	-6.7	0	1	974.5	NA	0.0000		9999	0	0	0	0
2017/11/27 03:45:00	BASE	1.90	37	2.68	27	-4.6	85	-6.8	0	1	974.5	NA	0.0000		9999	0	0	0	0
2017/11/27 03:46:00	BASE	1.94	38	2.68	27	-4.6	85	-6.8	0	1	974.5	NA	0.0000		9999	0	0	0	0
2017/11/27 03:47:00	BASE	1.70	29	2.68	27	-4.7	84	-6.9	0	1	974.4	NA	0.0000		9999	0	0	0	0
2017/11/27 03:48:00	BASE	1.52	24	2.68	27	-4.7	84	-6.9	0	1	974.3	NA	0.0000		9999	0	0	0	0
2017/11/27 03:49:00	BASE	1.55	31	2.68	27	-4.7	84	-6.9	0	1	974.3	NA	0.0000		9999	0	0	0	0
2017/11/27 03:50:00	BASE	1.57	37	2.68	27	-4.7	85	-6.9	0	1	974.3	NA	0.0000		9999	0	0	0	0
2017/11/27 03:51:00	BASE	1.65	34	2.57	43	-4.7	85	-6.9	0	1	974.3	NA	0.0000		9999	0	0	0	0
2017/11/27 03:52:00	BASE	1.71	30	2.42	36	-4.7	85	-6.9	0	1	974.3	NA	0.0000		9999	0	0	0	0
2017/11/27 03:53:00	BASE	1.88	27	2.31	43	-4.7	85	-6.8	0	1	974.3	NA	0.0000		9999	0	0	0	0
2017/11/27 03:54:00	BASE	1.99	25	2.31	43	-4.7	85	-6.8	0	1	974.3	NA	0.0000		9999	0	0	0	0
2017/11/27 03:55:00	BASE	1.82	25	2.26	21	-4.7	85	-6.8	0	1	974.3	NA	0.0000		9999	0	0	0	0
2017/11/27 03:56:00	BASE	1.63	20	2.26	21	-4.7	85	-6.8	0	1	974.3	NA	0.0000		9999	0	0	0	0
2017/11/27 03:57:00	BASE	1.85	18	2.57	7	-4.7	85	-6.9	0	1	974.3	NA	0.0000		9999	0	0	0	0
2017/11/27 03:58:00	BASE	2.00	17	2.57	7	-4.7	85	-6.9	0	1	974.3	NA	0.0000		9999	0	0	0	0
2017/11/27 03:59:00	BASE	1.83	14	2.57	7	-4.8	85	-6.9	0	1	974.3	NA	0.0000		9999	0	0	0	0
2017/11/27 04:00:00	BASE	1.90	17	2.57	7	-4.8	85	-7.0	0	1	974.3	NA	0.0000		9999	0	0	0	0
2017/11/27 04:01:00	BASE	1.93	22	2.57	7	-4.9	85	-7.0	0	1	974.3	NA	0.0000		9999	0	0	0	0
2017/11/27 04:02:00	BASE	1.68	30	2.57	7	-4.9	85	-7.1	0	1	974.3	NA	0.0000		9999	0	0	0	0
2017/11/27 04:03:00	BASE	1.48	41	2.57	7	-5.0	85	-7.1	0	1	974.2	NA	0.0000		9999	0	0	0	0
2017/11/27 04:04:00	BASE	1.55	43	2.57	7	-5.0	85	-7.1	0	1	974.2	NA	0.0000		9999	0	0	0	0
2017/11/27 04:05:00	BASE	1.48	41	2.57	7	-5.1	86	-7.1	0	1	974.2	NA	0.0000		9999	0	0	0	0
2017/11/27 04:06:00	BASE	1.08	45	2.57	7	-5.1	86	-7.1	0	1	974.2	NA	0.0000		9999	0	0	0	0
2017/11/27 04:07:00	BASE	0.86	43	2.42	26	-5.1	86	-7.1	0	1	974.2	NA	0.0000		9999	2030	0	0	0
2017/11/27 04:08:00	BASE	1.31	28	2.42	26	-5.1	86	-7.1	0	1	974.2	NA	0.0000		9999	0	0	0	0
2017/11/27 04:09:00	BASE	1.82	16	2.42	26	-5.1	86	-7.1	0	1	974.2	NA	0.0000		9999	0	0	0	0
2017/11/27 04:10:00	BASE	1.95	11	2.31	26	-5.1	86	-7.1	0	1	974.2	NA	0.0000		9999	0	0	0	0
2017/11/27 04:11:00	BASE	1.99	12	2.26	4	-5.1	86	-7.1	0	1	974.2	NA	0.0000		9999	0	0	0	0
2017/11/27 04:12:00	BASE	1.82	7	2.26	4	-5.1	86	-7.1	0	1	974.2	NA	0.0000		9999	0	0	0	0
2017/11/27 04:13:00	BASE	1.91	355	2.42	352	-5.1	86	-7.0	0	1	974.2	NA	0.0000		9999	0	0	0	0
2017/11/27 04:14:00	BASE	2.05	355	2.42	348	-5.1	87	-7.0	0	1	974.2	NA	0.0000		9999	0	0	0	0
2017/11/27 04:15:00	BASE	2.13	1	2.62	6	-5.1	87	-7.0	0	1	974.2	NA	0.0000		9999	0	0	0	0
2017/11/27 04:16:00	BASE	2.38	4	2.62	3	-5.1	87	-6.9	0	1	974.1	NA	0.0000		9999	0	0	0	0
2017/11/27 04:17:00	BASE	2.50	1	2.88	360	-5.1	87	-6.8	0	1	974.1	NA	0.0000		9999	0	0	0	0
2017/11/27 04:18:00	BASE	2.66	358	3.14	349	-5.0	88	-6.8	0	1	974.1	NA	0.0000		9999	0	0	0	0
2017/11/27 04:19:00	BASE	2.69	357	3.14	349	-5.0	88	-6.7	0	1	974.1	NA	0.0000		9999	0	0	0	0
2017/11/27 04:20:00	BASE	2.24	0	3.14	349	-5.0	88	-6.6	0	1	974.1	NA	0.0000		9999	0	0	0	0
2017/11/27 04:21:00	BASE	2.19	3	3.14	349	-5.0	88	-6.6	0	1	974.0	NA	0.0000		9999	0	0	0	0
2017/11/27 04:22:00	BASE	2.29	2	3.14	349	-5.0	88	-6.7	0	1	974.0	NA	0.0000		9999	0	0	0	0
2017/11/27 04:23:00	BASE	1.99	5	3.14	349	-5.0	88	-6.7	0	1	974.0	NA	0.0000		9999	0	0	0	0
2017/11/27 04:24:00	BASE	2.00	8	3.14	349	-5.0	88	-6.7	0	1	974.0	NA	0.0000		9999	0	0	0	0
2017/11/27 04:25:00	BASE	2.45	9	3.14	349	-5.1	88	-6.7	0	1	973.9	NA	0.0000		9999	0	0	0	0
2017/11/27 04:26:00	BASE	2.76	7	3.14	349	-5.0	88	-6.7	0	1	973.9	NA	0.0000		9999	0	0	0	0
2017/11/27 04:27:00	BASE	2.61	5	3.14	349	-5.0	88	-6.7	0	1	973.9	NA	0.0000		9999	0	0	0	0
2017/11/27 04:28:00	BASE	2.55	3	3.09	7	-5.0	88	-6.7	0	1	973.9	NA	0.0000		9999	0	0	0	0
2017/11/27 04:29:00	BASE	2.55	3	3.09	7	-5.0	88	-6.7	0	1	973.9	NA	0.0000		9999	0	0	0	0
2017/11/27 04:30:00	BASE	2.35	5	3.09	7	-5.0	88	-6.7	0	1	973.9	NA	0.0000		9999	0	0	0	0
2017/11/27 04:31:00	BASE	1.97	7	3.09	7	-5.1	88	-6.7	0	1	973.9	NA	0.0000		9999	0	0	0	0
2017/11/27 04:32:00	BASE	1.57	16	3.09	7	-5.1	88	-6.8	0	1	973.9	NA	0.0000		9999	0	0	0	0
2017/11/27 04:33:00	BASE	1.49	21	3.09	7	-5.1	88	-6.8	0	1	973.9	NA	0.0000		9999	0	0	0	0
2017/11/27 04:34:00	BASE	1.65	14	3.09	7	-5.1	88	-6.8	0	1	973.9	NA	0.0000		9999	0	0	0	0
2017/11/27 04:35:00	BASE	1.79	10	3.04	360	-5.2	88	-6.8	0	1	973.9	NA	0.0000		9999	0	0	0	0
2017/11/27 04:36:00	BASE	1.83	15	2.73	2	-5.2	88	-6.8	0	1	973.8	NA	0.0000		9999	0	0	0	0
2017/11/27 04:37:00	BASE	1.93	20	2.73	2	-5.2	88	-6.9	0	1	973.8	NA	0.0000		9999	0	0	0	0
2017/11/27 04:38:00	BASE	1.96	21	2.73	2	-5.2	88	-6.9	0	1	973.7	NA	0.0000		9999	0	0	0	0
2017/11/27 04:39:00	BASE	2.01	21	2.47	5	-5.2	88	-6.9	0	1	973.7	NA	0.0000		9999	0	0	0	0
2017/11/27 04:40:00	BASE	2.42	23	3.19	26	-5.2	88	-6.9	0	1	973.7	NA	0.0000		9999	0	0	0	0
2017/11/27 04:41:00	BASE	2.70	27	3.19	29	-5.2	88	-6.9	1	1	973.7	NA	0.0000		9999	0	0	0	0
2017/11/27 04:42:00	BASE	2.79	28	3.19	29	-5.2	88	-6.9	1	1	973.7	NA	0.0000		9999	0	0	0	0
2017/11/27 04:43:00	BASE	2.83	26	3.19	29	-5.2	88	-6.9	1	1	973.7	NA	0.0000		9999	0	0	0	0
2017/11/27 04:44:00	BASE	2.84	23	3.34	18	-5.2	88	-6.9	1	1	973.7	NA	0.0000		9999	0	0	0	0
2017/11/27 04:45:00	BASE	3.08	18	3.70	11	-5.2	87	-7.0	1	1	973.7	NA	0.0000		9999	0	0	0	0
2017/11/27 04:46:00	BASE	2.88	15	3.70	11	-5.2	87	-7.0	1	1	973.7	NA	0.0000		9999	0	0	0	0
2017/11/27 04:47:00	BASE	2.59	13	3.70	11	-5.2	87	-7.0	1	1	973.7	NA	0.0000		9999	0	0	0	0
2017/11/27 04:48:00	BASE	2.87	13	3.70	11	-5.2	87	-7.0	1	1	973.7	NA	0.0000		9999	0	0	0	0
2017/11/27 04:49:00	BASE	2.95	19	3.70	11	-5.2	87	-7.0	1	1	973.6	NA	0.0000		9999	0	0	0	0
2017/11/27 04:50:00	BASE	2.97	27	3.70	11	-5.2	87	-7.0	1	1	973.6	NA	0.0000		9999	0	0	0	0
2017/11/27 04:51:00	BASE	2.84	26	3.70	11	-5.2	87	-7.0	1	1	973.6	NA	0.0000		9999	0	0	0	0
2017/11/27 04:52:00	BASE	2.55	21	3.70	11	-5.1	87	-7.0	1	1	973.6	NA	0.0000		9999	0	0	0	0
2017/11/27 04:53:00	BASE	2.67	23	3.70	11	-5.1	87	-7.0	1	1	973.6	NA	0.0000		9999	0	0	0	0
2017/11/27 04:54:00	BASE	2.72	24	3.70	11	-5.1	87	-6.9	1	1	973.6	NA	0.0000		9999	0	0	0	0
2017/11/27 04:55:00	BASE	2.47	23	3.65	12	-5.1	87	-6.9	1	1	973.5	NA	0.0000		9999	0	0	0	0
2017/11/27 04:56:00	BASE	2.35	24	3.65	12	-5.1	87	-6.9	1	1	973.6	NA	0.0000		9999	0	0	0	0
2017/11/27 04:57:00	BASE	2.36	21	3.65	12	-5.1	87	-6.9	1	1	973.6	NA	0.0000		9999	0	0	0	0
2017/11/27 04:58:00	BASE	2.24	18	3.40	24	-5.1	87	-6.9	1	1	973.6	NA	0.0000		9999	0	0	0	0
2017/11/27 04:59:00	BASE	2.11	19	3.40	24	-5.1	87	-7.0	1	1	973.6	NA	0.0000		9999	0	0	0	0
2017/11/27 05:00:00	BASE	1.77	22	3.40	24	-5.1	87	-7.0	1	1	973.6	NA	0.0000		9999	0	0	0	0
2017/11/27 05:01:00	BASE	1.20	24	3.40	24	-5.1	86	-7.0	1	2	973.6	NA	0.0000		9999	0	0	0	0
2017/11/27 05:02:00	BASE	0.93	28	3.40	24	-5.1	86	-7.1	1	2	973.5	NA	0.0000		9999	0	0	0	0
2017/11/27 05:03:00	BASE	1.29	30	2.88	15	-5.1	86	-7.1	1	2	973.5	NA	0.0000		9999	0	0	0	0
2017/11/27 05:04:00	BASE	1.74	34	2.73	18	-5.1	86	-7.1	1	2	973.5	NA	0.0000		9999	0	0	0	0
2017/11/27 05:05:00	BASE	1.83	39	2.62	21	-5.2	86	-7.1	1	2	973.5	NA	0.0000		9999	0	0	0	0
2017/11/27 05:06:00	BASE	1.67	51	2.52	20	-5.2	86	-7.1	1	2	973.5	NA	0.0000		9999	0	0	0	0
2017/11/27 05:07:00	BASE	1.68	53	2.37	19	-5.2	86	-7.2	1	2	973.5	NA	0.0000		9999	0	0	0	0
2017/11/27 05:08:00	BASE	1.79	46	2.37	19	-5.2	86	-7.2	1	2	973.5	NA	0.0000		9999	0	0	0	0
2017/11/27 05:09:00	BASE	1.88	46	2.31	36	-5.2	86	-7.2	1	2	973.5	NA	0.0000		9999	0	0	0	0
2017/11/27 05:10:00	BASE	1.97	45	2.31	50	-5.3	86	-7.2	1	2	973.5	NA	0.0000		9999	0	0	0	0
2017/11/27 05:11:00	BASE	1.92	41	2.31	50	-5.3	86	-7.2	1	2	973.4	NA	0.0000		9999	0	0	0	0
2017/11/27 05:12:00	BASE	1.90	42	2.31	50	-5.2	86	-7.2	1	2	973.4	NA	0.0000		9999	0	0	0	0
2017/11/27 05:13:00	BASE	1.97	49	2.31	50	-5.2	86	-7.2	1	2	973.4	NA	0.0000		9999	0	0	0	0
2017/11/27 05:14:00	BASE	1.95	46	2.52	51	-5.2	86	-7.2	1	2	973.4	NA	0.0000		9999	0	0	0	0
2017/11/27 05:15:00	BASE	1.72	48	2.52	51	-5.2	86	-7.2	1	2	973.4	NA	0.0000		9999	0	0	0	0
2017/11/27 05:16:00	BASE	1.49	59	2.52	51	-5.2	86	-7.2	1	2	973.4	NA	0.0000		9999	0	0	0	0
2017/11/27 05:17:00	BASE	1.34	63	2.52	51	-5.2	86	-7.3	1	3	973.4	NA	0.0000		9999	0	0	0	0
2017/11/27 05:18:00	BASE	1.46	67	2.52	51	-5.3	85	-7.3	1	3	973.4	NA	0.0000		9999	0	0	0	0
2017/11/27 05:19:00	BASE	1.83	67	2.52	51	-5.3	85	-7.4	1	3	973.4	NA	0.0000		9999	0	0	0	0
2017/11/27 05:20:00	BASE	2.04	64	2.52	51	-5.3	85	-7.4	1	3	973.4	NA	0.0000		9999	0	0	0	0
2017/11/27 05:21:00	BASE	2.18	64	2.52	57	-5.3	85	-7.4	1	3	973.3	NA	0.0000		9999	0	0	0	0
2017/11/27 05:22:00	BASE	2.36	64	2.78	72	-5.3	85	-7.4	1	3	973.3	NA	0.0000		9999	0	0	0	0
2017/11/27 05:23:00	BASE	2.35	64	2.78	72	-5.3	85	-7.4	1	3	973.3	NA	0.0000		9999	0	0	0	0
2017/11/27 05:24:00	BASE	2.17	63	2.78	72	-5.4	85	-7.5	1	3	973.3	NA	0.0000		9999	0	0	0	0
2017/11/27 05:25:00	BASE	2.04	67	2.78	72	-5.4	85	-7.5	2	3	973.3	NA	0.0000		9999	0	0	0	0
2017/11/27 05:26:00	BASE	2.07	71	2.78	72	-5.4	85	-7.6	2	3	973.3	NA	0.0000		9999	0	0	0	0
2017/11/27 05:27:00	BASE	2.29	74	2.78	72	-5.5	85	-7.6	2	3	973.3	NA	0.0000		9999	0	0	0	0
2017/11/27 05:28:00	BASE	2.42	70	2.78	72	-5.4	85	-7.6	2	4	973.3	NA	0.0000		9999	0	0	0	0
2017/11/27 05:29:00	BASE	2.25	64	2.78	72	-5.4	84	-7.6	2	4	973.2	NA	0.0000		9999	0	0	0	0
2017/11/27 05:30:00	BASE	2.15	68	2.78	72	-5.4	84	-7.6	2	4	973.2	NA	0.0000		9999	0	0	0	0
2017/11/27 05:31:00	BASE	2.33	72	2.93	64	-5.4	84	-7.6	2	4	973.2	NA	0.0000		9999	0	0	0	0
2017/11/27 05:32:00	BASE	2.39	70	2.93	64	-5.3	84	-7.6	2	4	973.2	NA	0.0000		9999	0	0	0	0
2017/11/27 05:33:00	BASE	2.34	67	2.93	64	-5.3	84	-7.6	2	4	973.2	NA	0.0000		9999	0	0	0	0
2017/11/27 05:34:00	BASE	2.29	70	2.93	64	-5.3	84	-7.7	2	4	973.1	NA	0.0000		9999	0	0	0	0
2017/11/27 05:35:00	BASE	2.24	71	2.93	64	-5.4	84	-7.7	2	4	973.2	NA	0.0000		9999	0	0	0	0
2017/11/27 05:36:00	BASE	2.23	68	2.93	64	-5.4	83	-7.7	2	5	973.1	NA	0.0000		9999	0	0	0	0
2017/11/27 05:37:00	BASE	2.12	65	2.93	64	-5.4	83	-7.8	2	5	973.1	NA	0.0000		9999	0	0	0	0
2017/11/27 05:38:00	BASE	2.17	61	2.93	64	-5.4	83	-7.8	2	5	973.0	NA	0.0000		9999	0	0	0	0
2017/11/27 05:39:00	BASE	2.34	60	2.93	64	-5.4	83	-7.8	2	5	973.0	NA	0.0000		9999	0	0	0	0
2017/11/27 05:40:00	BASE	2.36	64	2.93	64	-5.4	83	-7.8	3	5	973.0	NA	0.0000		9999	0	0	0	0
2017/11/27 05:41:00	BASE	2.41	70	2.98	79	-5.4	83	-7.8	3	6	973.0	NA	0.0000		9999	0	0	0	0
2017/11/27 05:42:00	BASE	2.22	70	2.98	79	-5.4	83	-7.8	3	6	973.0	NA	0.0000		9999	0	0	0	0
2017/11/27 05:43:00	BASE	2.06	71	2.98	79	-5.4	83	-7.8	3	6	973.0	NA	0.0000		9999	0	0	0	0
2017/11/27 05:44:00	BASE	2.12	69	2.98	79	-5.4	83	-7.9	3	6	973.0	NA	0.0000		9999	0	0	0	0
2017/11/27 05:45:00	BASE	2.02	65	2.98	79	-5.5	83	-7.9	3	6	973.0	NA	0.0000		9999	0	0	0	0
2017/11/27 05:46:00	BASE	1.84	64	2.98	79	-5.5	83	-7.9	3	6	973.0	NA	0.0000		9999	0	0	0	0
2017/11/27 05:47:00	BASE	1.72	60	2.98	79	-5.5	83	-7.9	3	7	973.0	NA	0.0000		9999	0	0	0	0
2017/11/27 05:48:00	BASE	1.61	61	2.98	79	-5.4	83	-7.9	3	7	973.0	NA	0.0000		9999	0	0	0	0
2017/11/27 05:49:00	BASE	1.27	54	2.98	79	-5.4	83	-7.9	3	7	973.0	NA	0.0000		9999	0	0	0	0
2017/11/27 05:50:00	BASE	0.93	40	2.98	79	-5.4	83	-7.9	3	7	973.0	NA	0.0000		9999	0	0	0	0
2017/11/27 05:51:00	BASE	1.34	37	2.62	40	-5.4	83	-7.9	3	7	973.0	NA	0.0000		9999	0	0	0	0
2017/11/27 05:52:00	BASE	2.22	31	3.09	28	-5.4	83	-7.9	3	8	973.0	NA	0.0000		9999	0	0	0	0
2017/11/27 05:53:00	BASE	2.53	28	3.09	28	-5.4	83	-7.9	3	8	973.0	NA	0.0000		9999	0	0	0	0
2017/11/27 05:54:00	BASE	2.41	31	3.09	28	-5.4	82	-7.9	3	8	973.0	NA	0.0000		9999	0	0	0	0
2017/11/27 05:55:00	BASE	2.64	32	3.29	34	-5.4	82	-7.9	4	8	973.0	NA	0.0000		9999	0	0	0	0
2017/11/27 05:56:00	BASE	2.81	30	3.29	34	-5.4	82	-8.0	4	9	973.0	NA	0.0000		9999	0	0	0	0
2017/11/27 05:57:00	BASE	2.42	30	3.29	34	-5.4	82	-8.0	4	9	973.0	NA	0.0000		9999	0	0	0	0
2017/11/27 05:58:00	BASE	2.29	29	3.29	34	-5.4	82	-8.0	4	9	973.0	NA	0.0000		9999	0	0	0	0
2017/11/27 05:59:00	BASE	2.38	30	3.29	34	-5.4	82	-8.1	4	10	973.0	NA	0.0000		9999	0	0	0	0
2017/11/27 06:00:00	BASE	2.53	31	3.45	19	-5.5	82	-8.1	4	10	973.0	NA	0.0000		9999	0	0	0	0
2017/11/27 06:01:00	BASE	2.67	28	3.45	19	-5.5	81	-8.2	4	10	972.9	NA	0.0000		9999	0	0	0	0
2017/11/27 06:02:00	BASE	2.88	28	3.55	22	-5.5	81	-8.2	4	11	972.9	NA	0.0000		9999	0	0	0	0
2017/11/27 06:03:00	BASE	2.86	31	3.55	22	-5.5	81	-8.3	4	11	972.9	NA	0.0000		9999	0	0	0	0
2017/11/27 06:04:00	BASE	2.84	32	3.55	22	-5.5	81	-8.3	5	11	972.9	NA	0.0000		9999	0	0	0	0
2017/11/27 06:05:00	BASE	3.19	31	3.76	27	-5.5	81	-8.3	5	11	972.9	NA	0.0000		9999	0	0	0	0
2017/11/27 06:06:00	BASE	3.15	31	3.76	27	-5.5	81	-8.2	5	12	972.9	NA	0.0000		9999	0	0	0	0
2017/11/27 06:07:00	BASE	2.92	32	3.76	27	-5.5	81	-8.3	5	12	972.9	NA	0.0000		9999	0	0	0	0
2017/11/27 06:08:00	BASE	2.88	32	3.76	27	-5.5	81	-8.3	5	13	972.9	NA	0.0000		9999	0	0	0	0
2017/11/27 06:09:00	BASE	3.08	32	3.76	27	-5.5	80	-8.3	5	13	972.9	NA	0.0000		9999	0	0	0	0
2017/11/27 06:10:00	BASE	3.07	31	3.76	27	-5.5	80	-8.4	5	13	972.9	NA	0.0000		9999	0	0	0	0
2017/11/27 06:11:00	BASE	2.92	29	3.76	27	-5.4	80	-8.4	5	14	972.9	NA	0.0000		9999	0	0	0	0
2017/11/27 06:12:00	BASE	2.85	27	3.76	27	-5.4	79	-8.4	5	14	972.9	NA	0.0000		9999	0	0	0	0
2017/11/27 06:13:00	BASE	2.72	29	3.76	27	-5.4	79	-8.4	5	14	972.9	NA	0.0000		9999	0	0	0	0
2017/11/27 06:14:00	BASE	2.91	28	3.86	25	-5.4	79	-8.5	6	15	972.9	NA	0.0000		9999	0	0	0	0
2017/11/27 06:15:00	BASE	3.36	25	3.91	23	-5.4	79	-8.5	6	15	972.9	NA	0.0000		9999	0	0	0	0
2017/11/27 06:16:00	BASE	3.57	26	4.12	26	-5.4	79	-8.5	6	16	972.9	NA	0.0000		9999	0	0	0	0
2017/11/27 06:17:00	BASE	3.39	24	4.12	26	-5.4	79	-8.5	6	16	972.9	NA	0.0000		9999	0	0	0	0
2017/11/27 06:18:00	BASE	3.18	23	4.12	26	-5.4	78	-8.6	6	17	972.9	NA	0.0000		9999	0	0	0	0
2017/11/27 06:19:00	BASE	3.27	25	4.12	26	-5.4	78	-8.6	6	17	972.9	NA	0.0000		9999	0	0	0	0
2017/11/27 06:20:00	BASE	3.20	26	4.12	26	-5.4	78	-8.6	6	18	972.9	NA	0.0000		9999	0	0	0	0
2017/11/27 06:21:00	BASE	3.09	24	4.12	26	-5.4	78	-8.6	7	18	972.9	NA	0.0000		9999	0	0	0	0
2017/11/27 06:22:00	BASE	3.15	24	4.12	26	-5.4	78	-8.6	7	19	972.8	NA	0.0000		9999	0	0	0	0
2017/11/27 06:23:00	BASE	3.25	26	4.12	26	-5.4	78	-8.6	7	19	972.8	NA	0.0000		9999	0	0	0	0
2017/11/27 06:24:00	BASE	3.28	25	4.12	26	-5.4	78	-8.7	7	20	972.8	NA	0.0000		9999	0	0	0	0
2017/11/27 06:25:00	BASE	3.09	25	4.12	26	-5.5	78	-8.7	7	20	972.8	NA	0.0000		9999	0	0	0	0
2017/11/27 06:26:00	BASE	2.96	24	4.01	26	-5.5	77	-8.8	8	21	972.8	NA	0.0000		9999	0	0	0	0
2017/11/27 06:27:00	BASE	2.98	26	3.81	18	-5.5	77	-8.9	8	22	972.8	NA	0.0000		9999	0	0	0	0
2017/11/27 06:28:00	BASE	3.06	27	3.81	18	-5.5	77	-8.9	8	22	972.8	NA	0.0000		9999	0	0	0	0
2017/11/27 06:29:00	BASE	3.09	28	3.65	27	-5.5	77	-8.9	8	23	972.8	NA	0.0000		9999	14900	0	0	0
2017/11/27 06:30:00	BASE	3.14	27	3.81	27	-5.5	77	-9.0	8	23	972.8	NA	0.0000		9999	14900	0	0	0
2017/11/27 06:31:00	BASE	3.20	27	3.81	27	-5.5	76	-9.0	8	24	972.8	NA	0.0000		9999	14830	0	0	0
2017/11/27 06:32:00	BASE	3.35	25	4.01	20	-5.5	76	-9.1	9	25	972.8	NA	0.0000		9999	14830	0	0	0
2017/11/27 06:33:00	BASE	3.44	25	4.01	20	-5.5	76	-9.2	9	25	972.8	NA	0.0000		9999	14860	0	0	0
2017/11/27 06:34:00	BASE	3.52	22	4.22	6	-5.6	75	-9.2	9	26	972.7	NA	0.0000		9999	14930	0	0	0
2017/11/27 06:35:00	BASE	3.67	20	4.22	6	-5.6	75	-9.3	9	27	972.7	NA	0.0000		9999	14860	0	0	0
2017/11/27 06:36:00	BASE	3.60	18	4.22	6	-5.6	75	-9.4	9	27	972.7	NA	0.0000		9999	14830	0	0	0
2017/11/27 06:37:00	BASE	3.72	17	4.22	15	-5.6	74	-9.4	10	28	972.7	NA	0.0000		9999	14760	0	0	0
2017/11/27 06:38:00	BASE	3.93	17	4.22	14	-5.6	74	-9.5	10	29	972.7	NA	0.0000		9999	14760	0	0	0
2017/11/27 06:39:00	BASE	3.93	19	4.42	23	-5.6	74	-9.6	11	30	972.7	NA	0.0000		9999	14670	0	0	0
2017/11/27 06:40:00	BASE	3.93	20	4.42	23	-5.6	73	-9.6	12	31	972.7	NA	0.0000		9999	14630	0	0	0
2017/11/27 06:41:00	BASE	3.94	18	4.42	23	-5.6	73	-9.6	12	32	972.7	NA	0.0000		9999	14600	0	0	0
2017/11/27 06:42:00	BASE	3.70	19	4.42	23	-5.6	73	-9.7	14	34	972.7	NA	0.0000		9999	14500	0	0	0
2017/11/27 06:43:00	BASE	3.55	21	4.42	23	-5.6	73	-9.7	15	35	972.7	NA	0.0000		9999	14500	0	0	0
2017/11/27 06:44:00	BASE	3.51	21	4.42	23	-5.6	73	-9.7	17	37	972.7	NA	0.0000		9999	14470	0	0	0
2017/11/27 06:45:00	BASE	3.34	16	4.42	23	-5.6	73	-9.7	19	39	972.7	NA	0.0000		9999	14470	0	0	0
2017/11/27 06:46:00	BASE	3.02	11	4.42	23	-5.6	73	-9.7	21	41	972.7	NA	0.0000		9999	0	0	0	0
2017/11/27 06:47:00	BASE	2.74	11	4.42	23	-5.6	73	-9.7	22	43	972.6	NA	0.0000		9999	14570	0	0	0
2017/11/27 06:48:00	BASE	2.68	12	4.42	23	-5.5	72	-9.7	24	44	972.6	NA	0.0000		9999	14370	0	0	0
2017/11/27 06:49:00	BASE	2.71	17	4.32	21	-5.5	72	-9.7	25	46	972.6	NA	0.0000		9999	14310	0	0	0
2017/11/27 06:50:00	BASE	2.74	20	4.22	19	-5.5	72	-9.8	26	47	972.6	NA	0.0000		9999	14340	0	0	0
2017/11/27 06:51:00	BASE	2.80	19	3.91	18	-5.5	72	-9.8	27	49	972.6	NA	0.0000		9999	14370	0	0	0
2017/11/27 06:52:00	BASE	2.71	15	3.91	18	-5.5	71	-9.9	28	51	972.6	NA	0.0000		9999	14340	0	0	0
2017/11/27 06:53:00	BASE	2.59	12	3.76	23	-5.5	71	-9.9	30	53	972.6	NA	0.0000		9999	14340	0	0	0
2017/11/27 06:54:00	BASE	2.60	10	3.40	7	-5.5	70	-10.0	31	55	972.6	NA	0.0000		9999	14340	0	0	0
2017/11/27 06:55:00	BASE	2.60	11	3.19	18	-5.4	70	-10.0	33	57	972.6	NA	0.0000		9999	14310	0	0	0
2017/11/27 06:56:00	BASE	2.38	9	3.19	18	-5.4	70	-10.0	35	59	972.6	NA	0.0000		9999	14340	0	0	0
2017/11/27 06:57:00	BASE	2.22	9	3.19	18	-5.4	70	-10.0	36	62	972.6	NA	0.0000		9999	14270	0	0	0
2017/11/27 06:58:00	BASE	2.45	8	3.19	18	-5.4	70	-10.0	38	64	972.5	NA	0.0000		9999	14310	0	0	0
2017/11/27 06:59:00	BASE	2.83	7	3.24	6	-5.3	70	-9.9	39	66	972.5	NA	0.0000		9999	14310	0	0	0
2017/11/27 07:00:00	BASE	2.77	6	3.24	6	-5.3	70	-9.9	41	67	972.4	NA	0.0000		9999	14310	0	0	0
2017/11/27 07:01:00	BASE	2.44	6	3.24	6	-5.3	70	-9.9	42	69	972.4	NA	0.0000		9999	14440	0	0	0
2017/11/27 07:02:00	BASE	2.63	7	3.40	4	-5.3	70	-9.8	44	71	972.4	NA	0.0000		9999	14210	0	0	0
2017/11/27 07:03:00	BASE	3.00	6	3.40	4	-5.2	70	-9.8	45	73	972.4	NA	0.0000		9999	14270	14830	0	0
2017/11/27 07:04:00	BASE	2.88	5	3.40	4	-5.2	70	-9.8	47	75	972.4	NA	0.0000		9999	14270	14960	0	0
2017/11/27 07:05:01	BASE	2.65	6	3.40	4	-5.1	70	-9.8	48	77	972.4	NA	0.0000		9999	14240	0	0	0
2017/11/27 07:06:00	BASE	2.70	6	3.40	4	-5.1	69	-9.8	49	79	972.4	NA	0.0000		9999	14240	0	0	0
2017/11/27 07:07:00	BASE	2.74	7	3.40	4	-5.0	69	-9.8	49	80	972.3	NA	0.0000		9999	14110	0	0	0
2017/11/27 07:08:00	BASE	2.61	9	3.40	4	-5.0	69	-9.8	48	81	972.3	NA	0.0000		9999	14860	0	0	0
2017/11/27 07:09:00	BASE	2.50	12	3.40	4	-5.0	69	-9.8	47	81	972.3	NA	0.0000		9999	14860	0	0	0
2017/11/27 07:10:00	BASE	2.17	18	3.40	4	-5.0	69	-9.7	47	81	972.3	NA	0.0000		9999	14760	0	0	0
2017/11/27 07:11:00	BASE	1.83	20	3.40	4	-5.0	69	-9.7	44	81	972.3	NA	0.0000		9999	14830	0	0	0
2017/11/27 07:12:00	BASE	1.87	20	3.34	2	-5.0	70	-9.7	42	79	972.3	NA	0.0000		9999	14830	0	0	0
2017/11/27 07:13:00	BASE	1.79	25	3.09	7	-5.0	70	-9.7	39	78	972.3	NA	0.0000		9999	14860	0	0	0
2017/11/27 07:14:00	BASE	1.83	27	3.09	7	-5.1	70	-9.7	37	77	972.3	NA	0.0000		9999	14860	0	0	0
2017/11/27 07:15:00	BASE	2.09	28	2.88	5	-5.1	70	-9.7	35	76	972.3	NA	0.0000		9999	14800	0	0	0
2017/11/27 07:16:00	BASE	2.40	32	2.88	42	-5.1	70	-9.8	35	77	972.3	NA	0.0000		9999	14760	0	0	0
2017/11/27 07:17:00	BASE	2.66	34	2.98	32	-5.1	69	-9.8	36	78	972.3	NA	0.0000		9999	14730	0	0	0
2017/11/27 07:18:00	BASE	2.76	31	3.09	20	-5.1	69	-9.9	36	80	972.3	NA	0.0000		9999	14700	0	0	0
2017/11/27 07:19:00	BASE	2.81	31	3.09	32	-5.1	68	-10.1	37	82	972.3	NA	0.0000		9999	14730	0	0	0
2017/11/27 07:20:00	BASE	2.81	31	3.09	37	-5.1	68	-10.2	37	83	972.3	NA	0.0000		9999	14530	0	0	0
2017/11/27 07:21:00	BASE	2.71	31	3.09	37	-5.1	67	-10.2	38	84	972.3	NA	0.0000		9999	14700	0	0	0
2017/11/27 07:22:00	BASE	2.55	33	3.09	37	-5.2	67	-10.3	39	86	972.2	NA	0.0000		9999	14530	0	0	0
2017/11/27 07:23:00	BASE	2.16	33	3.09	37	-5.2	67	-10.3	39	88	972.2	NA	0.0000		9999	14440	0	0	0
2017/11/27 07:24:00	BASE	1.90	33	3.09	37	-5.2	67	-10.3	40	89	972.2	NA	0.0000		9999	14470	0	0	0
2017/11/27 07:25:00	BASE	2.17	32	3.09	37	-5.2	68	-10.2	43	94	972.2	NA	0.0000		9999	14530	0	0	0
2017/11/27 07:26:00	BASE	2.46	32	3.09	37	-5.2	68	-10.1	52	104	972.2	NA	0.0000		9999	14530	0	0	0
2017/11/27 07:27:00	BASE	2.23	38	3.09	37	-5.2	69	-10.1	61	114	972.2	NA	0.0000		9999	14600	0	0	0
2017/11/27 07:28:00	BASE	1.99	46	3.09	37	-5.2	69	-10.1	71	126	972.2	NA	0.0000		9999	14600	0	0	0
2017/11/27 07:29:00	BASE	1.93	51	3.09	37	-5.2	69	-10.0	80	136	972.2	NA	0.0000		9999	14570	0	0	0
2017/11/27 07:30:00	BASE	1.79	52	2.93	31	-5.1	68	-10.1	84	142	972.2	NA	0.0000		9999	14500	0	0	0
2017/11/27 07:31:00	BASE	1.76	58	2.83	31	-5.1	68	-10.1	86	144	972.1	NA	0.0000		9999	14470	0	0	0
2017/11/27 07:32:00	BASE	1.92	63	2.83	31	-5.1	68	-10.1	87	146	972.1	NA	0.0000		9999	14440	0	0	0
2017/11/27 07:33:00	BASE	1.97	67	2.83	31	-5.0	68	-10.0	87	148	972.1	NA	0.0000		9999	14440	0	0	0
2017/11/27 07:34:00	BASE	1.86	62	2.83	31	-5.0	68	-10.0	88	150	972.1	NA	0.0000		9999	14470	0	0	0
2017/11/27 07:35:00	BASE	1.90	56	2.83	31	-5.0	68	-10.0	90	153	972.1	NA	0.0000		9999	14500	0	0	0
2017/11/27 07:36:00	BASE	2.01	61	2.37	68	-5.0	68	-10.0	92	156	972.1	NA	0.0000		9999	14400	0	0	0
2017/11/27 07:37:00	BASE	1.85	65	2.37	68	-5.0	68	-10.0	94	158	972.1	NA	0.0000		9999	14400	0	0	0
2017/11/27 07:38:00	BASE	1.82	63	2.37	68	-5.0	68	-10.0	95	161	972.1	NA	0.0000		9999	14440	0	0	0
2017/11/27 07:39:00	BASE	2.00	65	2.42	70	-4.9	67	-10.0	97	164	972.1	NA	0.0000		9999	14400	0	0	0
2017/11/27 07:40:00	BASE	1.82	58	2.42	70	-4.9	67	-10.1	99	167	972.1	NA	0.0000		9999	14470	0	0	0
2017/11/27 07:41:00	BASE	1.64	45	2.42	70	-4.9	67	-10.1	101	170	972.1	NA	0.0000		9999	14440	0	0	0
2017/11/27 07:42:00	BASE	1.81	38	2.42	70	-4.9	67	-10.0	103	173	972.1	NA	0.0000		9999	14470	0	0	0
2017/11/27 07:43:00	BASE	1.89	35	2.42	70	-4.9	68	-10.0	105	176	972.1	NA	0.0000		9999	14400	0	0	0
2017/11/27 07:44:00	BASE	1.72	40	2.42	70	-4.9	68	-9.9	107	180	972.1	NA	0.0000		9999	14400	0	0	0
2017/11/27 07:45:00	BASE	1.35	47	2.42	70	-4.9	68	-9.9	108	182	972.1	NA	0.0000		9999	14440	0	0	0
2017/11/27 07:46:00	BASE	1.27	48	2.42	70	-4.8	68	-9.8	111	186	972.1	NA	0.0000		9999	14400	0	0	0
2017/11/27 07:47:00	BASE	1.82	41	2.42	38	-4.8	68	-9.8	112	189	972.1	NA	0.0000		9999	0	0	0	0
2017/11/27 07:48:00	BASE	1.85	46	2.42	38	-4.8	68	-9.8	113	191	972.1	NA	0.0000		9999	14400	0	0	0
2017/11/27 07:49:00	BASE	1.62	67	2.42	38	-4.8	68	-9.8	112	192	972.1	NA	0.0000		9999	14440	0	0	0
2017/11/27 07:50:00	BASE	1.74	74	2.42	38	-4.7	67	-9.9	117	199	972.1	NA	0.0000		9999	14370	0	0	0
2017/11/27 07:51:00	BASE	1.76	68	2.42	38	-4.7	67	-9.9	122	206	972.1	NA	0.0000		9999	14400	0	0	0
2017/11/27 07:52:00	BASE	1.68	64	2.42	38	-4.7	66	-10.0	127	214	972.1	NA	0.0000		9999	14370	0	0	0
2017/11/27 07:53:00	BASE	1.60	59	2.42	38	-4.7	66	-10.1	131	221	972.1	NA	0.0000		9999	14440	0	0	0
2017/11/27 07:54:00	BASE	1.77	50	2.42	38	-4.6	65	-10.2	135	227	972.0	NA	0.0000		9999	14400	0	0	0
2017/11/27 07:55:00	BASE	1.86	40	2.42	38	-4.6	64	-10.3	138	232	972.0	NA	0.0000		9999	14440	0	0	0
2017/11/27 07:56:00	BASE	1.70	29	2.42	38	-4.5	63	-10.4	141	237	972.0	NA	0.0000		9999	14370	0	0	0
2017/11/27 07:57:00	BASE	1.66	30	2.21	44	-4.4	62	-10.6	143	241	972.0	NA	0.0000		9999	14400	0	0	0
2017/11/27 07:58:00	BASE	1.72	38	2.21	44	-4.3	61	-10.8	145	245	972.0	NA	0.0000		9999	14370	0	0	0
2017/11/27 07:59:00	BASE	1.79	37	2.21	44	-4.3	60	-10.8	146	247	972.0	NA	0.0000		9999	14370	0	0	0
2017/11/27 08:00:00	BASE	1.63	34	2.21	44	-4.3	60	-10.9	140	241	972.0	NA	0.0000		9999	14530	0	0	0
2017/11/27 08:01:00	BASE	1.67	40	2.31	32	-4.3	60	-10.9	129	228	972.0	NA	0.0000		9999	14310	0	0	0
2017/11/27 08:02:00	BASE	1.80	41	2.31	32	-4.3	60	-10.8	130	230	972.0	NA	0.0000		9999	14440	0	0	0
2017/11/27 08:03:00	BASE	1.58	48	2.31	32	-4.2	60	-10.8	118	215	971.9	NA	0.0000		9999	14340	0	0	0
2017/11/27 08:04:00	BASE	1.38	54	2.31	32	-4.2	60	-10.8	135	238	971.9	NA	0.0000		9999	14440	0	0	0
2017/11/27 08:05:00	BASE	1.21	40	2.31	32	-4.2	60	-10.8	108	203	971.9	NA	0.0000		9999	14500	0	0	0
2017/11/27 08:06:00	BASE	1.12	33	2.31	32	-4.2	60	-10.8	106	200	971.8	NA	0.0000		9999	14440	0	0	0
2017/11/27 08:07:00	BASE	0.72	45	2.31	32	-4.2	60	-10.8	81	167	971.8	NA	0.0000		9999	14860	0	0	0
2017/11/27 08:08:00	BASE	1.05	58	2.31	32	-4.2	60	-10.8	80	166	971.8	NA	0.0000		9999	0	0	0	0
2017/11/27 08:09:00	BASE	1.66	58	2.31	32	-4.2	60	-10.8	76	161	971.8	NA	0.0000		9999	0	0	0	0
2017/11/27 08:10:00	BASE	1.54	57	2.31	32	-4.2	60	-10.8	74	159	971.8	NA	0.0000		9999	0	0	0	0
2017/11/27 08:11:00	BASE	1.48	61	1.95	55	-4.2	60	-10.9	65	147	971.8	NA	0.0000		9999	0	0	0	0
2017/11/27 08:12:00	BASE	1.45	64	1.95	55	-4.2	60	-10.9	65	146	971.8	NA	0.0000		9999	0	0	0	0
2017/11/27 08:13:00	BASE	1.50	60	1.95	55	-4.2	59	-11.0	65	147	971.8	NA	0.0000		9999	0	0	0	0
2017/11/27 08:14:00	BASE	1.47	53	1.95	55	-4.2	59	-11.0	65	148	971.8	NA	0.0000		9999	0	0	0	0
2017/11/27 08:15:00	BASE	1.40	53	1.95	55	-4.2	59	-11.1	66	149	971.8	NA	0.0000		9999	0	0	0	0
2017/11/27 08:16:00	BASE	1.39	57	1.95	55	-4.2	59	-11.1	66	151	971.7	NA	0.0000		9999	0	0	0	0
2017/11/27 08:17:00	BASE	1.70	63	2.21	68	-4.2	58	-11.2	67	153	971.8	NA	0.0000		9999	0	0	0	0
2017/11/27 08:18:00	BASE	1.88	69	2.21	68	-4.3	58	-11.2	68	155	971.8	NA	0.0000		9999	0	0	0	0
2017/11/27 08:19:00	BASE	1.65	70	2.21	68	-4.4	58	-11.4	69	157	971.8	NA	0.0000		9999	0	0	0	0
2017/11/27 08:20:00	BASE	1.86	70	2.42	74	-4.5	58	-11.4	71	161	971.8	NA	0.0000		9999	0	0	0	0
2017/11/27 08:21:00	BASE	2.20	73	2.42	73	-4.6	58	-11.5	79	173	971.7	NA	0.0000		9999	0	0	0	0
2017/11/27 08:22:00	BASE	2.32	77	2.62	84	-4.6	58	-11.6	87	186	971.7	NA	0.0000		9999	0	0	0	0
2017/11/27 08:23:00	BASE	2.28	77	2.62	84	-4.7	58	-11.7	99	204	971.7	NA	0.0000		9999	0	0	0	0
2017/11/27 08:24:00	BASE	2.29	75	2.62	84	-4.7	58	-11.7	94	196	971.7	NA	0.0000		9999	0	0	0	0
2017/11/27 08:25:00	BASE	2.08	75	2.62	84	-4.7	58	-11.7	99	205	971.7	NA	0.0000		9999	0	0	0	0
2017/11/27 08:26:00	BASE	2.11	75	2.98	72	-4.6	58	-11.6	99	206	971.7	NA	0.0000		9999	0	0	0	0
2017/11/27 08:27:00	BASE	2.31	74	2.98	72	-4.5	58	-11.5	102	212	971.7	NA	0.0000		9999	0	0	0	0
2017/11/27 08:28:00	BASE	1.89	83	2.98	72	-4.4	58	-11.4	107	221	971.7	NA	0.0000		9999	0	0	0	0
2017/11/27 08:29:00	BASE	1.56	92	2.98	72	-4.3	58	-11.3	114	232	971.7	NA	0.0000		9999	0	0	0	0
2017/11/27 08:30:00	BASE	1.50	98	2.98	72	-4.3	59	-11.1	126	250	971.7	NA	0.0000		9999	0	0	0	0
2017/11/27 08:31:00	BASE	1.69	102	2.98	72	-4.3	60	-11.0	150	286	971.7	NA	0.0000		9999	0	0	0	0
2017/11/27 08:32:00	BASE	1.91	103	2.98	72	-4.2	60	-10.8	165	308	971.7	NA	0.0000		9999	0	0	0	0
2017/11/27 08:33:00	BASE	1.88	102	2.98	72	-4.2	61	-10.7	175	324	971.7	NA	0.0000		9999	0	0	0	0
2017/11/27 08:34:00	BASE	1.84	100	2.98	72	-4.2	61	-10.5	182	336	971.7	NA	0.0000		9999	0	0	0	0
2017/11/27 08:35:00	BASE	1.85	100	2.98	72	-4.2	62	-10.4	187	344	971.7	NA	0.0000		9999	0	0	0	0
2017/11/27 08:36:00	BASE	1.68	105	2.31	74	-4.2	63	-10.2	179	334	971.7	NA	0.0000		9999	0	0	0	0
2017/11/27 08:37:00	BASE	1.70	109	2.16	104	-4.1	63	-10.1	162	310	971.7	NA	0.0000		9999	0	0	0	0
2017/11/27 08:38:00	BASE	2.01	110	2.52	111	-4.1	63	-10.0	173	326	971.7	NA	0.0000		9999	0	0	0	0
2017/11/27 08:39:00	BASE	2.42	109	2.88	108	-4.1	64	-10.0	172	326	971.7	NA	0.0000		9999	14960	0	0	0
2017/11/27 08:40:00	BASE	2.80	109	3.09	111	-4.1	64	-9.9	182	341	971.7	NA	0.0000		9999	14900	0	0	0
2017/11/27 08:41:00	BASE	2.98	112	3.24	118	-4.1	64	-10.0	196	362	971.7	NA	0.0000		9999	0	0	0	0
2017/11/27 08:42:00	BASE	3.12	114	3.29	116	-4.1	64	-10.0	200	370	971.7	NA	0.0000		9999	14900	0	0	0
2017/11/27 08:43:00	BASE	3.27	115	3.45	113	-4.1	64	-10.0	204	378	971.7	NA	0.0000		9999	14900	0	0	0
2017/11/27 08:44:00	BASE	3.33	114	3.65	111	-4.2	64	-10.0	209	386	971.7	NA	0.0000		9999	14830	0	0	0
2017/11/27 08:45:00	BASE	3.39	112	3.65	111	-4.2	64	-10.0	207	384	971.7	NA	0.0000		9999	0	0	0	0
2017/11/27 08:46:00	BASE	3.42	110	3.65	112	-4.2	64	-10.0	204	382	971.6	NA	0.0000		9999	14830	0	0	0
2017/11/27 08:47:00	BASE	3.45	110	3.65	113	-4.2	64	-10.0	191	364	971.6	NA	0.0000		9999	14900	0	0	0
2017/11/27 08:48:00	BASE	3.43	110	3.65	113	-4.2	63	-10.1	185	356	971.6	NA	0.0000		9999	14830	0	0	0
2017/11/27 08:49:00	BASE	3.19	110	3.65	113	-4.2	63	-10.2	191	366	971.6	NA	0.0000		9999	14830	0	0	0
2017/11/27 08:50:00	BASE	3.09	109	3.65	113	-4.1	63	-10.2	191	369	971.6	NA	0.0000		9999	14900	0	0	0
2017/11/27 08:51:00	BASE	3.09	107	3.65	113	-4.1	62	-10.2	192	371	971.6	NA	0.0000		9999	0	0	0	0
2017/11/27 08:52:00	BASE	3.06	107	3.65	113	-4.1	62	-10.2	183	360	971.7	NA	0.0000		9999	0	0	0	0
2017/11/27 08:53:00	BASE	3.21	108	3.65	113	-4.0	62	-10.2	184	363	971.6	NA	0.0000		9999	0	0	0	0
2017/11/27 08:54:00	BASE	3.39	107	3.65	109	-4.0	62	-10.3	196	381	971.6	NA	0.0000		9999	0	0	0	0
2017/11/27 08:55:00	BASE	3.39	105	3.65	109	-4.0	61	-10.3	177	354	971.6	NA	0.0000		9999	0	0	0	0
2017/11/27 08:56:00	BASE	3.20	106	3.65	109	-4.0	61	-10.5	164	336	971.7	NA	0.0000		9999	0	0	0	0
2017/11/27 08:57:00	BASE	3.01	106	3.65	109	-3.9	60	-10.5	167	340	971.6	NA	0.0000		9999	0	0	0	0
2017/11/27 08:58:00	BASE	3.04	105	3.65	109	-3.9	60	-10.5	169	345	971.6	NA	0.0000		9999	0	0	0	0
2017/11/27 08:59:00	BASE	2.99	103	3.65	109	-3.9	61	-10.4	168	346	971.6	NA	0.0000		9999	0	0	0	0
2017/11/27 09:00:00	BASE	2.65	101	3.65	109	-3.9	61	-10.3	170	349	971.6	NA	0.0000		9999	0	0	0	0
2017/11/27 09:01:00	BASE	2.47	103	3.65	109	-3.9	61	-10.2	147	314	971.6	NA	0.0000		9999	0	0	0	0
2017/11/27 09:02:00	BASE	2.60	104	3.65	109	-3.8	62	-10.1	174	358	971.6	NA	0.0000		9999	0	0	0	0
2017/11/27 09:03:00	BASE	2.86	107	3.65	109	-3.8	62	-10.0	186	379	971.6	NA	0.0000		9999	0	0	0	0
2017/11/27 09:04:00	BASE	2.92	107	3.60	103	-3.8	62	-10.0	189	385	971.6	NA	0.0000		9999	0	0	0	0
2017/11/27 09:05:00	BASE	2.80	107	3.34	108	-3.8	62	-10.0	201	404	971.6	NA	0.0000		9999	0	0	0	0
2017/11/27 09:06:00	BASE	2.77	108	3.34	108	-3.8	62	-10.1	185	379	971.6	NA	0.0000		9999	0	0	0	0
2017/11/27 09:07:00	BASE	2.77	110	3.34	108	-3.8	61	-10.1	176	367	971.6	NA	0.0000		9999	0	0	0	0
2017/11/27 09:08:00	BASE	2.81	113	3.19	108	-3.8	61	-10.2	164	349	971.6	NA	0.0000		9999	0	0	0	0
2017/11/27 09:09:00	BASE	2.78	114	3.19	108	-3.8	61	-10.3	193	396	971.6	NA	0.0000		9999	0	0	0	0
2017/11/27 09:10:00	BASE	2.65	113	3.19	108	-3.8	61	-10.3	207	419	971.6	NA	0.0000		9999	14470	0	0	0
2017/11/27 09:11:00	BASE	2.59	113	3.19	108	-3.8	61	-10.3	191	395	971.6	NA	0.0000		9999	0	0	0	0
2017/11/27 09:12:00	BASE	2.61	112	3.19	108	-3.8	61	-10.3	196	403	971.6	NA	0.0000		9999	0	0	0	0
2017/11/27 09:13:00	BASE	2.65	113	3.14	107	-3.9	60	-10.4	197	406	971.6	NA	0.0000		9999	0	0	0	0
2017/11/27 09:14:00	BASE	2.65	114	2.98	117	-3.9	60	-10.6	200	412	971.5	NA	0.0000		9999	0	0	0	0
2017/11/27 09:15:00	BASE	2.54	113	2.98	117	-3.9	59	-10.8	222	448	971.5	NA	0.0000		9999	0	0	0	0
2017/11/27 09:16:00	BASE	2.58	114	2.98	117	-3.9	58	-11.0	229	460	971.5	NA	0.0000		9999	0	0	0	0
2017/11/27 09:17:00	BASE	2.62	115	2.98	117	-4.0	57	-11.2	234	470	971.5	NA	0.0000		9999	0	0	0	0
2017/11/27 09:18:00	BASE	2.51	117	2.88	115	-4.0	56	-11.4	237	476	971.5	NA	0.0000		9999	0	0	0	0
2017/11/27 09:19:00	BASE	2.54	118	2.88	119	-4.0	56	-11.4	243	485	971.6	NA	0.0000		9999	0	0	0	0
2017/11/27 09:20:00	BASE	2.74	119	2.98	120	-4.0	56	-11.4	246	492	971.6	NA	0.0000		9999	0	0	0	0
2017/11/27 09:21:00	BASE	2.70	122	2.98	120	-4.1	57	-11.4	245	492	971.6	NA	0.0000		9999	0	0	0	0
2017/11/27 09:22:00	BASE	2.41	123	2.98	120	-4.1	57	-11.3	247	497	971.6	NA	0.0000		9999	0	0	0	0
2017/11/27 09:23:00	BASE	2.28	121	2.98	120	-4.2	58	-11.2	253	506	971.6	NA	0.0000		9999	0	0	0	0
2017/11/27 09:24:00	BASE	2.33	122	2.98	120	-4.2	59	-11.1	254	510	971.6	NA	0.0000		9999	0	0	0	0
2017/11/27 09:25:00	BASE	2.31	121	2.98	120	-4.3	59	-11.1	255	512	971.6	NA	0.0000		9999	0	0	0	0
2017/11/27 09:26:00	BASE	2.21	118	2.98	120	-4.3	60	-11.0	262	525	971.5	NA	0.0000		9999	0	0	0	0
2017/11/27 09:27:00	BASE	2.23	114	2.98	120	-4.3	60	-10.9	264	529	971.5	NA	0.0000		9999	0	0	0	0
2017/11/27 09:28:00	BASE	2.45	113	2.98	120	-4.3	60	-10.8	264	531	971.5	NA	0.0000		9999	0	0	0	0
2017/11/27 09:29:00	BASE	2.68	114	3.04	116	-4.2	61	-10.7	267	536	971.5	NA	0.0000		9999	0	0	0	0
2017/11/27 09:30:00	BASE	2.73	116	3.04	116	-4.2	61	-10.7	270	541	971.5	NA	0.0000		9999	0	0	0	0
2017/11/27 09:31:00	BASE	2.90	117	3.40	115	-4.2	61	-10.6	271	545	971.5	NA	0.0000		9999	0	0	0	0
2017/11/27 09:32:00	BASE	3.17	117	3.60	113	-4.2	61	-10.6	274	550	971.5	NA	0.0000		9999	0	0	0	0
2017/11/27 09:33:00	BASE	3.11	117	3.60	113	-4.2	60	-10.7	276	555	971.5	NA	0.0000		9999	0	0	0	0
2017/11/27 09:34:00	BASE	2.99	118	3.60	113	-4.2	60	-10.9	281	564	971.5	NA	0.0000		9999	0	0	0	0
2017/11/27 09:35:00	BASE	3.31	118	4.12	117	-4.2	59	-11.0	283	568	971.4	NA	0.0000		9999	0	0	0	0
2017/11/27 09:36:00	BASE	3.43	118	4.12	117	-4.1	58	-11.1	288	577	971.4	NA	0.0000		9999	0	0	0	0
2017/11/27 09:37:00	BASE	3.28	118	4.12	117	-4.1	57	-11.3	292	585	971.4	NA	0.0000		9999	0	0	0	0
2017/11/27 09:38:00	BASE	3.25	116	4.12	117	-4.1	57	-11.4	296	593	971.4	NA	0.0000		9999	0	0	0	0
2017/11/27 09:39:00	BASE	3.15	117	4.12	117	-4.1	56	-11.5	280	567	971.4	NA	0.0000		9999	0	0	0	0
2017/11/27 09:40:00	BASE	3.25	117	4.12	117	-4.0	56	-11.5	293	589	971.4	NA	0.0000		9999	0	0	0	0
2017/11/27 09:41:00	BASE	3.41	117	4.12	117	-4.1	56	-11.6	247	518	971.4	NA	0.0000		9999	0	0	0	0
2017/11/27 09:42:00	BASE	3.42	117	4.12	117	-4.1	56	-11.5	322	641	971.4	NA	0.0000		9999	0	0	0	0
2017/11/27 09:43:00	BASE	3.41	118	4.12	117	-4.1	57	-11.4	196	434	971.4	NA	0.0000		9999	0	0	0	0
2017/11/27 09:44:00	BASE	3.49	117	4.12	117	-4.1	57	-11.4	262	545	971.4	NA	0.0000		9999	0	0	0	0
2017/11/27 09:45:00	BASE	3.62	117	4.12	118	-4.2	57	-11.4	251	525	971.4	NA	0.0000		9999	0	0	0	0
2017/11/27 09:46:00	BASE	3.45	116	4.12	118	-4.2	57	-11.4	202	445	971.4	NA	0.0000		9999	0	0	0	0
2017/11/27 09:47:00	BASE	3.58	114	4.22	110	-4.2	57	-11.3	243	516	971.4	NA	0.0000		9999	0	0	0	0
2017/11/27 09:48:00	BASE	3.90	113	4.37	115	-4.2	57	-11.4	236	502	971.4	NA	0.0000		9999	0	0	0	0
2017/11/27 09:49:00	BASE	4.02	111	4.68	110	-4.2	57	-11.3	165	386	971.4	NA	0.0000		9999	0	0	0	0
2017/11/27 09:50:00	BASE	4.21	110	5.20	109	-4.2	57	-11.4	218	478	971.4	NA	0.0000		9999	0	0	0	0
2017/11/27 09:51:00	BASE	4.44	110	5.25	110	-4.2	57	-11.4	223	485	971.4	NA	0.0000		9999	0	0	0	0
2017/11/27 09:52:00	BASE	4.53	110	5.25	110	-4.1	56	-11.5	230	496	971.4	NA	0.0000		9999	0	0	0	0
2017/11/27 09:53:00	BASE	4.78	110	5.25	115	-4.1	56	-11.6	227	494	971.4	NA	0.0000		9999	0	0	0	0
2017/11/27 09:54:00	BASE	4.95	109	5.35	109	-4.0	56	-11.6	211	468	971.4	NA	0.0000		9999	0	0	0	0
2017/11/27 09:55:00	BASE	4.93	107	5.40	108	-4.0	56	-11.5	245	531	971.4	NA	0.0000		9999	0	0	0	0
2017/11/27 09:56:00	BASE	4.99	105	5.61	107	-4.0	57	-11.3	210	468	971.4	NA	0.0000		9999	0	0	0	0
2017/11/27 09:57:00	BASE	4.88	105	5.61	107	-3.9	59	-10.8	290	604	971.4	NA	0.0000		9999	0	0	0	0
2017/11/27 09:58:00	BASE	4.92	105	5.61	107	-3.9	60	-10.4	352	707	971.4	NA	0.0000		9999	12760	0	0	0
2017/11/27 09:59:00	BASE	5.12	103	5.61	102	-3.8	61	-10.2	301	623	971.4	NA	0.0000		9999	12800	0	0	0
2017/11/27 10:00:00	BASE	5.20	103	5.61	102	-3.7	62	-9.9	314	646	971.4	NA	0.0000		9999	0	0	0	0
2017/11/27 10:01:00	BASE	5.17	103	5.61	102	-3.7	62	-9.8	384	763	971.3	NA	0.0000		9999	12760	0	0	0
2017/11/27 10:02:00	BASE	5.15	102	5.61	102	-3.6	62	-9.8	336	686	971.3	NA	0.0000		9999	12800	0	0	0
2017/11/27 10:03:00	BASE	5.29	102	5.71	103	-3.6	62	-9.8	402	794	971.3	NA	0.0000		9999	12730	0	0	0
2017/11/27 10:04:00	BASE	5.45	104	5.92	108	-3.6	62	-9.8	349	710	971.2	NA	0.0000		9999	12800	0	0	0
2017/11/27 10:05:00	BASE	5.43	105	5.92	108	-3.6	63	-9.7	256	555	971.2	NA	0.0000		9999	12730	0	0	0
2017/11/27 10:06:00	BASE	5.36	104	5.97	106	-3.6	63	-9.6	313	654	971.2	NA	0.0000		9999	12630	0	0	0
2017/11/27 10:07:00	BASE	5.27	104	5.97	106	-3.6	63	-9.5	398	796	971.2	NA	0.0000		9999	0	0	0	0
2017/11/27 10:08:00	BASE	5.29	104	6.02	104	-3.6	64	-9.5	377	763	971.2	NA	0.0000		9999	0	0	0	0
2017/11/27 10:09:00	BASE	5.40	103	6.02	104	-3.5	64	-9.4	406	810	971.2	NA	0.0000		9999	0	0	0	0
2017/11/27 10:10:00	BASE	5.34	102	6.02	104	-3.5	64	-9.4	402	804	971.2	NA	0.0000		9999	0	0	0	0
2017/11/27 10:11:00	BASE	5.48	101	6.02	101	-3.5	64	-9.3	396	795	971.2	NA	0.0000		9999	0	0	0	0
2017/11/27 10:12:00	BASE	5.76	100	6.02	103	-3.5	64	-9.3	392	790	971.2	NA	0.0000		9999	0	0	0	0
2017/11/27 10:13:00	BASE	5.85	100	6.12	102	-3.5	65	-9.2	390	786	971.2	NA	0.0000		9999	0	0	0	0
2017/11/27 10:14:00	BASE	5.85	100	6.12	102	-3.4	65	-9.1	387	782	971.2	NA	0.0000		9999	0	0	0	0
2017/11/27 10:15:00	BASE	5.81	99	6.48	99	-3.4	65	-9.0	384	778	971.2	NA	0.0000		9999	0	0	0	0
2017/11/27 10:16:00	BASE	5.94	99	6.48	99	-3.5	66	-9.0	381	774	971.2	NA	0.0000		9999	0	0	0	0
2017/11/27 10:17:00	BASE	5.95	98	6.48	99	-3.5	66	-8.9	379	772	971.2	NA	0.0000		9999	0	0	0	0
2017/11/27 10:18:00	BASE	5.81	97	6.48	99	-3.5	66	-8.9	379	772	971.2	NA	0.0000		9999	0	0	0	0
2017/11/27 10:19:00	BASE	5.89	98	6.48	99	-3.5	66	-8.9	380	774	971.2	NA	0.0000		9999	0	0	0	0
2017/11/27 10:20:00	BASE	5.99	98	6.48	99	-3.5	67	-8.8	381	777	971.2	NA	0.0000		9999	0	0	0	0
2017/11/27 10:21:00	BASE	5.98	98	6.48	99	-3.5	67	-8.7	382	780	971.2	NA	0.0000		9999	0	0	0	0
2017/11/27 10:22:00	BASE	5.93	98	6.48	99	-3.5	67	-8.7	383	783	971.2	NA	0.0000		9999	0	0	0	0
2017/11/27 10:23:00	BASE	5.89	97	6.48	99	-3.5	68	-8.5	384	785	971.2	NA	0.0000		9999	0	0	0	0
2017/11/27 10:24:00	BASE	5.77	95	6.48	99	-3.4	68	-8.4	385	788	971.2	NA	0.0000		9999	0	0	0	0
2017/11/27 10:25:00	BASE	5.75	97	6.38	99	-3.4	69	-8.4	385	789	971.2	NA	0.0000		9999	0	0	0	0
2017/11/27 10:26:00	BASE	5.70	99	6.38	99	-3.4	69	-8.3	386	792	971.2	NA	0.0000		9999	0	0	0	0
2017/11/27 10:27:00	BASE	5.60	99	6.38	99	-3.4	69	-8.2	386	794	971.2	NA	0.0000		9999	0	0	0	0
2017/11/27 10:28:00	BASE	5.63	98	6.38	99	-3.4	70	-8.2	388	799	971.2	NA	0.0000		9999	0	0	0	0
2017/11/27 10:29:00	BASE	5.65	98	6.38	99	-3.4	70	-8.2	390	803	971.2	NA	0.0000		9999	0	0	0	0
2017/11/27 10:30:00	BASE	5.61	98	6.33	93	-3.4	70	-8.2	392	807	971.2	NA	0.0000		9999	0	0	0	0
2017/11/27 10:31:00	BASE	5.55	97	6.28	98	-3.4	69	-8.2	394	811	971.2	NA	0.0000		9999	0	0	0	0
2017/11/27 10:32:00	BASE	5.39	99	6.28	98	-3.4	69	-8.3	396	816	971.3	NA	0.0000		9999	0	0	0	0
2017/11/27 10:33:00	BASE	5.21	100	6.28	98	-3.4	69	-8.3	398	820	971.3	NA	0.0000		9999	0	0	0	0
2017/11/27 10:34:00	BASE	5.15	97	6.28	98	-3.4	69	-8.3	399	823	971.3	NA	0.0000		9999	0	0	0	0
2017/11/27 10:35:00	BASE	5.17	96	6.17	106	-3.4	68	-8.4	402	829	971.4	NA	0.0000		9999	0	0	0	0
2017/11/27 10:36:00	BASE	5.16	97	6.17	106	-3.4	68	-8.4	403	832	971.4	NA	0.0000		9999	0	0	0	0
2017/11/27 10:37:00	BASE	5.06	97	6.17	106	-3.4	68	-8.5	406	838	971.4	NA	0.0000		9999	0	0	0	0
2017/11/27 10:38:00	BASE	4.92	98	6.17	106	-3.4	68	-8.5	409	844	971.3	NA	0.0000		9999	0	0	0	0
2017/11/27 10:39:00	BASE	4.76	97	6.17	106	-3.4	67	-8.6	412	849	971.3	NA	0.0000		9999	0	0	0	0
2017/11/27 10:40:00	BASE	4.77	96	6.17	106	-3.4	67	-8.6	415	856	971.2	NA	0.0000		9999	0	0	0	0
2017/11/27 10:41:00	BASE	4.89	98	6.17	106	-3.3	67	-8.6	418	861	971.2	NA	0.0000		9999	0	0	0	0
2017/11/27 10:42:00	BASE	4.88	100	5.81	101	-3.3	67	-8.7	420	865	971.2	NA	0.0000		9999	0	0	0	0
2017/11/27 10:43:00	BASE	4.77	100	5.81	101	-3.3	66	-8.7	423	871	971.3	NA	0.0000		9999	0	0	0	0
2017/11/27 10:44:00	BASE	4.74	99	5.81	101	-3.3	66	-8.8	425	876	971.4	NA	0.0000		9999	0	0	0	0
2017/11/27 10:45:00	BASE	4.90	99	5.81	101	-3.3	65	-8.9	428	881	971.4	NA	0.0000		9999	0	0	0	0
2017/11/27 10:46:00	BASE	4.87	101	5.61	101	-3.3	65	-8.9	430	887	971.4	NA	0.0000		9999	0	0	0	0
2017/11/27 10:47:00	BASE	4.73	102	5.61	101	-3.3	65	-8.9	432	891	971.4	NA	0.0000		9999	0	0	0	0
2017/11/27 10:48:00	BASE	4.62	102	5.61	101	-3.3	65	-8.9	435	896	971.3	NA	0.0000		9999	0	0	0	0
2017/11/27 10:49:00	BASE	4.57	103	5.61	101	-3.2	65	-8.9	437	901	971.3	NA	0.0000		9999	0	0	0	0
2017/11/27 10:50:00	BASE	4.58	103	5.61	101	-3.2	65	-8.9	440	906	971.2	NA	0.0000		9999	0	0	0	0
2017/11/27 10:51:00	BASE	4.53	104	5.61	101	-3.2	65	-8.9	442	911	971.2	NA	0.0000		9999	0	0	0	0
2017/11/27 10:52:00	BASE	4.45	106	5.61	101	-3.2	65	-8.9	445	918	971.2	NA	0.0000		9999	0	0	0	0
2017/11/27 10:53:00	BASE	4.55	107	5.61	101	-3.2	65	-8.9	448	925	971.2	NA	0.0000		9999	0	0	0	0
2017/11/27 10:54:00	BASE	4.58	107	5.61	101	-3.3	65	-8.9	452	932	971.2	NA	0.0000		9999	0	0	0	0
2017/11/27 10:55:00	BASE	4.47	106	5.61	101	-3.3	65	-8.9	454	938	971.2	NA	0.0000		9999	0	0	0	0
2017/11/27 10:56:00	BASE	4.43	104	5.14	108	-3.3	65	-8.9	457	944	971.2	NA	0.0000		9999	0	0	0	0
2017/11/27 10:57:00	BASE	4.49	103	5.14	108	-3.3	65	-8.9	460	949	971.2	NA	0.0000		9999	0	0	0	0
2017/11/27 10:58:00	BASE	4.58	101	5.14	108	-3.2	65	-8.9	461	952	971.2	NA	0.0000		9999	0	0	0	0
2017/11/27 10:59:00	BASE	4.57	99	5.14	108	-3.2	65	-8.9	463	957	971.2	NA	0.0000		9999	0	0	0	0
2017/11/27 11:00:01	BASE	4.51	99	5.14	108	-3.2	64	-9.0	467	964	971.2	NA	0.0000		9999	12340	0	0	0
2017/11/27 11:01:00	BASE	4.46	100	5.14	108	-3.1	64	-9.0	470	971	971.2	NA	0.0000		9999	12340	0	0	0
2017/11/27 11:02:00	BASE	4.40	99	5.14	108	-3.1	64	-9.0	474	979	971.2	NA	0.0000		9999	0	0	0	0
2017/11/27 11:03:00	BASE	4.31	98	5.14	108	-3.1	63	-9.1	478	986	971.2	NA	0.0000		9999	0	0	0	0
2017/11/27 11:04:00	BASE	4.24	98	5.14	108	-3.1	62	-9.3	481	992	971.2	NA	0.0000		9999	0	0	0	0
2017/11/27 11:05:00	BASE	4.02	97	5.14	108	-3.1	61	-9.5	485	1000	971.2	NA	0.0000		9999	0	0	0	0
2017/11/27 11:06:00	BASE	3.81	96	5.14	108	-3.1	60	-9.7	492	1013	971.2	NA	0.0000		9999	0	0	0	0
2017/11/27 11:07:00	BASE	3.77	96	4.89	104	-3.1	59	-10.0	500	1028	971.2	NA	0.0000		9999	12400	0	0	0
2017/11/27 11:08:00	BASE	3.57	95	4.89	104	-3.0	58	-10.2	508	1043	971.2	NA	0.0000		9999	12340	0	0	0
2017/11/27 11:09:00	BASE	3.35	95	4.89	104	-3.0	57	-10.3	515	1057	971.2	NA	0.0000		9999	0	0	0	0
2017/11/27 11:10:00	BASE	3.30	93	4.78	103	-3.0	57	-10.2	522	1070	971.2	NA	0.0000		9999	12470	0	0	0
2017/11/27 11:11:00	BASE	3.30	89	4.58	96	-3.0	58	-10.2	526	1078	971.2	NA	0.0000		9999	12340	0	0	0
2017/11/27 11:12:00	BASE	3.24	88	4.48	101	-3.0	58	-10.1	531	1087	971.2	NA	0.0000		9999	12430	0	0	0
2017/11/27 11:13:00	BASE	3.01	88	4.48	101	-2.9	58	-10.0	535	1095	971.2	NA	0.0000		9999	12470	0	0	0
2017/11/27 11:14:00	BASE	2.78	92	4.17	96	-2.9	58	-9.9	537	1097	971.2	NA	0.0000		9999	12430	0	0	0
2017/11/27 11:15:00	BASE	2.77	95	4.17	96	-2.9	59	-9.9	534	1094	971.2	NA	0.0000		9999	12470	0	0	0
2017/11/27 11:16:00	BASE	2.86	95	4.12	98	-2.8	58	-9.9	532	1091	971.2	NA	0.0000		9999	12400	0	0	0
2017/11/27 11:17:00	BASE	2.93	96	3.65	90	-2.8	58	-9.9	530	1088	971.2	NA	0.0000		9999	12430	0	0	0
2017/11/27 11:18:00	BASE	3.02	97	3.65	90	-2.8	57	-10.0	530	1089	971.2	NA	0.0000		9999	12430	0	0	0
2017/11/27 11:19:00	BASE	3.06	99	3.65	90	-2.7	57	-10.1	527	1084	971.2	NA	0.0000		9999	12470	0	0	0
2017/11/27 11:20:00	BASE	2.88	100	3.65	90	-2.7	56	-10.3	529	1089	971.2	NA	0.0000		9999	0	0	0	0
2017/11/27 11:21:00	BASE	2.58	100	3.60	86	-2.6	55	-10.3	529	1089	971.2	NA	0.0000		9999	0	0	0	0
2017/11/27 11:22:00	BASE	2.53	102	3.34	98	-2.6	55	-10.4	527	1086	971.2	NA	0.0000		9999	0	0	0	0
2017/11/27 11:23:00	BASE	2.68	102	3.34	98	-2.5	55	-10.4	524	1081	971.2	NA	0.0000		9999	0	0	0	0
2017/11/27 11:24:00	BASE	2.48	101	3.34	98	-2.5	55	-10.4	521	1077	971.2	NA	0.0000		9999	0	0	0	0
2017/11/27 11:25:00	BASE	2.05	98	3.34	98	-2.5	55	-10.4	520	1075	971.2	NA	0.0000		9999	0	0	0	0
2017/11/27 11:26:00	BASE	1.85	93	3.29	94	-2.5	55	-10.4	520	1077	971.2	NA	0.0000		9999	0	0	0	0
2017/11/27 11:27:00	BASE	1.88	89	3.29	94	-2.5	54	-10.4	521	1080	971.2	NA	0.0000		9999	0	0	0	0
2017/11/27 11:28:00	BASE	1.85	86	3.29	94	-2.5	54	-10.6	524	1085	971.2	NA	0.0000		9999	0	0	0	0
2017/11/27 11:29:00	BASE	1.80	79	3.14	100	-2.6	54	-10.6	526	1089	971.2	NA	0.0000		9999	0	0	0	0
2017/11/27 11:30:00	BASE	1.67	69	3.14	100	-2.6	54	-10.7	527	1092	971.2	NA	0.0000		9999	0	0	0	0
2017/11/27 11:31:00	BASE	0.93	46	3.14	100	-2.7	54	-10.8	529	1096	971.2	NA	0.0000		9999	0	0	0	0
2017/11/27 11:32:00	BASE	0.57	50	3.14	100	-2.7	54	-10.7	532	1100	971.2	NA	0.0000		9999	0	0	0	0
2017/11/27 11:33:00	BASE	0.45	33	2.52	95	-2.7	54	-10.7	533	1103	971.2	NA	0.0000		9999	0	0	0	0
2017/11/27 11:34:00	BASE	0.31	344	2.31	96	-2.8	54	-10.7	534	1106	971.2	NA	0.0000		9999	0	0	0	0
2017/11/27 11:35:00	BASE	0.55	334	2.21	83	-2.8	55	-10.6	537	1110	971.2	NA	0.0000		9999	0	0	0	0
2017/11/27 11:36:00	BASE	0.28	342	2.21	83	-2.9	55	-10.7	538	1114	971.2	NA	0.0000		9999	0	0	0	0
2017/11/27 11:37:00	BASE	0.00	19	2.11	77	-2.9	54	-10.9	541	1118	971.2	NA	0.0000		9999	0	0	0	0
2017/11/27 11:38:00	BASE	0.00	39	2.06	78	-3.0	54	-10.9	544	1123	971.2	NA	0.0000		9999	0	0	0	0
2017/11/27 11:39:00	BASE	0.00	331	2.06	78	-3.0	54	-10.9	546	1128	971.2	NA	0.0000		9999	0	0	0	0
2017/11/27 11:40:00	BASE	0.00	275	1.54	353	-3.0	54	-11.0	549	1135	971.2	NA	0.0000		9999	0	0	0	0
2017/11/27 11:41:00	BASE	0.00	270	1.54	353	-2.9	54	-11.0	552	1142	971.2	NA	0.0000		9999	0	0	0	0
2017/11/27 11:42:00	BASE	0.00	126	1.54	353	-2.9	54	-10.9	556	1147	971.2	NA	0.0000		9999	0	0	0	0
2017/11/27 11:43:00	BASE	0.00	61	1.54	353	-2.7	54	-10.9	561	1157	971.2	NA	0.0000		9999	0	0	0	0
2017/11/27 11:44:00	BASE	0.00	56	1.18	322	-2.7	53	-10.8	568	1169	971.2	NA	0.0000		9999	6170	0	0	0
2017/11/27 11:45:00	BASE	0.20	116	1.39	164	-2.6	53	-10.9	580	1190	971.2	NA	0.0000		9999	6170	0	0	0
2017/11/27 11:46:00	BASE	0.72	137	1.65	172	-2.6	53	-10.9	525	1101	971.2	NA	0.0000		9999	6200	0	0	0
2017/11/27 11:47:00	BASE	1.30	122	1.75	112	-2.6	53	-10.9	508	1066	971.2	NA	0.0000		9999	0	0	0	0
2017/11/27 11:48:00	BASE	1.54	112	1.75	100	-2.6	53	-10.9	497	1050	971.2	NA	0.0000		9999	0	0	0	0
2017/11/27 11:49:00	BASE	1.63	114	2.06	111	-2.6	53	-10.9	530	1105	971.2	NA	0.0000		9999	0	0	0	0
2017/11/27 11:50:00	BASE	1.90	111	2.57	103	-2.6	53	-10.8	536	1122	971.2	NA	0.0000		9999	0	0	0	0
2017/11/27 11:51:00	BASE	1.96	108	2.57	103	-2.6	53	-10.8	592	1218	971.2	NA	0.0000		9999	0	0	0	0
2017/11/27 11:52:00	BASE	1.87	101	2.57	103	-2.6	53	-10.9	588	1213	971.2	NA	0.0000		9999	0	0	0	0
2017/11/27 11:53:00	BASE	1.68	100	2.57	103	-2.6	53	-10.9	585	1210	971.2	NA	0.0000		9999	0	0	0	0
2017/11/27 11:54:00	BASE	1.57	103	2.57	103	-2.6	53	-10.8	584	1210	971.2	NA	0.0000		9999	0	0	0	0
2017/11/27 11:55:00	BASE	1.65	107	2.57	103	-2.6	53	-10.8	583	1208	971.2	NA	0.0000		9999	0	0	0	0
2017/11/27 11:56:00	BASE	1.66	112	2.57	103	-2.6	54	-10.6	583	1209	971.2	NA	0.0000		9999	0	0	0	0
2017/11/27 11:57:00	BASE	1.65	107	2.57	103	-2.6	55	-10.4	583	1210	971.2	NA	0.0000		9999	0	0	0	0
2017/11/27 11:58:00	BASE	1.52	105	2.57	103	-2.6	56	-10.2	583	1211	971.2	NA	0.0000		9999	0	0	0	0
2017/11/27 11:59:00	BASE	1.37	112	2.57	103	-2.7	57	-10.0	583	1213	971.2	NA	0.0000		9999	0	0	0	0
2017/11/27 12:00:00	BASE	1.44	118	2.11	91	-2.7	58	-9.8	585	1217	971.2	NA	0.0000		9999	0	0	0	0
2017/11/27 12:01:00	BASE	1.57	118	2.11	91	-2.7	59	-9.7	586	1219	971.2	NA	0.0000		9999	0	0	0	0
2017/11/27 12:02:00	BASE	1.74	116	2.21	113	-2.7	59	-9.6	587	1222	971.2	NA	0.0000		9999	0	0	0	0
2017/11/27 12:03:00	BASE	1.93	115	2.21	113	-2.6	59	-9.6	589	1226	971.2	NA	0.0000		9999	0	0	0	0
2017/11/27 12:04:00	BASE	1.99	115	2.21	113	-2.6	59	-9.5	590	1229	971.2	NA	0.0000		9999	0	0	0	0
2017/11/27 12:05:00	BASE	1.83	114	2.21	113	-2.7	60	-9.5	592	1233	971.2	NA	0.0000		9999	0	0	0	0
2017/11/27 12:06:00	BASE	1.63	114	2.21	113	-2.6	60	-9.2	593	1235	971.2	NA	0.0000		9999	0	0	0	0
2017/11/27 12:07:00	BASE	1.63	113	2.21	113	-2.6	61	-9.1	594	1239	971.2	NA	0.0000		9999	0	0	0	0
2017/11/27 12:08:00	BASE	1.88	111	2.31	105	-2.6	61	-9.1	596	1244	971.2	NA	0.0000		9999	0	0	0	0
2017/11/27 12:09:00	BASE	2.03	107	2.31	105	-2.5	61	-9.1	597	1247	971.2	NA	0.0000		9999	0	0	0	0
2017/11/27 12:10:00	BASE	2.00	105	2.31	106	-2.5	60	-9.1	599	1250	971.2	NA	0.0000		9999	0	0	0	0
2017/11/27 12:11:00	BASE	2.06	105	2.31	106	-2.5	60	-9.3	601	1254	971.2	NA	0.0000		9999	0	0	0	0
2017/11/27 12:12:00	BASE	2.11	105	2.31	109	-2.5	59	-9.4	602	1258	971.2	NA	0.0000		9999	0	0	0	0
2017/11/27 12:13:00	BASE	2.10	108	2.31	109	-2.5	58	-9.6	603	1261	971.2	NA	0.0000		9999	0	0	0	0
2017/11/27 12:14:00	BASE	2.03	112	2.31	109	-2.5	58	-9.7	605	1266	971.2	NA	0.0000		9999	0	0	0	0
2017/11/27 12:15:00	BASE	1.91	114	2.31	109	-2.4	57	-9.7	606	1269	971.2	NA	0.0000		9999	0	0	0	0
2017/11/27 12:16:00	BASE	1.89	115	2.31	109	-2.4	57	-9.6	609	1274	971.2	NA	0.0000		9999	0	0	0	0
2017/11/27 12:17:00	BASE	1.98	117	2.31	109	-2.3	57	-9.6	610	1276	971.2	NA	0.0000		9999	0	0	0	0
2017/11/27 12:18:00	BASE	1.95	118	2.31	109	-2.3	58	-9.5	612	1281	971.2	NA	0.0000		9999	0	0	0	0
2017/11/27 12:19:00	BASE	1.99	117	2.31	109	-2.3	58	-9.4	614	1285	971.2	NA	0.0000		9999	0	0	0	0
2017/11/27 12:20:00	BASE	2.00	119	2.31	109	-2.3	59	-9.4	615	1289	971.2	NA	0.0000		9999	0	0	0	0
2017/11/27 12:21:00	BASE	1.99	119	2.31	109	-2.3	59	-9.3	617	1292	971.2	NA	0.0000		9999	0	0	0	0
2017/11/27 12:22:00	BASE	2.05	118	2.26	122	-2.3	59	-9.3	619	1296	971.2	NA	0.0000		9999	0	0	0	0
2017/11/27 12:23:00	BASE	1.97	118	2.26	122	-2.3	59	-9.3	621	1301	971.2	NA	0.0000		9999	0	0	0	0
2017/11/27 12:24:00	BASE	1.97	117	2.31	119	-2.3	59	-9.3	623	1305	971.2	NA	0.0000		9999	0	0	0	0
2017/11/27 12:25:00	BASE	1.97	114	2.31	119	-2.3	59	-9.3	625	1308	971.2	NA	0.0000		9999	0	0	0	0
2017/11/27 12:26:00	BASE	1.97	110	2.31	119	-2.3	59	-9.2	627	1313	971.2	NA	0.0000		9999	0	0	0	0
2017/11/27 12:27:00	BASE	2.10	109	2.31	107	-2.3	59	-9.3	629	1317	971.2	NA	0.0000		9999	0	0	0	0
2017/11/27 12:28:00	BASE	2.17	107	2.42	109	-2.3	58	-9.4	631	1322	971.2	NA	0.0000		9999	0	0	0	0
2017/11/27 12:29:00	BASE	2.20	106	2.42	107	-2.3	58	-9.5	634	1325	971.2	NA	0.0000		9999	0	0	0	0
2017/11/27 12:30:00	BASE	2.17	105	2.42	105	-2.3	57	-9.6	636	1330	971.2	NA	0.0000		9999	0	0	0	0
2017/11/27 12:31:00	BASE	2.17	106	2.42	112	-2.2	56	-9.8	639	1334	971.2	NA	0.0000		9999	0	0	0	0
2017/11/27 12:32:00	BASE	2.21	108	2.47	109	-2.2	56	-9.8	641	1340	971.2	NA	0.0000		9999	0	0	0	0
2017/11/27 12:33:00	BASE	2.16	110	2.47	109	-2.1	56	-9.8	643	1344	971.2	NA	0.0000		9999	0	0	0	0
2017/11/27 12:34:00	BASE	2.18	113	2.47	109	-2.1	55	-9.8	645	1348	971.2	NA	0.0000		9999	0	0	0	0
2017/11/27 12:35:00	BASE	2.18	115	2.47	109	-2.1	55	-9.8	648	1354	971.2	NA	0.0000		9999	0	0	0	0
2017/11/27 12:36:00	BASE	2.19	116	2.68	117	-2.1	56	-9.8	651	1361	971.2	NA	0.0000		9999	0	0	0	0
2017/11/27 12:37:00	BASE	2.27	118	2.68	117	-2.1	56	-9.7	655	1368	971.2	NA	0.0000		9999	0	0	0	0
2017/11/27 12:38:00	BASE	2.21	120	2.68	117	-2.2	57	-9.6	658	1375	971.2	NA	0.0000		9999	0	0	0	0
2017/11/27 12:39:00	BASE	1.92	118	2.68	117	-2.1	57	-9.4	662	1382	971.2	NA	0.0000		9999	0	0	0	0
2017/11/27 12:40:00	BASE	1.72	116	2.68	117	-2.1	58	-9.3	666	1389	971.2	NA	0.0000		9999	0	0	0	0
2017/11/27 12:41:00	BASE	1.71	118	2.68	117	-2.1	58	-9.1	670	1397	971.2	NA	0.0000		9999	0	0	0	0
2017/11/27 12:42:00	BASE	1.79	121	2.68	117	-2.1	59	-9.1	674	1405	971.2	NA	0.0000		9999	0	0	0	0
2017/11/27 12:43:00	BASE	1.88	121	2.68	117	-2.0	59	-9.0	679	1414	971.2	NA	0.0000		9999	0	0	0	0
2017/11/27 12:44:00	BASE	1.75	115	2.68	117	-2.0	59	-9.1	683	1423	971.2	NA	0.0000		9999	0	0	0	0
2017/11/27 12:45:00	BASE	1.66	111	2.68	117	-2.1	58	-9.1	688	1432	971.3	NA	0.0000		9999	0	0	0	0
2017/11/27 12:46:00	BASE	1.81	110	2.68	117	-2.1	58	-9.2	694	1444	971.3	NA	0.0000		9999	0	0	0	0
2017/11/27 12:47:00	BASE	2.01	111	2.31	108	-2.0	58	-9.2	702	1460	971.4	NA	0.0000		9999	0	0	0	0
2017/11/27 12:48:00	BASE	2.21	111	2.52	115	-2.0	57	-9.4	711	1476	971.4	NA	0.0000		9999	0	0	0	0
2017/11/27 12:49:00	BASE	2.10	112	2.52	115	-2.0	56	-9.6	718	1490	971.4	NA	0.0000		9999	0	0	0	0
2017/11/27 12:50:00	BASE	2.02	113	2.73	113	-2.0	56	-9.7	724	1501	971.4	NA	0.0000		9999	0	0	0	0
2017/11/27 12:51:00	BASE	2.25	115	2.73	113	-2.0	56	-9.7	730	1513	971.4	NA	0.0000		9999	0	0	0	0
2017/11/27 12:52:00	BASE	2.44	115	2.73	113	-2.0	55	-9.8	593	1275	971.4	NA	0.0000		9999	0	0	0	0
2017/11/27 12:53:00	BASE	2.45	115	2.73	113	-2.0	56	-9.8	764	1514	971.4	NA	0.0000		9999	5640	0	0	0
2017/11/27 12:54:00	BASE	2.52	115	2.78	116	-2.0	56	-9.7	754	1515	971.4	NA	0.0000		9999	5640	0	0	0
2017/11/27 12:55:00	BASE	2.58	113	2.78	116	-2.1	56	-9.7	761	1515	971.4	NA	0.0000		9999	5610	0	0	0
2017/11/27 12:56:00	BASE	2.56	116	2.78	116	-2.1	56	-9.7	775	1515	971.4	NA	0.0000		9999	5540	0	0	0
2017/11/27 12:57:00	BASE	2.49	120	2.78	116	-2.1	56	-9.7	791	1515	971.4	NA	0.0000		9999	5540	0	0	0
2017/11/27 12:58:00	BASE	2.43	123	2.78	131	-2.0	57	-9.5	808	1515	971.4	NA	0.0000		9999	5510	0	0	0
2017/11/27 12:59:00	BASE	2.45	126	2.83	117	-2.0	58	-9.3	831	1515	971.4	NA	0.0000		9999	5510	0	0	0
2017/11/27 13:00:00	BASE	2.51	126	2.98	126	-2.0	59	-9.0	860	1514	971.3	NA	0.0000		9999	5480	0	0	0
2017/11/27 13:01:00	BASE	2.55	125	2.98	126	-1.9	60	-8.7	906	1515	971.3	NA	0.0000		9999	0	0	0	0
2017/11/27 13:02:00	BASE	2.55	125	3.09	130	-1.7	60	-8.5	716	1512	971.4	NA	0.0000		9999	0	0	0	0
2017/11/27 13:03:00	BASE	2.61	125	3.09	130	-1.7	60	-8.4	892	1515	971.4	NA	0.0000		9999	5480	0	0	0
2017/11/27 13:04:00	BASE	2.57	126	3.09	130	-1.6	60	-8.4	544	1203	971.4	NA	0.0000		9999	5510	0	0	0
2017/11/27 13:05:00	BASE	2.48	124	3.09	130	-1.6	59	-8.5	420	957	971.4	NA	0.0000		9999	5510	0	0	0
2017/11/27 13:06:00	BASE	2.24	120	3.09	130	-1.6	59	-8.6	398	910	971.4	NA	0.0000		9999	5540	0	0	0
2017/11/27 13:07:00	BASE	1.92	120	3.09	130	-1.8	59	-8.7	426	970	971.5	NA	0.0000		9999	5480	0	0	0
2017/11/27 13:08:00	BASE	1.82	120	3.09	130	-1.8	59	-8.7	457	1035	971.5	NA	0.0000		9999	5450	0	0	0
2017/11/27 13:09:00	BASE	1.97	117	3.09	130	-1.9	60	-8.7	450	1012	971.4	NA	0.0000		9999	5380	0	0	0
2017/11/27 13:10:00	BASE	1.98	117	3.09	130	-2.0	60	-8.7	456	1026	971.4	NA	0.0000		9999	5380	0	0	0
2017/11/27 13:11:00	BASE	1.83	120	3.09	130	-2.0	60	-8.7	460	1029	971.4	NA	0.0000		9999	5350	0	0	0
2017/11/27 13:12:00	BASE	1.72	122	2.68	122	-2.0	60	-8.7	508	1137	971.4	NA	0.0000		9999	5380	0	0	0
2017/11/27 13:13:00	BASE	1.62	122	2.68	122	-2.0	60	-8.7	481	1071	971.4	NA	0.0000		9999	5380	0	0	0
2017/11/27 13:14:00	BASE	1.67	120	2.68	122	-2.0	60	-8.7	504	1119	971.4	NA	0.0000		9999	5380	0	0	0
2017/11/27 13:15:00	BASE	1.77	122	2.37	117	-1.9	60	-8.6	509	1130	971.4	NA	0.0000		9999	5410	0	0	0
2017/11/27 13:16:00	BASE	1.67	126	2.31	107	-1.9	60	-8.5	523	1159	971.4	NA	0.0000		9999	5450	0	0	0
2017/11/27 13:17:00	BASE	1.61	119	2.31	107	-1.8	61	-8.4	544	1201	971.4	NA	0.0000		9999	5380	0	0	0
2017/11/27 13:18:00	BASE	1.54	112	2.31	107	-1.8	60	-8.5	531	1169	971.4	NA	0.0000		9999	5480	0	0	0
2017/11/27 13:19:00	BASE	1.35	114	2.16	122	-1.8	60	-8.6	529	1172	971.4	NA	0.0000		9999	5380	0	0	0
2017/11/27 13:20:00	BASE	1.28	119	2.16	122	-1.7	60	-8.5	516	1145	971.4	NA	0.0000		9999	5510	0	0	0
2017/11/27 13:21:00	BASE	1.05	122	2.11	129	-1.7	60	-8.5	510	1133	971.4	NA	0.0000		9999	5480	0	0	0
2017/11/27 13:22:00	BASE	0.62	122	2.11	129	-1.8	59	-8.7	522	1166	971.4	NA	0.0000		9999	5410	0	0	0
2017/11/27 13:23:00	BASE	0.73	115	2.11	129	-1.8	59	-8.8	506	1130	971.4	NA	0.0000		9999	5410	0	0	0
2017/11/27 13:24:00	BASE	1.05	106	2.11	129	-1.8	59	-8.8	513	1145	971.3	NA	0.0000		9999	5450	0	0	0
2017/11/27 13:25:00	BASE	1.19	108	1.85	106	-1.9	58	-9.0	520	1159	971.2	NA	0.0000		9999	5350	0	0	0
2017/11/27 13:26:00	BASE	1.33	111	1.85	106	-2.0	58	-9.2	526	1176	971.3	NA	0.0000		9999	5380	0	0	0
2017/11/27 13:27:00	BASE	1.35	110	1.75	105	-2.0	57	-9.3	519	1159	971.2	NA	0.0000		9999	5350	0	0	0
2017/11/27 13:28:00	BASE	1.22	114	1.75	105	-2.0	57	-9.5	510	1138	971.2	NA	0.0000		9999	5250	20570	0	0
2017/11/27 13:29:00	BASE	0.79	120	1.75	105	-2.0	56	-9.6	537	1197	971.2	NA	0.0000		9999	5480	0	0	0
2017/11/27 13:30:00	BASE	0.90	123	1.75	105	-2.0	56	-9.7	530	1176	971.2	NA	0.0000		9999	5410	21620	0	0
2017/11/27 13:31:00	BASE	1.28	121	1.75	105	-2.0	56	-9.7	522	1162	971.2	NA	0.0000		9999	5510	0	0	0
2017/11/27 13:32:00	BASE	1.08	113	1.75	105	-2.0	56	-9.7	531	1188	971.2	NA	0.0000		9999	5480	0	0	0
2017/11/27 13:33:00	BASE	1.35	110	2.06	115	-2.0	56	-9.6	508	1139	971.2	NA	0.0000		9999	5510	23130	0	0
2017/11/27 13:34:00	BASE	1.62	115	2.06	115	-1.9	56	-9.6	497	1120	971.2	NA	0.0000		9999	5480	0	0	0
2017/11/27 13:35:00	BASE	1.01	102	2.06	115	-1.9	56	-9.5	498	1122	971.2	NA	0.0000		9999	5540	0	0	0
2017/11/27 13:36:00	BASE	0.30	64	2.06	115	-1.8	56	-9.5	514	1160	971.2	NA	0.0000		9999	5450	0	0	0
2017/11/27 13:37:00	BASE	0.19	67	2.06	115	-1.7	55	-9.6	507	1147	971.2	NA	0.0000		9999	5540	0	0	0
2017/11/27 13:38:00	BASE	0.27	93	2.06	115	-1.7	54	-9.7	494	1117	971.2	NA	0.0000		9999	5380	0	0	0
2017/11/27 13:39:00	BASE	0.09	101	2.06	115	-1.7	54	-9.8	486	1104	971.2	NA	0.0000		9999	5450	0	0	0
2017/11/27 13:40:00	BASE	0.00	114	2.06	115	-1.7	54	-9.9	477	1086	971.3	NA	0.0000		9999	5280	5640	0	0
2017/11/27 13:41:00	BASE	0.00	116	2.06	115	-1.7	53	-9.9	472	1077	971.3	NA	0.0000		9999	5250	5640	0	0
2017/11/27 13:42:00	BASE	0.00	116	2.06	115	-1.8	54	-9.8	467	1067	971.4	NA	0.0000		9999	5250	5710	0	0
2017/11/27 13:43:00	BASE	0.00	120	1.90	90	-1.8	55	-9.7	466	1064	971.4	NA	0.0000		9999	5220	0	0	0
2017/11/27 13:44:00	BASE	0.00	111	1.90	90	-1.7	55	-9.5	464	1060	971.3	NA	0.0000		9999	5250	5740	0	0
2017/11/27 13:45:00	BASE	0.00	94	1.13	117	-1.7	56	-9.4	464	1059	971.3	NA	0.0000		9999	5250	0	0	0
2017/11/27 13:46:00	BASE	0.44	102	1.44	124	-1.8	56	-9.4	464	1060	971.2	NA	0.0000		9999	5250	0	0	0
2017/11/27 13:47:00	BASE	1.12	112	1.54	106	-1.7	56	-9.3	465	1060	971.2	NA	0.0000		9999	5250	0	0	0
2017/11/27 13:48:00	BASE	1.53	109	1.85	111	-1.6	56	-9.3	467	1063	971.2	NA	0.0000		9999	5220	0	0	0
2017/11/27 13:49:00	BASE	1.61	106	1.85	111	-1.6	56	-9.4	470	1070	971.2	NA	0.0000		9999	5280	0	0	0
2017/11/27 13:50:00	BASE	1.54	105	1.85	111	-1.6	56	-9.3	479	1087	971.2	NA	0.0000		9999	5580	0	0	0
2017/11/27 13:51:00	BASE	1.67	106	2.11	101	-1.6	56	-9.3	488	1107	971.2	NA	0.0000		9999	5640	0	0	0
2017/11/27 13:52:00	BASE	1.92	105	2.31	102	-1.6	56	-9.3	495	1118	971.2	NA	0.0000		9999	5510	0	0	0
2017/11/27 13:53:00	BASE	2.15	105	2.47	103	-1.6	56	-9.2	498	1126	971.2	NA	0.0000		9999	5610	0	0	0
2017/11/27 13:54:00	BASE	2.25	107	2.47	103	-1.6	57	-9.1	495	1120	971.2	NA	0.0000		9999	5710	0	0	0
2017/11/27 13:55:00	BASE	2.10	107	2.47	103	-1.7	58	-9.0	496	1121	971.2	NA	0.0000		9999	5540	0	0	0
2017/11/27 13:56:00	BASE	1.89	106	2.47	103	-1.7	58	-8.8	502	1135	971.2	NA	0.0000		9999	5540	0	0	0
2017/11/27 13:57:00	BASE	1.55	104	2.47	103	-1.8	59	-8.8	501	1133	971.2	NA	0.0000		9999	5640	0	0	0
2017/11/27 13:58:00	BASE	1.38	104	2.47	103	-1.8	60	-8.6	503	1137	971.2	NA	0.0000		9999	5680	0	0	0
2017/11/27 13:59:00	BASE	1.64	104	2.47	103	-1.8	60	-8.6	508	1146	971.3	NA	0.0000		9999	5680	0	0	0
2017/11/27 14:00:00	BASE	1.79	102	2.47	103	-1.8	60	-8.6	518	1167	971.2	NA	0.0000		9999	5610	0	0	0
2017/11/27 14:01:00	BASE	1.77	98	2.47	103	-1.8	59	-8.7	525	1180	971.3	NA	0.0000		9999	5580	0	0	0
2017/11/27 14:02:00	BASE	1.70	95	2.47	103	-1.8	59	-8.8	538	1204	971.3	NA	0.0000		9999	5640	0	0	0
2017/11/27 14:03:00	BASE	1.52	97	2.42	114	-1.8	58	-8.9	554	1247	971.3	NA	0.0000		9999	5580	21690	0	0
2017/11/27 14:04:00	BASE	1.40	97	2.16	102	-1.8	58	-8.9	534	1203	971.3	NA	0.0000		9999	5640	0	0	0
2017/11/27 14:05:00	BASE	1.55	99	2.11	103	-1.7	58	-8.8	528	1188	971.4	NA	0.0000		9999	5610	0	0	0
2017/11/27 14:06:00	BASE	1.72	103	2.11	103	-1.7	59	-8.6	534	1200	971.4	NA	0.0000		9999	5640	0	0	0
2017/11/27 14:07:00	BASE	1.92	104	2.31	113	-1.6	60	-8.4	557	1243	971.4	NA	0.0000		9999	5580	23590	0	0
2017/11/27 14:08:00	BASE	2.02	106	2.31	113	-1.6	60	-8.4	548	1229	971.3	NA	0.0000		9999	5580	0	0	0
2017/11/27 14:09:00	BASE	1.83	105	2.31	113	-1.6	60	-8.4	544	1222	971.4	NA	0.0000		9999	5640	0	0	0
2017/11/27 14:10:00	BASE	1.58	100	2.31	113	-1.6	59	-8.5	550	1234	971.4	NA	0.0000		9999	5610	0	0	0
2017/11/27 14:11:00	BASE	1.27	105	2.31	113	-1.6	59	-8.6	550	1233	971.4	NA	0.0000		9999	5610	0	0	0
2017/11/27 14:12:00	BASE	0.67	103	2.31	113	-1.6	59	-8.6	562	1260	971.4	NA	0.0000		9999	5540	0	0	0
2017/11/27 14:13:00	BASE	0.14	96	2.31	113	-1.6	59	-8.6	569	1278	971.3	NA	0.0000		9999	5480	0	0	0
2017/11/27 14:14:00	BASE	0.27	79	2.31	113	-1.5	58	-8.7	553	1242	971.4	NA	0.0000		9999	5510	0	0	0
2017/11/27 14:15:00	BASE	0.66	28	2.31	113	-1.5	58	-8.7	560	1256	971.3	NA	0.0000		9999	5540	0	0	0
2017/11/27 14:16:00	BASE	0.44	360	2.31	113	-1.4	58	-8.7	561	1255	971.4	NA	0.0000		9999	5580	0	0	0
2017/11/27 14:17:00	BASE	0.50	353	2.21	108	-1.4	58	-8.7	573	1281	971.4	NA	0.0000		9999	5540	0	0	0
2017/11/27 14:18:00	BASE	1.04	350	1.75	94	-1.4	57	-8.8	583	1297	971.4	NA	0.0000		9999	5540	0	0	0
2017/11/27 14:19:00	BASE	1.19	356	1.75	94	-1.5	57	-8.9	581	1296	971.3	NA	0.0000		9999	5580	0	0	0
2017/11/27 14:20:00	BASE	0.81	357	1.54	347	-1.6	57	-9.1	550	1233	971.4	NA	0.0000		9999	5540	0	0	0
2017/11/27 14:21:00	BASE	0.70	353	1.54	347	-1.6	56	-9.2	554	1245	971.4	NA	0.0000		9999	5540	18600	23160	0
2017/11/27 14:22:00	BASE	1.01	348	1.54	347	-1.7	55	-9.5	562	1260	971.4	NA	0.0000		9999	5610	0	0	0
2017/11/27 14:23:00	BASE	0.92	347	1.54	347	-1.7	55	-9.5	562	1261	971.4	NA	0.0000		9999	5610	0	0	0
2017/11/27 14:24:00	BASE	0.81	349	1.54	347	-1.6	55	-9.5	564	1267	971.4	NA	0.0000		9999	5580	16340	0	0
2017/11/27 14:25:00	BASE	0.62	352	1.54	347	-1.6	55	-9.5	565	1267	971.4	NA	0.0000		9999	5540	0	0	0
2017/11/27 14:26:00	BASE	0.68	353	1.54	347	-1.6	54	-9.6	576	1286	971.3	NA	0.0000		9999	5510	0	0	0
2017/11/27 14:27:00	BASE	0.66	341	1.54	347	-1.5	54	-9.7	596	1335	971.2	NA	0.0000		9999	5540	21130	0	0
2017/11/27 14:28:00	BASE	0.58	340	1.65	323	-1.5	53	-9.8	607	1355	971.2	NA	0.0000		9999	5610	0	0	0
2017/11/27 14:29:00	BASE	0.62	346	1.65	323	-1.5	52	-10.0	597	1338	971.2	NA	0.0000		9999	5540	0	0	0
2017/11/27 14:30:00	BASE	0.23	335	1.65	323	-1.6	52	-10.1	544	1227	971.3	NA	0.0000		9999	5580	0	0	0
2017/11/27 14:31:00	BASE	0.05	327	1.65	323	-1.6	52	-10.2	535	1209	971.4	NA	0.0000		9999	5580	0	0	0
2017/11/27 14:32:00	BASE	0.24	327	1.65	323	-1.5	52	-10.2	530	1199	971.4	NA	0.0000		9999	5540	0	0	0
2017/11/27 14:33:00	BASE	0.61	332	1.65	323	-1.5	51	-10.2	525	1190	971.4	NA	0.0000		9999	5480	0	0	0
2017/11/27 14:34:00	BASE	1.17	328	1.70	330	-1.4	51	-10.2	521	1184	971.4	NA	0.0000		9999	5510	0	0	0
2017/11/27 14:35:00	BASE	1.49	324	1.85	327	-1.3	52	-9.9	520	1184	971.4	NA	0.0000		9999	5450	0	0	0
2017/11/27 14:36:00	BASE	1.58	314	2.06	316	-1.2	53	-9.7	515	1173	971.4	NA	0.0000		9999	5480	0	0	0
2017/11/27 14:37:00	BASE	1.54	304	2.06	316	-1.3	53	-9.6	516	1176	971.4	NA	0.0000		9999	5640	21460	0	0
2017/11/27 14:38:00	BASE	1.18	306	2.06	316	-1.3	54	-9.4	518	1179	971.5	NA	0.0000		9999	5680	0	0	0
2017/11/27 14:39:00	BASE	0.86	308	2.06	316	-1.3	55	-9.3	522	1187	971.5	NA	0.0000		9999	5540	0	0	0
2017/11/27 14:40:00	BASE	1.11	298	2.06	316	-1.4	55	-9.3	527	1200	971.5	NA	0.0000		9999	5580	0	0	0
2017/11/27 14:41:00	BASE	1.42	285	2.06	316	-1.4	55	-9.4	529	1203	971.5	NA	0.0000		9999	5610	0	0	0
2017/11/27 14:42:00	BASE	1.36	293	2.06	316	-1.4	55	-9.3	528	1203	971.5	NA	0.0000		9999	5510	0	0	0
2017/11/27 14:43:00	BASE	1.20	307	2.06	316	-1.4	55	-9.3	528	1203	971.5	NA	0.0000		9999	5510	0	0	0
2017/11/27 14:44:00	BASE	0.88	313	2.06	316	-1.4	55	-9.4	526	1200	971.5	NA	0.0000		9999	5450	0	0	0
2017/11/27 14:45:00	BASE	0.45	307	2.06	316	-1.5	55	-9.4	528	1203	971.5	NA	0.0000		9999	5410	0	0	0
2017/11/27 14:46:00	BASE	0.56	284	1.75	306	-1.5	55	-9.4	530	1209	971.5	NA	0.0000		9999	5380	0	0	0
2017/11/27 14:47:00	BASE	0.95	267	1.70	279	-1.6	55	-9.5	531	1208	971.5	NA	0.0000		9999	5380	0	0	0
2017/11/27 14:48:00	BASE	0.74	264	1.70	279	-1.7	55	-9.5	531	1209	971.5	NA	0.0000		9999	5450	0	0	0
2017/11/27 14:49:00	BASE	0.54	274	1.70	279	-1.8	56	-9.4	533	1213	971.5	NA	0.0000		9999	5450	0	0	0
2017/11/27 14:50:00	BASE	1.03	288	1.90	282	-1.7	56	-9.3	537	1222	971.5	NA	0.0000		9999	5350	16930	23360	0
2017/11/27 14:51:00	BASE	1.54	294	1.90	282	-1.7	56	-9.3	540	1228	971.5	NA	0.0000		9999	5380	0	0	0
2017/11/27 14:52:00	BASE	1.44	297	1.90	282	-1.6	56	-9.4	546	1240	971.5	NA	0.0000		9999	5450	0	0	0
2017/11/27 14:53:00	BASE	1.39	295	1.90	282	-1.5	55	-9.3	549	1244	971.5	NA	0.0000		9999	5410	0	0	0
2017/11/27 14:54:00	BASE	1.61	290	1.95	286	-1.4	55	-9.4	549	1246	971.5	NA	0.0000		9999	5450	0	0	0
2017/11/27 14:55:00	BASE	1.79	286	2.16	289	-1.3	55	-9.3	550	1248	971.5	NA	0.0000		9999	5450	0	0	0
2017/11/27 14:56:00	BASE	1.77	286	2.16	289	-1.3	55	-9.3	552	1253	971.5	NA	0.0000		9999	5480	0	0	0
2017/11/27 14:57:00	BASE	1.68	294	2.16	289	-1.2	55	-9.1	556	1262	971.5	NA	0.0000		9999	5510	0	0	0
2017/11/27 14:58:00	BASE	1.65	302	2.16	289	-1.2	55	-9.1	556	1261	971.5	NA	0.0000		9999	5450	0	0	0
2017/11/27 14:59:00	BASE	1.69	297	2.16	289	-1.3	55	-9.1	557	1262	971.5	NA	0.0000		9999	5510	0	0	0
2017/11/27 15:00:00	BASE	1.68	290	2.16	289	-1.3	56	-9.1	558	1263	971.5	NA	0.0000		9999	5450	0	0	0
2017/11/27 15:01:00	BASE	1.61	289	2.16	289	-1.4	55	-9.2	562	1272	971.5	NA	0.0000		9999	5480	0	0	0
2017/11/27 15:02:00	BASE	1.65	289	2.16	289	-1.5	55	-9.4	564	1279	971.6	NA	0.0000		9999	5450	0	0	0
2017/11/27 15:03:00	BASE	1.65	283	2.16	289	-1.5	55	-9.5	564	1277	971.6	NA	0.0000		9999	5510	0	0	0
2017/11/27 15:04:00	BASE	1.81	285	2.26	294	-1.4	55	-9.4	567	1284	971.6	NA	0.0000		9999	5410	0	0	0
2017/11/27 15:05:00	BASE	1.97	286	2.31	278	-1.5	54	-9.6	564	1278	971.6	NA	0.0000		9999	5510	0	0	0
2017/11/27 15:06:00	BASE	1.99	289	2.31	296	-1.5	54	-9.7	569	1290	971.6	NA	0.0000		9999	5510	0	0	0
2017/11/27 15:07:00	BASE	2.04	296	2.31	296	-1.4	53	-9.7	569	1285	971.6	NA	0.0000		9999	5510	0	0	0
2017/11/27 15:08:00	BASE	1.98	297	2.31	296	-1.3	53	-9.8	578	1303	971.6	NA	0.0000		9999	5510	0	0	0
2017/11/27 15:09:00	BASE	1.97	292	2.31	278	-1.3	52	-9.8	595	1340	971.6	NA	0.0000		9999	5540	0	0	0
2017/11/27 15:10:00	BASE	2.13	287	2.52	282	-1.2	52	-9.7	608	1361	971.6	NA	0.0000		9999	5540	0	0	0
2017/11/27 15:11:00	BASE	2.22	286	2.52	282	-1.1	53	-9.6	626	1401	971.6	NA	0.0000		9999	5580	0	0	0
2017/11/27 15:12:00	BASE	2.08	283	2.52	282	-1.1	53	-9.4	618	1379	971.6	NA	0.0000		9999	5510	15060	20600	0
2017/11/27 15:13:00	BASE	1.99	283	2.52	282	-1.0	53	-9.4	618	1383	971.6	NA	0.0000		9999	5510	0	0	0
2017/11/27 15:14:00	BASE	1.94	286	2.52	282	-0.9	52	-9.5	610	1367	971.6	NA	0.0000		9999	5540	0	0	0
2017/11/27 15:15:00	BASE	2.11	289	2.52	282	-0.8	52	-9.5	608	1363	971.6	NA	0.0000		9999	5540	0	0	0
2017/11/27 15:16:00	BASE	2.38	293	2.62	290	-0.7	52	-9.5	612	1376	971.6	NA	0.0000		9999	5580	0	0	0
2017/11/27 15:17:00	BASE	2.50	295	2.78	294	-0.8	51	-9.6	596	1341	971.7	NA	0.0000		9999	5540	0	0	0
2017/11/27 15:18:00	BASE	2.47	294	2.78	294	-0.9	51	-9.8	594	1340	971.7	NA	0.0000		9999	5540	19390	22250	0
2017/11/27 15:19:00	BASE	2.36	295	2.78	294	-1.0	51	-9.9	582	1313	971.7	NA	0.0000		9999	5540	0	0	0
2017/11/27 15:20:01	BASE	2.32	295	2.78	294	-1.2	52	-9.9	579	1307	971.6	NA	0.0000		9999	5540	0	0	0
2017/11/27 15:21:00	BASE	2.42	294	2.78	294	-1.3	52	-9.9	582	1313	971.6	NA	0.0000		9999	5540	0	0	0
2017/11/27 15:22:00	BASE	2.46	294	2.78	294	-1.3	52	-9.8	585	1318	971.7	NA	0.0000		9999	5580	0	0	0
2017/11/27 15:23:00	BASE	2.39	294	2.78	294	-1.3	53	-9.7	598	1349	971.7	NA	0.0000		9999	5540	20870	0	0
2017/11/27 15:24:00	BASE	2.25	290	2.78	294	-1.4	54	-9.6	588	1325	971.6	NA	0.0000		9999	5540	0	0	0
2017/11/27 15:25:01	BASE	2.16	290	2.78	294	-1.4	54	-9.5	591	1329	971.7	NA	0.0000		9999	5540	0	0	0
2017/11/27 15:26:00	BASE	1.96	293	2.78	294	-1.4	54	-9.5	599	1346	971.7	NA	0.0000		9999	5510	0	0	0
2017/11/27 15:27:00	BASE	1.87	294	2.68	289	-1.4	54	-9.4	618	1389	971.7	NA	0.0000		9999	5540	0	0	0
2017/11/27 15:28:00	BASE	1.82	298	2.68	289	-1.4	55	-9.3	597	1340	971.7	NA	0.0000		9999	5640	0	0	0
2017/11/27 15:29:00	BASE	1.68	303	2.68	289	-1.3	55	-9.2	600	1348	971.7	NA	0.0000		9999	5640	0	0	0
2017/11/27 15:30:00	BASE	1.76	300	2.68	289	-1.3	55	-9.1	591	1328	971.7	NA	0.0000		9999	5610	0	0	0
2017/11/27 15:31:00	BASE	1.71	294	2.62	299	-1.3	56	-9.1	592	1330	971.7	NA	0.0000		9999	5640	22740	0	0
2017/11/27 15:32:00	BASE	1.62	291	2.62	299	-1.2	56	-9.0	598	1341	971.7	NA	0.0000		9999	5580	0	0	0
2017/11/27 15:33:00	BASE	1.27	293	2.52	294	-1.2	55	-9.0	604	1353	971.6	NA	0.0000		9999	5610	0	0	0
2017/11/27 15:34:00	BASE	1.12	306	2.37	289	-1.2	55	-9.0	616	1380	971.6	NA	0.0000		9999	5610	0	0	0
2017/11/27 15:35:00	BASE	1.31	321	2.26	290	-1.2	55	-9.1	612	1366	971.6	NA	0.0000		9999	5610	0	0	0
2017/11/27 15:36:00	BASE	1.30	326	2.26	290	-1.2	55	-9.1	619	1381	971.6	NA	0.0000		9999	5580	0	0	0
2017/11/27 15:37:00	BASE	1.32	319	2.26	290	-1.3	55	-9.2	627	1396	971.6	NA	0.0000		9999	5580	0	0	0
2017/11/27 15:38:00	BASE	1.18	313	2.26	290	-1.3	55	-9.3	636	1414	971.6	NA	0.0000		9999	5540	0	0	0
2017/11/27 15:39:00	BASE	1.16	319	2.26	290	-1.3	54	-9.4	648	1436	971.6	NA	0.0000		9999	5610	0	0	0
2017/11/27 15:40:00	BASE	1.13	319	1.95	276	-1.3	54	-9.5	677	1494	971.6	NA	0.0000		9999	5610	0	0	0
2017/11/27 15:41:00	BASE	0.76	306	1.95	276	-1.3	53	-9.7	672	1482	971.6	NA	0.0000		9999	5540	22670	0	0
2017/11/27 15:42:00	BASE	0.89	293	1.75	307	-1.2	52	-9.8	684	1513	971.6	NA	0.0000		9999	5540	0	0	0
2017/11/27 15:43:00	BASE	0.99	286	1.75	307	-1.2	52	-9.9	677	1502	971.7	NA	0.0000		9999	5540	0	0	0
2017/11/27 15:44:00	BASE	0.66	288	1.75	307	-1.3	52	-9.9	637	1412	971.6	NA	0.0000		9999	5540	0	0	0
2017/11/27 15:45:00	BASE	0.77	281	1.75	307	-1.4	52	-10.1	653	1448	971.6	NA	0.0000		9999	5540	21560	22310	0
2017/11/27 15:46:00	BASE	1.12	268	1.85	257	-1.4	52	-10.1	675	1489	971.6	NA	0.0000		9999	5580	0	0	0
2017/11/27 15:47:00	BASE	1.15	252	1.85	257	-1.5	52	-10.2	672	1483	971.6	NA	0.0000		9999	5510	21850	22340	0
2017/11/27 15:48:00	BASE	0.97	238	1.85	257	-1.6	52	-10.2	665	1467	971.6	NA	0.0000		9999	5540	0	0	0
2017/11/27 15:49:00	BASE	1.03	238	1.85	257	-1.6	51	-10.4	654	1446	971.6	NA	0.0000		9999	5480	0	0	0
2017/11/27 15:50:00	BASE	1.23	248	1.85	257	-1.6	51	-10.4	627	1390	971.6	NA	0.0000		9999	5510	0	0	0
2017/11/27 15:51:00	BASE	1.49	253	2.06	249	-1.6	51	-10.4	621	1385	971.6	NA	0.0000		9999	5610	0	0	0
2017/11/27 15:52:00	BASE	1.65	254	2.06	249	-1.6	51	-10.4	617	1377	971.6	NA	0.0000		9999	5580	0	0	0
2017/11/27 15:53:00	BASE	1.53	258	2.06	249	-1.6	51	-10.5	612	1363	971.7	NA	0.0000		9999	5580	0	0	0
2017/11/27 15:54:00	BASE	1.43	258	2.06	249	-1.6	51	-10.4	620	1380	971.7	NA	0.0000		9999	5580	0	0	0
2017/11/27 15:55:00	BASE	1.10	253	2.06	249	-1.6	51	-10.4	644	1434	971.7	NA	0.0000		9999	5580	22540	0	0
2017/11/27 15:56:00	BASE	1.13	253	2.06	249	-1.6	51	-10.4	644	1434	971.7	NA	0.0000		9999	5580	0	0	0
2017/11/27 15:57:00	BASE	1.53	254	2.06	249	-1.6	51	-10.4	637	1415	971.7	NA	0.0000		9999	5580	0	0	0
2017/11/27 15:58:00	BASE	1.32	245	2.06	249	-1.6	52	-10.2	644	1433	971.7	NA	0.0000		9999	5540	0	0	0
2017/11/27 15:59:00	BASE	0.83	236	2.06	249	-1.6	52	-10.1	651	1448	971.7	NA	0.0000		9999	5540	0	0	0
2017/11/27 16:00:00	BASE	0.73	233	2.06	249	-1.6	52	-10.1	661	1471	971.7	NA	0.0000		9999	5540	0	0	0
2017/11/27 16:01:00	BASE	0.92	250	2.01	253	-1.6	53	-10.0	637	1417	971.7	NA	0.0000		9999	5540	0	0	0
2017/11/27 16:02:00	BASE	1.06	268	2.01	253	-1.5	53	-9.8	639	1420	971.7	NA	0.0000		9999	5540	0	0	0
2017/11/27 16:03:00	BASE	0.94	254	2.01	253	-1.4	53	-9.7	649	1440	971.7	NA	0.0000		9999	5540	0	0	0
2017/11/27 16:04:00	BASE	0.45	232	2.01	253	-1.4	53	-9.6	662	1472	971.7	NA	0.0000		9999	5540	0	0	0
2017/11/27 16:05:00	BASE	0.33	226	2.01	253	-1.4	54	-9.5	655	1455	971.7	NA	0.0000		9999	5540	0	0	0
2017/11/27 16:06:00	BASE	0.86	229	2.01	253	-1.3	54	-9.4	657	1455	971.7	NA	0.0000		9999	5540	0	0	0
2017/11/27 16:07:00	BASE	1.19	225	1.80	263	-1.4	55	-9.4	662	1465	971.7	NA	0.0000		9999	5540	0	0	0
2017/11/27 16:08:00	BASE	1.22	218	1.80	227	-1.5	55	-9.3	680	1507	971.7	NA	0.0000		9999	5510	0	0	0
2017/11/27 16:09:00	BASE	1.33	214	1.80	227	-1.5	55	-9.4	673	1491	971.7	NA	0.0000		9999	5510	0	0	0
2017/11/27 16:10:00	BASE	1.43	208	1.80	227	-1.5	55	-9.5	654	1456	971.7	NA	0.0000		9999	5580	0	0	0
2017/11/27 16:11:00	BASE	1.27	206	1.80	227	-1.5	55	-9.4	638	1421	971.7	NA	0.0000		9999	5540	0	0	0
2017/11/27 16:12:00	BASE	1.21	211	1.80	227	-1.4	54	-9.4	632	1408	971.7	NA	0.0000		9999	5510	0	0	0
2017/11/27 16:13:00	BASE	1.58	205	1.85	204	-1.3	54	-9.4	643	1430	971.7	NA	0.0000		9999	5510	0	0	0
2017/11/27 16:14:00	BASE	1.57	193	1.85	204	-1.4	55	-9.4	647	1435	971.7	NA	0.0000		9999	5540	0	0	0
2017/11/27 16:15:00	BASE	1.47	200	1.90	213	-1.3	55	-9.2	658	1456	971.7	NA	0.0000		9999	5480	0	0	0
2017/11/27 16:16:00	BASE	1.56	204	1.90	213	-1.3	55	-9.2	688	1514	971.7	NA	0.0000		9999	5480	0	0	0
2017/11/27 16:17:00	BASE	1.54	196	1.90	213	-1.4	55	-9.3	752	1514	971.7	NA	0.0000		9999	5510	0	0	0
2017/11/27 16:18:00	BASE	1.32	193	1.90	213	-1.4	55	-9.3	748	1514	971.7	NA	0.0000		9999	5510	0	0	0
2017/11/27 16:19:00	BASE	1.46	190	2.21	189	-1.4	55	-9.3	796	1515	971.7	NA	0.0000		9999	5510	0	0	0
2017/11/27 16:20:00	BASE	1.86	190	2.26	193	-1.4	55	-9.2	705	1515	971.7	NA	0.0000		9999	5480	0	0	0
2017/11/27 16:21:00	BASE	1.88	191	2.26	193	-1.4	56	-9.2	690	1513	971.7	NA	0.0000		9999	5480	0	0	0
2017/11/27 16:22:00	BASE	1.91	194	2.26	193	-1.4	56	-9.0	771	1515	971.7	NA	0.0000		9999	5480	0	0	0
2017/11/27 16:23:00	BASE	1.97	196	2.26	193	-1.4	57	-8.9	686	1509	971.7	NA	0.0000		9999	5480	0	0	0
2017/11/27 16:24:00	BASE	1.90	194	2.26	193	-1.4	57	-8.9	671	1483	971.7	NA	0.0000		9999	5480	0	0	0
2017/11/27 16:25:00	BASE	1.86	191	2.26	193	-1.4	57	-8.9	652	1440	971.7	NA	0.0000		9999	5480	0	0	0
2017/11/27 16:26:00	BASE	1.80	186	2.26	193	-1.4	57	-8.9	636	1409	971.8	NA	0.0000		9999	5480	0	0	0
2017/11/27 16:27:00	BASE	1.88	186	2.42	193	-1.4	57	-8.8	627	1392	971.8	NA	0.0000		9999	5480	0	0	0
2017/11/27 16:28:00	BASE	1.70	189	2.42	193	-1.4	56	-8.9	614	1365	971.8	NA	0.0000		9999	5450	0	0	0
2017/11/27 16:29:00	BASE	1.72	188	2.42	193	-1.4	56	-9.1	602	1342	971.8	NA	0.0000		9999	5450	0	0	0
2017/11/27 16:30:00	BASE	2.06	183	2.42	193	-1.4	55	-9.2	600	1340	971.8	NA	0.0000		9999	5450	0	0	0
2017/11/27 16:31:00	BASE	2.04	181	2.42	193	-1.4	55	-9.3	601	1341	971.8	NA	0.0000		9999	5410	0	0	0
2017/11/27 16:32:00	BASE	1.94	186	2.42	193	-1.5	55	-9.4	613	1367	971.8	NA	0.0000		9999	5380	22840	0	0
2017/11/27 16:33:00	BASE	1.82	181	2.42	193	-1.5	55	-9.3	636	1417	971.8	NA	0.0000		9999	5410	0	0	0
2017/11/27 16:34:00	BASE	1.62	175	2.42	193	-1.4	56	-9.1	640	1421	971.8	NA	0.0000		9999	5510	0	0	0
2017/11/27 16:35:00	BASE	1.62	174	2.42	193	-1.4	56	-9.0	625	1388	971.8	NA	0.0000		9999	5450	0	0	0
2017/11/27 16:36:00	BASE	1.95	174	2.68	186	-1.3	57	-8.8	641	1428	971.8	NA	0.0000		9999	5450	0	0	0
2017/11/27 16:37:00	BASE	1.90	181	2.68	186	-1.3	57	-8.8	624	1395	971.8	NA	0.0000		9999	5480	0	0	0
2017/11/27 16:38:00	BASE	1.61	182	2.68	186	-1.3	57	-8.8	591	1326	971.8	NA	0.0000		9999	5450	0	0	0
2017/11/27 16:39:00	BASE	1.49	170	2.68	186	-1.3	56	-8.9	593	1333	971.8	NA	0.0000		9999	5410	0	0	0
2017/11/27 16:40:00	BASE	1.55	161	2.68	186	-1.4	56	-9.1	603	1352	971.8	NA	0.0000		9999	5410	0	0	0
2017/11/27 16:41:00	BASE	1.71	159	2.68	186	-1.4	55	-9.2	620	1387	971.9	NA	0.0000		9999	5410	0	0	0
2017/11/27 16:42:00	BASE	1.72	162	2.68	186	-1.4	55	-9.4	626	1399	972.0	NA	0.0000		9999	5380	0	0	0
2017/11/27 16:43:00	BASE	1.71	174	2.68	186	-1.3	54	-9.4	597	1335	972.0	NA	0.0000		9999	5410	0	0	0
2017/11/27 16:44:00	BASE	1.73	182	2.68	186	-1.3	54	-9.5	595	1335	972.0	NA	0.0000		9999	5350	20050	0	0
2017/11/27 16:45:00	BASE	1.69	179	2.68	186	-1.4	53	-9.6	592	1327	972.0	NA	0.0000		9999	5380	0	0	0
2017/11/27 16:46:00	BASE	1.79	175	2.16	167	-1.4	54	-9.6	578	1297	972.0	NA	0.0000		9999	5380	0	0	0
2017/11/27 16:47:00	BASE	1.80	174	2.16	167	-1.4	54	-9.6	566	1275	972.0	NA	0.0000		9999	5380	0	0	0
2017/11/27 16:48:00	BASE	1.74	186	2.16	188	-1.4	54	-9.6	561	1268	972.0	NA	0.0000		9999	5350	0	0	0
2017/11/27 16:49:00	BASE	1.89	191	2.21	191	-1.4	54	-9.5	556	1257	972.0	NA	0.0000		9999	5350	0	0	0
2017/11/27 16:50:00	BASE	1.93	187	2.31	183	-1.4	54	-9.5	558	1261	972.0	NA	0.0000		9999	5380	0	0	0
2017/11/27 16:51:00	BASE	1.70	181	2.31	183	-1.4	54	-9.4	568	1282	972.0	NA	0.0000		9999	5410	0	0	0
2017/11/27 16:52:00	BASE	1.53	169	2.31	183	-1.3	55	-9.3	586	1321	972.0	NA	0.0000		9999	5320	0	0	0
2017/11/27 16:53:00	BASE	1.74	170	2.31	183	-1.3	55	-9.1	610	1370	972.0	NA	0.0000		9999	5350	0	0	0
2017/11/27 16:54:00	BASE	1.99	174	2.52	182	-1.2	56	-8.9	625	1398	972.0	NA	0.0000		9999	5280	0	0	0
2017/11/27 16:55:00	BASE	1.69	157	2.52	182	-1.1	56	-8.8	642	1431	971.9	NA	0.0000		9999	5350	0	0	0
2017/11/27 16:56:00	BASE	1.52	158	2.52	182	-1.1	56	-8.6	648	1441	971.9	NA	0.0000		9999	5320	0	0	0
2017/11/27 16:57:00	BASE	2.01	172	2.78	166	-1.0	57	-8.6	656	1456	972.0	NA	0.0000		9999	5280	0	0	0
2017/11/27 16:58:00	BASE	2.27	177	2.78	166	-1.1	56	-8.7	672	1491	972.0	NA	0.0000		9999	5410	0	0	0
2017/11/27 16:59:00	BASE	2.11	176	2.78	166	-1.1	56	-8.8	716	1515	972.0	NA	0.0000		9999	5320	0	0	0
2017/11/27 17:00:00	BASE	1.87	171	3.09	169	-1.2	56	-8.8	684	1511	972.0	NA	0.0000		9999	5350	0	0	0
2017/11/27 17:01:00	BASE	2.05	169	3.19	170	-1.2	57	-8.7	686	1514	972.0	NA	0.0000		9999	5320	0	0	0
2017/11/27 17:02:00	BASE	2.29	165	3.19	170	-1.2	57	-8.7	712	1514	972.0	NA	0.0000		9999	5320	0	0	0
2017/11/27 17:03:00	BASE	2.30	157	3.19	170	-1.1	57	-8.6	723	1514	972.0	NA	0.0000		9999	5350	0	0	0
2017/11/27 17:04:00	BASE	2.25	164	3.19	170	-1.1	56	-8.7	721	1514	972.0	NA	0.0000		9999	5380	0	0	0
2017/11/27 17:05:00	BASE	2.00	171	3.19	170	-1.0	56	-8.7	742	1514	972.0	NA	0.0000		9999	5280	0	0	0
2017/11/27 17:06:00	BASE	2.02	165	3.19	170	-1.1	56	-8.7	662	1458	972.0	NA	0.0000		9999	5350	0	0	0
2017/11/27 17:07:00	BASE	2.37	165	3.19	170	-1.0	56	-8.6	601	1335	972.0	NA	0.0000		9999	5350	0	0	0
2017/11/27 17:08:00	BASE	2.50	163	3.19	170	-1.0	57	-8.5	573	1281	972.0	NA	0.0000		9999	5280	0	0	0
2017/11/27 17:09:00	BASE	2.34	147	3.19	170	-0.9	58	-8.2	558	1255	972.0	NA	0.0000		9999	5350	0	0	0
2017/11/27 17:10:00	BASE	2.15	142	3.19	170	-0.8	58	-8.1	553	1245	972.1	NA	0.0000		9999	5380	0	0	0
2017/11/27 17:11:00	BASE	2.18	143	2.98	155	-0.7	57	-8.1	553	1248	972.1	NA	0.0000		9999	5350	0	0	0
2017/11/27 17:12:00	BASE	2.26	138	2.98	155	-0.6	56	-8.2	541	1223	972.1	NA	0.0000		9999	5380	0	0	0
2017/11/27 17:13:00	BASE	2.10	135	2.98	155	-0.5	56	-8.3	526	1194	972.1	NA	0.0000		9999	5320	0	0	0
2017/11/27 17:14:00	BASE	1.88	133	2.98	155	-0.6	55	-8.4	516	1176	972.2	NA	0.0000		9999	5280	0	0	0
2017/11/27 17:15:00	BASE	1.84	126	2.98	155	-0.5	55	-8.5	508	1161	972.2	NA	0.0000		9999	5320	0	0	0
2017/11/27 17:16:00	BASE	1.94	132	2.98	155	-0.6	55	-8.6	502	1151	972.2	NA	0.0000		9999	5350	0	0	0
2017/11/27 17:17:00	BASE	1.68	152	2.98	155	-0.6	55	-8.6	498	1142	972.3	NA	0.0000		9999	5280	0	0	0
2017/11/27 17:18:00	BASE	1.40	152	2.93	153	-0.7	55	-8.7	496	1139	972.2	NA	0.0000		9999	5280	0	0	0
2017/11/27 17:19:00	BASE	1.56	148	2.73	142	-0.7	55	-8.6	494	1136	972.3	NA	0.0000		9999	5280	0	0	0
2017/11/27 17:20:00	BASE	2.11	142	2.88	130	-0.7	55	-8.6	496	1140	972.2	NA	0.0000		9999	5280	0	0	0
2017/11/27 17:21:00	BASE	2.42	132	2.88	130	-0.8	55	-8.7	500	1150	972.2	NA	0.0000		9999	5320	0	0	0
2017/11/27 17:22:00	BASE	2.25	133	2.88	130	-0.8	55	-8.6	502	1155	972.2	NA	0.0000		9999	5250	0	0	0
2017/11/27 17:23:00	BASE	2.17	130	2.88	130	-0.6	56	-8.4	502	1157	972.2	NA	0.0000		9999	5180	0	0	0
2017/11/27 17:24:00	BASE	2.10	137	2.88	130	-0.5	56	-8.3	504	1160	972.2	NA	0.0000		9999	5180	0	0	0
2017/11/27 17:25:00	BASE	2.27	147	2.88	142	-0.5	55	-8.3	502	1156	972.2	NA	0.0000		9999	5150	0	0	0
2017/11/27 17:26:00	BASE	2.27	155	2.88	142	-0.4	55	-8.3	497	1148	972.2	NA	0.0000		9999	5180	0	0	0
2017/11/27 17:27:00	BASE	2.01	147	2.88	142	-0.4	55	-8.3	491	1137	972.3	NA	0.0000		9999	5150	0	0	0
2017/11/27 17:28:00	BASE	2.03	130	2.88	142	-0.4	55	-8.4	489	1133	972.3	NA	0.0000		9999	5150	0	0	0
2017/11/27 17:29:00	BASE	2.17	126	2.88	142	-0.5	54	-8.6	489	1135	972.3	NA	0.0000		9999	5150	0	0	0
2017/11/27 17:30:00	BASE	2.13	131	2.88	142	-0.6	54	-8.7	491	1140	972.3	NA	0.0000		9999	5090	0	0	0
2017/11/27 17:31:00	BASE	2.12	135	2.88	142	-0.6	55	-8.6	494	1147	972.3	NA	0.0000		9999	5120	0	0	0
2017/11/27 17:32:00	BASE	2.30	132	2.88	142	-0.5	55	-8.6	500	1159	972.3	NA	0.0000		9999	5020	0	0	0
2017/11/27 17:33:00	BASE	2.33	140	2.88	142	-0.6	55	-8.6	506	1172	972.3	NA	0.0000		9999	4630	5050	0	0
2017/11/27 17:34:00	BASE	2.11	151	2.88	142	-0.6	55	-8.7	512	1184	972.3	NA	0.0000		9999	4660	4990	0	0
2017/11/27 17:35:00	BASE	1.91	148	2.68	151	-0.6	55	-8.6	524	1208	972.3	NA	0.0000		9999	4920	0	0	0
2017/11/27 17:36:00	BASE	1.98	135	2.68	151	-0.6	55	-8.6	535	1232	972.3	NA	0.0000		9999	5050	0	0	0
2017/11/27 17:37:00	BASE	2.18	132	2.68	151	-0.5	55	-8.5	542	1246	972.3	NA	0.0000		9999	5050	0	0	0
2017/11/27 17:38:00	BASE	2.20	136	2.68	151	-0.4	55	-8.4	547	1256	972.3	NA	0.0000		9999	5050	0	0	0
2017/11/27 17:39:00	BASE	2.29	129	2.78	125	-0.4	55	-8.4	560	1282	972.3	NA	0.0000		9999	5020	0	0	0
2017/11/27 17:40:00	BASE	2.50	126	2.83	134	-0.4	55	-8.3	572	1304	972.3	NA	0.0000		9999	5020	0	0	0
2017/11/27 17:41:00	BASE	2.58	131	2.98	139	-0.4	55	-8.2	581	1323	972.3	NA	0.0000		9999	5020	0	0	0
2017/11/27 17:42:00	BASE	2.65	130	2.98	120	-0.4	55	-8.3	597	1359	972.3	NA	0.0000		9999	5020	0	0	0
2017/11/27 17:43:00	BASE	2.52	131	2.98	120	-0.5	56	-8.2	589	1337	972.3	NA	0.0000		9999	5050	0	0	0
2017/11/27 17:44:00	BASE	2.49	130	2.98	120	-0.6	56	-8.2	590	1339	972.3	NA	0.0000		9999	5050	23000	0	0
2017/11/27 17:45:00	BASE	2.56	133	2.98	120	-0.6	57	-8.1	592	1344	972.3	NA	0.0000		9999	5050	0	0	0
2017/11/27 17:46:00	BASE	2.48	134	2.98	120	-0.6	56	-8.2	594	1349	972.3	NA	0.0000		9999	5050	0	0	0
2017/11/27 17:47:00	BASE	2.25	130	2.98	120	-0.7	56	-8.3	600	1362	972.3	NA	0.0000		9999	5050	0	0	0
2017/11/27 17:48:00	BASE	2.14	127	2.98	120	-0.7	56	-8.3	604	1367	972.3	NA	0.0000		9999	5050	0	0	0
2017/11/27 17:49:01	BASE	2.58	123	3.19	122	-0.7	57	-8.2	617	1393	972.3	NA	0.0000		9999	5050	0	0	0
2017/11/27 17:50:00	BASE	2.78	121	3.19	122	-0.7	57	-8.2	638	1437	972.3	NA	0.0000		9999	5050	0	0	0
2017/11/27 17:51:00	BASE	2.54	121	3.19	122	-0.7	57	-8.3	645	1449	972.3	NA	0.0000		9999	5050	0	0	0
2017/11/27 17:52:00	BASE	2.49	121	3.19	122	-0.7	57	-8.3	648	1453	972.3	NA	0.0000		9999	5050	0	0	0
2017/11/27 17:53:01	BASE	2.62	125	3.19	122	-0.7	57	-8.3	663	1483	972.3	NA	0.0000		9999	5090	0	0	0
2017/11/27 17:54:00	BASE	2.70	127	3.19	122	-0.8	56	-8.4	676	1506	972.3	NA	0.0000		9999	5090	0	0	0
2017/11/27 17:55:00	BASE	2.50	125	3.19	122	-0.8	56	-8.4	668	1488	972.3	NA	0.0000		9999	5020	0	0	0
2017/11/27 17:56:00	BASE	2.43	123	3.19	122	-0.7	57	-8.3	658	1465	972.3	NA	0.0000		9999	5120	0	0	0
2017/11/27 17:57:00	BASE	2.54	122	3.19	122	-0.7	56	-8.3	660	1470	972.3	NA	0.0000		9999	5090	0	0	0
2017/11/27 17:58:00	BASE	2.57	124	3.19	122	-0.7	56	-8.4	644	1435	972.3	NA	0.0000		9999	5180	0	0	0
2017/11/27 17:59:00	BASE	2.52	125	3.09	121	-0.7	56	-8.3	632	1408	972.3	NA	0.0000		9999	5150	0	0	0
2017/11/27 18:00:00	BASE	2.52	124	3.09	121	-0.7	57	-8.2	628	1400	972.3	NA	0.0000		9999	5220	0	0	0
2017/11/27 18:01:01	BASE	2.64	123	3.09	121	-0.7	57	-8.3	631	1406	972.3	NA	0.0000		9999	5050	19000	21060	0
2017/11/27 18:02:01	BASE	2.54	124	3.09	121	-0.7	57	-8.2	636	1420	972.3	NA	0.0000		9999	5180	0	0	0
2017/11/27 18:03:00	BASE	2.45	123	2.88	121	-0.6	58	-8.0	619	1385	972.3	NA	0.0000		9999	5220	0	0	0
2017/11/27 18:04:01	BASE	2.63	122	3.09	122	-0.5	58	-7.9	598	1339	972.3	NA	0.0000		9999	5220	0	0	0
2017/11/27 18:05:00	BASE	2.78	124	3.29	128	-0.6	57	-8.0	593	1328	972.3	NA	0.0000		9999	5220	0	0	0
2017/11/27 18:06:00	BASE	2.87	122	3.55	119	-0.6	57	-8.0	615	1374	972.3	NA	0.0000		9999	5180	0	0	0
2017/11/27 18:07:01	BASE	2.91	120	3.55	119	-0.5	57	-7.9	674	1492	972.3	NA	0.0000		9999	5180	0	0	0
2017/11/27 18:08:00	BASE	2.85	123	3.55	119	-0.6	57	-8.0	731	1515	972.3	NA	0.0000		9999	5150	0	0	0
2017/11/27 18:09:01	BASE	2.97	122	3.65	119	-0.6	57	-8.0	733	1514	972.3	NA	0.0000		9999	5150	0	0	0
2017/11/27 18:10:00	BASE	3.01	128	3.65	119	-0.6	57	-8.1	756	1515	972.3	NA	0.0000		9999	5180	0	0	0
2017/11/27 18:11:01	BASE	2.86	132	3.65	119	-0.6	57	-8.0	663	1462	972.3	NA	0.0000		9999	5180	0	0	0
2017/11/27 18:12:01	BASE	2.98	129	3.65	119	-0.5	57	-7.8	619	1376	972.3	NA	0.0000		9999	5180	0	0	0
2017/11/27 18:13:00	BASE	3.14	127	3.76	126	-0.4	57	-7.9	591	1323	972.3	NA	0.0000		9999	5150	0	0	0
2017/11/27 18:14:00	BASE	3.10	127	3.76	126	-0.4	57	-8.0	578	1293	972.3	NA	0.0000		9999	5180	0	0	0
2017/11/27 18:15:00	BASE	2.83	124	3.76	126	-0.3	56	-8.0	608	1358	972.3	NA	0.0000		9999	5150	0	0	0
2017/11/27 18:16:00	BASE	2.78	122	3.91	108	-0.4	56	-8.1	584	1302	972.3	NA	0.0000		9999	5120	0	0	0
2017/11/27 18:17:00	BASE	2.92	124	3.91	108	-0.5	56	-8.2	617	1377	972.3	NA	0.0000		9999	5150	0	0	0
2017/11/27 18:18:00	BASE	3.22	127	3.91	131	-0.6	57	-8.1	634	1410	972.3	NA	0.0000		9999	5090	0	0	0
2017/11/27 18:19:00	BASE	3.60	128	4.17	129	-0.5	57	-8.0	593	1319	972.3	NA	0.0000		9999	5120	0	0	0
2017/11/27 18:20:00	BASE	3.49	125	4.17	129	-0.5	58	-7.8	612	1362	972.3	NA	0.0000		9999	5180	0	0	0
2017/11/27 18:21:00	BASE	3.40	124	4.17	129	-0.4	58	-7.7	636	1406	972.3	NA	0.0000		9999	5480	0	0	0
2017/11/27 18:22:00	BASE	3.78	124	4.27	122	-0.4	58	-7.6	711	1515	972.3	NA	0.0000		9999	5510	0	0	0
2017/11/27 18:23:00	BASE	3.86	125	4.27	122	-0.4	58	-7.7	735	1515	972.3	NA	0.0000		9999	5410	19850	0	0
2017/11/27 18:24:00	BASE	3.71	125	4.27	122	-0.4	58	-7.7	692	1514	972.3	NA	0.0000		9999	5280	0	0	0
2017/11/27 18:25:00	BASE	3.79	122	4.32	115	-0.5	58	-7.7	654	1442	972.3	NA	0.0000		9999	5180	0	0	0
2017/11/27 18:26:00	BASE	3.85	122	4.58	125	-0.5	58	-7.8	652	1436	972.3	NA	0.0000		9999	5180	0	0	0
2017/11/27 18:27:00	BASE	4.09	122	4.78	122	-0.6	58	-7.8	583	1295	972.3	NA	0.0000		9999	5350	0	0	0
2017/11/27 18:28:00	BASE	4.16	120	4.78	122	-0.6	58	-7.8	519	1170	972.3	NA	0.0000		9999	5380	0	0	0
2017/11/27 18:29:00	BASE	4.20	116	4.78	122	-0.7	58	-7.8	468	1064	972.3	NA	0.0000		9999	5380	0	0	0
2017/11/27 18:30:00	BASE	4.18	115	4.78	122	-0.8	58	-8.0	456	1044	972.3	NA	0.0000		9999	5410	0	0	0
2017/11/27 18:31:00	BASE	4.10	117	4.78	122	-0.9	58	-8.0	457	1047	972.3	NA	0.0000		9999	5380	0	0	0
2017/11/27 18:32:00	BASE	4.13	122	4.78	122	-0.9	59	-8.0	466	1067	972.4	NA	0.0000		9999	5350	0	0	0
2017/11/27 18:33:00	BASE	4.23	127	4.78	126	-0.9	59	-7.9	492	1125	972.4	NA	0.0000		9999	5320	0	0	0
2017/11/27 18:34:00	BASE	4.26	127	4.78	126	-0.8	59	-7.8	526	1194	972.4	NA	0.0000		9999	5350	0	0	0
2017/11/27 18:35:00	BASE	4.09	127	4.78	126	-0.7	59	-7.7	567	1274	972.3	NA	0.0000		9999	5320	0	0	0
2017/11/27 18:36:00	BASE	4.51	126	5.14	124	-0.6	59	-7.6	625	1394	972.3	NA	0.0000		9999	5250	0	0	0
2017/11/27 18:37:00	BASE	5.04	125	5.56	123	-0.6	59	-7.6	642	1419	972.3	NA	0.0000		9999	5250	0	0	0
2017/11/27 18:38:00	BASE	4.85	122	5.56	123	-0.7	58	-7.8	758	1514	972.3	NA	0.0000		9999	5250	0	0	0
2017/11/27 18:39:00	BASE	4.41	120	5.56	123	-0.7	58	-7.9	664	1463	972.3	NA	0.0000		9999	5250	0	0	0
2017/11/27 18:40:00	BASE	4.45	119	5.56	123	-0.7	58	-8.0	628	1382	972.3	NA	0.0000		9999	5220	0	0	0
2017/11/27 18:41:00	BASE	4.86	119	5.56	123	-0.7	58	-8.0	688	1503	972.2	NA	0.0000		9999	5220	0	0	0
2017/11/27 18:42:00	BASE	4.90	117	5.56	123	-0.8	58	-8.0	772	1514	972.2	NA	0.0000		9999	5220	0	0	0
2017/11/27 18:43:00	BASE	4.89	115	5.56	123	-0.8	58	-8.0	1038	1515	972.2	NA	0.0000		9999	5180	0	0	0
2017/11/27 18:44:00	BASE	5.02	117	5.56	123	-0.8	58	-7.9	747	1515	972.2	NA	0.0000		9999	5180	0	0	0
2017/11/27 18:45:00	BASE	5.06	116	5.56	113	-0.8	58	-8.0	628	1380	972.2	NA	0.0000		9999	5150	23230	0	0
2017/11/27 18:46:00	BASE	5.03	114	5.56	113	-0.9	58	-8.1	603	1329	972.2	NA	0.0000		9999	5250	0	0	0
2017/11/27 18:47:00	BASE	4.93	115	5.71	117	-0.9	58	-8.1	646	1404	972.3	NA	0.0000		9999	5250	0	0	0
2017/11/27 18:48:00	BASE	4.98	116	5.71	117	-0.9	58	-8.0	723	1514	972.3	NA	0.0000		9999	5220	20240	0	0
2017/11/27 18:49:00	BASE	5.04	117	5.71	117	-0.9	59	-8.0	718	1514	972.3	NA	0.0000		9999	5150	0	0	0
2017/11/27 18:50:00	BASE	5.15	116	5.71	117	-0.9	59	-8.0	547	1219	972.3	NA	0.0000		9999	5250	0	0	0
2017/11/27 18:51:00	BASE	5.15	116	5.71	112	-0.9	59	-7.9	437	1000	972.3	NA	0.0000		9999	5280	0	0	0
2017/11/27 18:52:00	BASE	5.05	115	5.71	112	-0.9	59	-7.9	407	939	972.3	NA	0.0000		9999	5280	0	0	0
2017/11/27 18:53:00	BASE	5.17	115	5.71	112	-0.9	59	-7.9	401	928	972.3	NA	0.0000		9999	5320	0	0	0
2017/11/27 18:54:00	BASE	5.26	117	5.71	112	-1.0	59	-7.9	416	961	972.3	NA	0.0000		9999	5350	0	0	0
2017/11/27 18:55:00	BASE	5.25	116	5.71	112	-1.0	59	-8.0	425	975	972.3	NA	0.0000		9999	5350	0	0	0
2017/11/27 18:56:00	BASE	5.29	117	5.81	120	-1.0	59	-8.0	425	977	972.3	NA	0.0000		9999	3280	5320	0	0
2017/11/27 18:57:00	BASE	5.41	116	6.07	115	-1.0	59	-8.1	415	958	972.3	NA	0.0000		9999	3280	5380	0	0
2017/11/27 18:58:00	BASE	5.45	117	6.07	115	-1.0	59	-8.1	387	897	972.3	NA	0.0000		9999	3280	5410	0	0
2017/11/27 18:59:01	BASE	5.34	117	6.07	115	-1.0	59	-8.1	380	885	972.3	NA	0.0000		9999	3280	5350	0	0
2017/11/27 19:00:00	BASE	5.43	116	6.07	115	-1.0	59	-8.0	400	928	972.3	NA	0.0000		9999	3310	5280	0	0
2017/11/27 19:01:00	BASE	5.65	116	6.07	115	-1.0	59	-8.0	387	896	972.3	NA	0.0000		9999	3150	5250	0	0
2017/11/27 19:02:00	BASE	5.63	116	6.07	115	-1.0	59	-7.9	406	938	972.3	NA	0.0000		9999	5280	0	0	0
2017/11/27 19:03:00	BASE	5.58	117	6.07	115	-1.0	59	-7.9	466	1061	972.3	NA	0.0000		9999	3250	5320	0	0
2017/11/27 19:04:00	BASE	5.48	119	6.07	115	-1.0	59	-7.9	466	1060	972.3	NA	0.0000		9999	3280	5220	0	0
2017/11/27 19:05:00	BASE	5.45	119	6.07	115	-1.0	59	-7.9	420	965	972.3	NA	0.0000		9999	5250	0	0	0
2017/11/27 19:06:00	BASE	5.42	117	6.07	115	-1.0	59	-7.9	428	985	972.3	NA	0.0000		9999	3250	5220	0	0
2017/11/27 19:07:00	BASE	5.12	116	6.02	114	-1.0	60	-7.9	407	947	972.4	NA	0.0000		9999	3250	5320	0	0
2017/11/27 19:08:00	BASE	5.17	114	6.02	111	-1.0	60	-7.9	387	901	972.3	NA	0.0000		9999	3150	5350	0	0
2017/11/27 19:09:00	BASE	5.01	115	6.02	111	-1.0	59	-7.9	374	876	972.4	NA	0.0000		9999	3180	5280	0	0
2017/11/27 19:10:00	BASE	4.91	118	6.02	111	-1.0	59	-8.0	381	892	972.4	NA	0.0000		9999	3220	0	0	0
2017/11/27 19:11:00	BASE	5.08	119	6.02	111	-1.0	58	-8.1	369	866	972.4	NA	0.0000		9999	3020	0	0	0
2017/11/27 19:12:00	BASE	5.00	119	6.02	111	-1.0	57	-8.3	367	863	972.4	NA	0.0000		9999	3080	0	0	0
2017/11/27 19:13:00	BASE	4.99	120	6.02	111	-1.0	57	-8.5	365	859	972.4	NA	0.0000		9999	3080	0	0	0
2017/11/27 19:14:00	BASE	4.88	123	6.02	111	-1.0	56	-8.6	369	867	972.4	NA	0.0000		9999	3250	5320	0	0
2017/11/27 19:15:00	BASE	4.95	126	6.02	111	-0.9	55	-8.7	386	902	972.4	NA	0.0000		9999	3250	5280	0	0
2017/11/27 19:16:00	BASE	5.08	125	6.02	111	-0.9	55	-8.8	397	924	972.4	NA	0.0000		9999	3120	5180	0	0
2017/11/27 19:17:00	BASE	5.22	125	6.02	111	-0.9	55	-8.8	411	952	972.4	NA	0.0000		9999	3180	5250	0	0
2017/11/27 19:18:00	BASE	5.44	125	5.92	126	-0.9	54	-8.9	440	1008	972.4	NA	0.0000		9999	3120	5220	0	0
2017/11/27 19:19:00	BASE	5.36	123	5.92	121	-0.9	54	-9.0	465	1061	972.4	NA	0.0000		9999	2990	5320	0	0
2017/11/27 19:20:00	BASE	5.15	121	5.92	121	-0.9	54	-9.1	429	983	972.4	NA	0.0000		9999	3020	0	0	0
2017/11/27 19:21:00	BASE	5.23	118	5.97	121	-0.9	54	-9.1	401	926	972.4	NA	0.0000		9999	3120	0	0	0
2017/11/27 19:22:00	BASE	5.27	118	5.97	121	-0.9	54	-9.1	379	882	972.4	NA	0.0000		9999	3120	5280	21200	0
2017/11/27 19:23:00	BASE	5.02	119	5.97	121	-0.9	54	-9.1	358	836	972.4	NA	0.0000		9999	3150	5280	0	0
2017/11/27 19:24:00	BASE	5.07	115	5.97	121	-0.9	54	-9.0	345	812	972.4	NA	0.0000		9999	3180	5350	0	0
2017/11/27 19:25:00	BASE	5.27	113	5.97	121	-0.9	54	-9.0	334	790	972.4	NA	0.0000		9999	3080	5320	0	0
2017/11/27 19:26:00	BASE	5.13	114	5.97	121	-0.9	54	-9.0	329	779	972.4	NA	0.0000		9999	3080	0	0	0
2017/11/27 19:27:00	BASE	5.13	116	5.97	121	-1.0	55	-9.0	331	787	972.4	NA	0.0000		9999	3080	0	0	0
2017/11/27 19:28:00	BASE	5.24	117	5.97	121	-1.0	55	-9.0	344	815	972.5	NA	0.0000		9999	3050	0	0	0
2017/11/27 19:29:00	BASE	5.10	115	5.97	121	-1.0	55	-8.8	358	843	972.5	NA	0.0000		9999	3050	0	0	0
2017/11/27 19:30:00	BASE	5.18	113	6.02	113	-1.0	56	-8.7	372	871	972.5	NA	0.0000		9999	3020	0	0	0
2017/11/27 19:31:00	BASE	5.30	112	6.02	113	-1.0	56	-8.6	390	910	972.5	NA	0.0000		9999	2990	0	0	0
2017/11/27 19:32:00	BASE	5.14	111	6.02	113	-1.0	56	-8.7	397	921	972.5	NA	0.0000		9999	3050	0	0	0
2017/11/27 19:33:00	BASE	5.15	112	6.02	113	-1.0	56	-8.7	401	928	972.5	NA	0.0000		9999	3080	0	0	0
2017/11/27 19:34:00	BASE	5.30	113	6.02	113	-1.0	56	-8.7	414	954	972.5	NA	0.0000		9999	3080	0	0	0
2017/11/27 19:35:00	BASE	5.14	111	6.02	113	-1.0	56	-8.7	427	979	972.5	NA	0.0000		9999	3020	0	0	0
2017/11/27 19:36:00	BASE	4.79	108	6.02	113	-1.0	56	-8.6	436	997	972.5	NA	0.0000		9999	3050	0	0	0
2017/11/27 19:37:00	BASE	4.65	108	6.02	113	-1.0	57	-8.5	443	1011	972.6	NA	0.0000		9999	3120	0	0	0
2017/11/27 19:38:00	BASE	4.82	109	6.02	113	-1.0	57	-8.4	439	998	972.5	NA	0.0000		9999	3150	0	0	0
2017/11/27 19:39:00	BASE	5.09	108	6.02	113	-1.0	57	-8.4	456	1033	972.5	NA	0.0000		9999	3150	0	0	0
2017/11/27 19:40:00	BASE	5.20	108	5.81	110	-1.0	57	-8.4	478	1073	972.4	NA	0.0000		9999	3120	0	0	0
2017/11/27 19:41:00	BASE	5.04	108	5.71	111	-1.0	57	-8.4	504	1129	972.4	NA	0.0000		9999	3120	0	0	0
2017/11/27 19:42:00	BASE	4.94	112	5.71	111	-1.0	57	-8.5	483	1077	972.4	NA	0.0000		9999	3120	0	0	0
2017/11/27 19:43:00	BASE	4.78	113	5.71	111	-0.9	57	-8.4	541	1202	972.4	NA	0.0000		9999	3120	5250	0	0
2017/11/27 19:44:00	BASE	4.48	112	5.66	108	-0.9	57	-8.5	519	1158	972.4	NA	0.0000		9999	3180	5180	0	0
2017/11/27 19:45:00	BASE	4.25	111	5.66	108	-0.9	57	-8.4	489	1089	972.4	NA	0.0000		9999	3150	5120	0	0
2017/11/27 19:46:00	BASE	4.27	107	5.66	108	-0.8	57	-8.3	491	1094	972.3	NA	0.0000		9999	3150	0	0	0
2017/11/27 19:47:00	BASE	4.66	106	5.66	108	-0.8	57	-8.4	463	1035	972.3	NA	0.0000		9999	3120	5090	0	0
2017/11/27 19:48:00	BASE	4.70	108	5.66	108	-0.8	56	-8.4	457	1023	972.3	NA	0.0000		9999	3150	5120	0	0
2017/11/27 19:49:00	BASE	4.66	109	5.61	112	-0.8	56	-8.4	422	948	972.3	NA	0.0000		9999	3150	5090	21490	0
2017/11/27 19:50:00	BASE	4.74	108	5.61	112	-0.8	56	-8.5	425	959	972.3	NA	0.0000		9999	3180	5050	0	0
2017/11/27 19:51:00	BASE	4.55	107	5.61	112	-0.8	56	-8.5	410	923	972.3	NA	0.0000		9999	3250	5120	0	0
2017/11/27 19:52:00	BASE	4.48	105	5.61	112	-0.8	56	-8.6	428	960	972.3	NA	0.0000		9999	5020	0	0	0
2017/11/27 19:53:00	BASE	4.68	103	5.61	112	-0.8	55	-8.7	500	1105	972.3	NA	0.0000		9999	4950	0	0	0
2017/11/27 19:54:00	BASE	4.78	101	5.61	112	-0.9	55	-8.7	527	1165	972.3	NA	0.0000		9999	4990	0	0	0
2017/11/27 19:55:00	BASE	4.54	102	5.61	112	-0.9	55	-8.8	441	987	972.3	NA	0.0000		9999	4990	0	0	0
2017/11/27 19:56:00	BASE	4.46	104	5.61	112	-0.9	54	-9.0	459	1024	972.3	NA	0.0000		9999	4990	0	0	0
2017/11/27 19:57:00	BASE	4.39	104	5.14	112	-0.8	53	-9.1	469	1039	972.3	NA	0.0000		9999	4920	0	0	0
2017/11/27 19:58:00	BASE	4.00	104	5.14	112	-0.8	53	-9.2	477	1057	972.3	NA	0.0000		9999	4990	0	0	0
2017/11/27 19:59:00	BASE	3.83	101	5.09	101	-0.8	53	-9.2	581	1268	972.3	NA	0.0000		9999	4990	0	0	0
2017/11/27 20:00:00	BASE	3.75	101	5.09	101	-0.7	53	-9.2	757	1515	972.4	NA	0.0000		9999	4990	0	0	0
2017/11/27 20:01:00	BASE	3.57	102	5.09	101	-0.7	53	-9.1	731	1515	972.4	NA	0.0000		9999	4950	0	0	0
2017/11/27 20:02:00	BASE	3.46	102	5.09	101	-0.6	53	-9.0	670	1432	972.4	NA	0.0000		9999	5020	0	0	0
2017/11/27 20:03:00	BASE	3.45	101	4.89	98	-0.6	53	-9.1	573	1246	972.4	NA	0.0000		9999	4990	0	0	0
2017/11/27 20:04:00	BASE	3.40	101	4.78	103	-0.6	52	-9.3	499	1094	972.4	NA	0.0000		9999	4950	0	0	0
2017/11/27 20:05:00	BASE	3.28	101	4.78	103	-0.6	51	-9.4	499	1099	972.5	NA	0.0000		9999	4920	0	0	0
2017/11/27 20:06:00	BASE	3.19	99	4.48	107	-0.5	51	-9.5	491	1083	972.5	NA	0.0000		9999	4950	0	0	0
2017/11/27 20:07:00	BASE	3.09	97	4.12	96	-0.5	50	-9.5	463	1029	972.6	NA	0.0000		9999	4990	0	0	0
2017/11/27 20:08:00	BASE	2.73	96	4.12	96	-0.4	50	-9.5	428	955	972.6	NA	0.0000		9999	4920	0	0	0
2017/11/27 20:09:00	BASE	2.48	96	3.91	104	-0.4	50	-9.4	505	1120	972.6	NA	0.0000		9999	4990	0	0	0
2017/11/27 20:10:00	BASE	2.62	96	3.81	102	-0.4	51	-9.3	404	905	972.6	NA	0.0000		9999	4950	24280	0	0
2017/11/27 20:11:00	BASE	2.71	98	3.81	102	-0.4	51	-9.4	389	875	972.6	NA	0.0000		9999	5050	0	0	0
2017/11/27 20:12:00	BASE	2.57	101	3.81	102	-0.4	50	-9.5	392	881	972.6	NA	0.0000		9999	5090	0	0	0
2017/11/27 20:13:00	BASE	2.40	101	3.65	102	-0.4	50	-9.5	389	876	972.6	NA	0.0000		9999	5020	0	0	0
2017/11/27 20:14:00	BASE	2.35	102	3.60	102	-0.3	50	-9.6	385	868	972.6	NA	0.0000		9999	5050	0	0	0
2017/11/27 20:15:01	BASE	2.33	106	3.60	102	-0.4	49	-9.8	381	859	972.7	NA	0.0000		9999	4990	0	0	0
2017/11/27 20:16:00	BASE	2.39	107	3.34	95	-0.3	49	-9.8	377	851	972.7	NA	0.0000		9999	4950	0	0	0
2017/11/27 20:17:00	BASE	2.49	110	2.98	98	-0.4	49	-9.9	365	826	972.7	NA	0.0000		9999	4990	0	0	0
2017/11/27 20:18:00	BASE	2.55	113	3.09	120	-0.4	48	-10.1	354	803	972.7	NA	0.0000		9999	3150	5020	0	0
2017/11/27 20:19:00	BASE	2.77	115	3.14	118	-0.5	48	-10.2	346	789	972.7	NA	0.0000		9999	4950	0	0	0
2017/11/27 20:20:00	BASE	2.96	116	3.29	117	-0.5	48	-10.3	343	784	972.7	NA	0.0000		9999	4950	0	0	0
2017/11/27 20:21:00	BASE	2.94	117	3.29	117	-0.5	48	-10.3	348	793	972.7	NA	0.0000		9999	4890	0	0	0
2017/11/27 20:22:00	BASE	2.92	116	3.29	117	-0.5	48	-10.3	362	820	972.7	NA	0.0000		9999	4860	0	0	0
2017/11/27 20:23:01	BASE	3.08	116	3.50	118	-0.5	48	-10.2	369	831	972.7	NA	0.0000		9999	4820	0	0	0
2017/11/27 20:24:00	BASE	3.28	117	3.60	114	-0.4	48	-10.2	368	830	972.6	NA	0.0000		9999	4860	0	0	0
2017/11/27 20:25:00	BASE	3.46	120	3.86	126	-0.4	48	-10.1	367	826	972.6	NA	0.0000		9999	4790	0	0	0
2017/11/27 20:26:00	BASE	3.58	121	3.86	112	-0.4	48	-10.1	371	837	972.6	NA	0.0000		9999	4820	0	0	0
2017/11/27 20:27:01	BASE	3.49	120	3.96	118	-0.4	48	-10.0	378	850	972.6	NA	0.0000		9999	4720	0	0	0
2017/11/27 20:28:01	BASE	3.24	121	3.96	118	-0.3	49	-9.8	355	802	972.6	NA	0.0000		9999	4630	0	0	0
2017/11/27 20:29:01	BASE	3.18	122	3.96	118	-0.3	49	-9.7	370	835	972.6	NA	0.0000		9999	4630	0	0	0
2017/11/27 20:30:01	BASE	3.35	117	3.96	118	-0.3	49	-9.7	439	981	972.6	NA	0.0000		9999	4630	0	0	0
2017/11/27 20:31:01	BASE	3.41	113	3.96	118	-0.3	49	-9.8	412	921	972.6	NA	0.0000		9999	4560	0	0	0
2017/11/27 20:32:01	BASE	3.28	114	3.96	118	-0.4	49	-9.9	353	795	972.6	NA	0.0000		9999	4530	0	0	0
2017/11/27 20:33:01	BASE	2.96	115	3.96	118	-0.4	48	-10.1	338	761	972.6	NA	0.0000		9999	4560	0	0	0
2017/11/27 20:34:01	BASE	2.78	114	3.96	118	-0.4	48	-10.1	343	772	972.6	NA	0.0000		9999	4630	0	0	0
2017/11/27 20:35:01	BASE	2.68	110	3.96	118	-0.4	48	-10.0	348	783	972.6	NA	0.0000		9999	4590	0	0	0
2017/11/27 20:36:01	BASE	2.71	104	3.96	118	-0.4	49	-9.8	346	778	972.6	NA	0.0000		9999	4530	0	0	0
2017/11/27 20:37:01	BASE	2.73	102	3.91	117	-0.3	49	-9.6	338	763	972.6	NA	0.0000		9999	4490	0	0	0
2017/11/27 20:38:01	BASE	2.51	100	3.91	117	-0.3	49	-9.6	338	764	972.6	NA	0.0000		9999	4590	0	0	0
2017/11/27 20:39:01	BASE	2.55	99	3.76	113	-0.2	49	-9.5	347	784	972.6	NA	0.0000		9999	4690	0	0	0
2017/11/27 20:40:01	BASE	2.66	100	3.76	113	-0.2	49	-9.7	355	797	972.6	NA	0.0000		9999	4360	0	0	0
2017/11/27 20:41:01	BASE	2.44	99	3.40	113	-0.1	48	-9.8	405	905	972.6	NA	0.0000		9999	4430	0	0	0
2017/11/27 20:42:01	BASE	2.48	89	3.19	105	-0.1	48	-9.9	335	756	972.6	NA	0.0000		9999	4400	0	0	0
2017/11/27 20:43:01	BASE	2.40	83	3.19	105	-0.1	48	-9.8	326	739	972.6	NA	0.0000		9999	4460	0	0	0
2017/11/27 20:44:01	BASE	2.13	87	3.19	105	-0.1	49	-9.7	318	721	972.6	NA	0.0000		9999	4530	0	0	0
2017/11/27 20:45:01	BASE	2.37	96	3.19	105	-0.1	49	-9.5	300	684	972.6	NA	0.0000		9999	4400	0	0	0
2017/11/27 20:46:01	BASE	2.40	101	3.04	103	-0.1	49	-9.5	284	653	972.6	NA	0.0000		9999	4400	0	0	0
2017/11/27 20:47:01	BASE	2.29	103	2.93	73	-0.1	49	-9.5	273	630	972.6	NA	0.0000		9999	4430	0	0	0
2017/11/27 20:48:01	BASE	2.48	100	2.93	73	-0.2	50	-9.5	275	633	972.6	NA	0.0000		9999	4490	0	0	0
2017/11/27 20:49:01	BASE	2.71	97	3.04	100	-0.2	49	-9.6	286	655	972.6	NA	0.0000		9999	4460	0	0	0
2017/11/27 20:50:01	BASE	2.66	97	3.04	100	-0.3	49	-9.7	298	679	972.6	NA	0.0000		9999	4430	0	0	0
2017/11/27 20:51:01	BASE	2.63	100	3.24	103	-0.3	50	-9.5	300	682	972.6	NA	0.0000		9999	4330	0	0	0
2017/11/27 20:52:01	BASE	2.72	103	3.24	103	-0.3	50	-9.5	296	674	972.6	NA	0.0000		9999	4360	0	0	0
2017/11/27 20:53:01	BASE	2.83	101	3.24	99	-0.3	49	-9.6	291	663	972.6	NA	0.0000		9999	4330	0	0	0
2017/11/27 20:54:01	BASE	2.94	99	3.24	99	-0.2	50	-9.5	324	736	972.6	NA	0.0000		9999	4330	0	0	0
2017/11/27 20:55:01	BASE	2.70	100	3.24	99	-0.2	50	-9.5	307	700	972.7	NA	0.0000		9999	4330	0	0	0
2017/11/27 20:56:01	BASE	2.51	101	3.24	99	-0.2	49	-9.6	281	642	972.7	NA	0.0000		9999	4360	0	0	0
2017/11/27 20:57:01	BASE	2.56	101	3.24	99	-0.2	50	-9.4	280	640	972.7	NA	0.0000		9999	4300	0	0	0
2017/11/27 20:58:01	BASE	2.50	99	3.24	99	-0.2	50	-9.3	282	644	972.7	NA	0.0000		9999	4300	0	0	0
2017/11/27 20:59:01	BASE	2.35	98	3.24	99	-0.2	50	-9.3	282	644	972.7	NA	0.0000		9999	4360	0	0	0
2017/11/27 21:00:01	BASE	2.45	99	3.24	99	-0.2	50	-9.4	278	634	972.7	NA	0.0000		9999	4300	0	0	0
2017/11/27 21:01:01	BASE	2.59	99	3.24	99	-0.1	50	-9.4	270	616	972.7	NA	0.0000		9999	4430	0	0	0
2017/11/27 21:02:01	BASE	2.35	102	3.24	99	-0.2	49	-9.6	261	599	972.7	NA	0.0000		9999	4560	0	0	0
2017/11/27 21:03:01	BASE	2.08	104	3.09	99	-0.2	49	-9.6	252	581	972.7	NA	0.0000		9999	4460	0	0	0
2017/11/27 21:04:01	BASE	1.94	105	3.09	99	-0.2	49	-9.6	242	560	972.7	NA	0.0000		9999	4460	0	0	0
2017/11/27 21:05:01	BASE	1.61	101	2.98	99	-0.2	49	-9.5	233	542	972.7	NA	0.0000		9999	4430	0	0	0
2017/11/27 21:06:01	BASE	0.91	73	2.88	103	-0.1	50	-9.2	227	528	972.7	NA	0.0000		9999	4400	0	0	0
2017/11/27 21:07:01	BASE	0.48	53	2.83	98	0.0	52	-8.8	221	516	972.7	NA	0.0000		9999	4300	0	0	0
2017/11/27 21:08:01	BASE	0.66	93	2.83	98	0.2	53	-8.4	212	499	972.7	NA	0.0000		9999	4300	0	0	0
2017/11/27 21:09:01	BASE	0.66	116	2.83	98	0.3	54	-8.0	203	480	972.7	NA	0.0000		9999	4270	0	0	0
2017/11/27 21:10:01	BASE	0.56	123	2.83	98	0.3	54	-7.8	197	467	972.7	NA	0.0000		9999	4170	0	0	0
2017/11/27 21:11:01	BASE	0.51	103	2.62	102	0.2	55	-7.8	192	456	972.7	NA	0.0000		9999	4200	0	0	0
2017/11/27 21:12:01	BASE	0.25	78	2.31	104	0.2	55	-7.9	187	446	972.8	NA	0.0000		9999	4000	0	0	0
2017/11/27 21:13:01	BASE	0.20	15	2.11	112	0.1	55	-7.9	184	439	972.8	NA	0.0000		9999	4070	0	0	0
2017/11/27 21:14:01	BASE	0.84	8	1.85	99	0.1	55	-8.0	180	432	972.8	NA	0.0000		9999	4100	0	0	0
2017/11/27 21:15:01	BASE	1.47	32	2.11	46	0.2	54	-8.0	175	421	972.8	NA	0.0000		9999	4000	0	0	0
2017/11/27 21:16:01	BASE	1.51	32	2.11	46	0.4	53	-8.1	171	413	972.8	NA	0.0000		9999	3940	0	0	0
2017/11/27 21:17:01	BASE	1.30	14	2.11	46	0.5	52	-8.2	169	407	972.8	NA	0.0000		9999	3770	0	0	0
2017/11/27 21:18:01	BASE	0.98	358	2.11	46	0.6	52	-8.2	165	400	972.8	NA	0.0000		9999	3770	0	0	0
2017/11/27 21:19:01	BASE	0.40	354	2.11	46	0.6	52	-8.2	164	397	972.8	NA	0.0000		9999	3770	0	0	0
2017/11/27 21:20:01	BASE	0.00	342	2.11	46	0.5	52	-8.2	164	396	972.8	NA	0.0000		9999	3740	0	0	0
2017/11/27 21:21:01	BASE	0.00	315	2.11	46	0.5	53	-8.1	162	392	972.8	NA	0.0000		9999	3540	0	0	0
2017/11/27 21:22:01	BASE	0.15	304	2.11	46	0.3	53	-8.1	159	387	972.8	NA	0.0000		9999	3640	0	0	0
2017/11/27 21:23:01	BASE	0.15	298	2.11	46	0.3	53	-8.1	161	390	972.8	NA	0.0000		9999	3610	0	0	0
2017/11/27 21:24:01	BASE	0.00	272	2.11	46	0.2	53	-8.2	166	400	972.8	NA	0.0000		9999	3540	0	0	0
2017/11/27 21:25:01	BASE	0.00	247	1.90	36	0.1	53	-8.3	170	408	972.8	NA	0.0000		9999	3510	0	0	0
2017/11/27 21:26:01	BASE	0.00	249	1.54	1	0.1	53	-8.3	175	417	972.8	NA	0.0000		9999	3580	4300	0	0
2017/11/27 21:27:01	BASE	0.05	253	1.44	13	0.1	53	-8.3	179	425	972.8	NA	0.0000		9999	3610	4130	0	0
2017/11/27 21:28:01	BASE	0.32	259	1.29	274	0.0	53	-8.4	182	430	972.8	NA	0.0000		9999	3540	4270	0	0
2017/11/27 21:29:01	BASE	0.78	261	1.85	270	-0.0	53	-8.4	183	432	972.8	NA	0.0000		9999	3580	4270	0	0
2017/11/27 21:30:01	BASE	1.31	272	1.85	270	-0.0	54	-8.3	182	430	972.8	NA	0.0000		9999	4230	0	0	0
2017/11/27 21:31:01	BASE	1.46	285	1.85	270	-0.1	54	-8.4	180	425	972.9	NA	0.0000		9999	4170	0	0	0
2017/11/27 21:32:01	BASE	1.21	283	1.85	270	-0.2	53	-8.5	174	413	972.9	NA	0.0000		9999	4360	0	0	0
2017/11/27 21:33:01	BASE	1.13	272	1.85	270	-0.2	53	-8.6	165	395	972.9	NA	0.0000		9999	4460	0	0	0
2017/11/27 21:34:01	BASE	1.34	265	2.11	261	-0.2	53	-8.6	155	374	972.9	NA	0.0000		9999	3770	4460	0	0
2017/11/27 21:35:01	BASE	1.73	262	2.37	257	-0.2	52	-8.7	146	356	972.9	NA	0.0000		9999	3350	4000	0	0
2017/11/27 21:36:01	BASE	1.66	246	2.37	257	-0.2	52	-8.8	140	345	972.9	NA	0.0000		9999	3410	0	0	0
2017/11/27 21:37:01	BASE	1.53	233	2.37	257	-0.2	53	-8.6	138	339	972.9	NA	0.0000		9999	3380	0	0	0
2017/11/27 21:38:01	BASE	1.69	229	2.37	257	-0.2	54	-8.5	137	337	972.9	NA	0.0000		9999	3050	0	0	0
2017/11/27 21:39:01	BASE	1.62	226	2.37	257	-0.2	54	-8.4	135	334	972.9	NA	0.0000		9999	3350	0	0	0
2017/11/27 21:40:01	BASE	1.18	218	2.37	257	-0.3	55	-8.2	133	330	972.9	NA	0.0000		9999	3150	0	0	0
2017/11/27 21:41:01	BASE	1.11	225	2.37	257	-0.2	56	-8.0	132	327	972.9	NA	0.0000		9999	2920	0	0	0
2017/11/27 21:42:01	BASE	0.96	235	2.37	257	-0.2	56	-7.9	132	328	972.9	NA	0.0000		9999	2360	0	0	0
2017/11/27 21:43:01	BASE	0.50	237	2.37	257	-0.1	56	-7.7	134	330	972.9	NA	0.0000		9999	2590	0	0	0
2017/11/27 21:44:01	BASE	0.57	264	2.37	257	0.0	57	-7.6	135	331	972.9	NA	0.0000		9999	2590	0	0	0
2017/11/27 21:45:01	BASE	1.22	298	1.90	232	0.1	56	-7.6	137	334	972.9	NA	0.0000		9999	2490	0	0	0
2017/11/27 21:46:01	BASE	1.67	306	1.90	232	0.0	56	-7.7	138	337	972.9	NA	0.0000		9999	2430	3410	23850	0
2017/11/27 21:47:01	BASE	1.29	298	1.90	232	0.0	56	-7.8	139	338	972.9	NA	0.0000		9999	3380	0	0	0
2017/11/27 21:48:01	BASE	1.04	291	1.85	305	-0.0	55	-8.0	137	335	972.9	NA	0.0000		9999	3280	0	0	0
2017/11/27 21:49:01	BASE	0.70	277	1.85	305	-0.1	55	-8.2	135	329	972.9	NA	0.0000		9999	3380	0	0	0
2017/11/27 21:50:01	BASE	0.18	249	1.85	305	-0.2	54	-8.3	132	323	972.9	NA	0.0000		9999	3350	3840	0	0
2017/11/27 21:51:01	BASE	0.56	219	1.85	305	-0.1	54	-8.2	130	318	972.9	NA	0.0000		9999	3410	0	0	0
2017/11/27 21:52:01	BASE	0.98	212	1.85	305	-0.1	54	-8.2	127	311	973.0	NA	0.0000		9999	3350	0	0	0
2017/11/27 21:53:01	BASE	0.64	228	1.85	305	-0.1	54	-8.3	124	307	973.0	NA	0.0000		9999	2890	0	0	0
2017/11/27 21:54:01	BASE	0.22	236	1.85	305	-0.1	54	-8.4	124	305	973.0	NA	0.0000		9999	2690	3350	0	0
2017/11/27 21:55:01	BASE	0.00	235	1.70	307	-0.1	53	-8.5	124	306	973.0	NA	0.0000		9999	2720	3280	0	0
2017/11/27 21:56:01	BASE	0.00	224	1.44	294	-0.1	53	-8.5	125	307	973.0	NA	0.0000		9999	3250	0	0	0
2017/11/27 21:57:01	BASE	0.09	209	1.39	248	-0.1	53	-8.7	126	308	973.0	NA	0.0000		9999	3180	0	0	0
2017/11/27 21:58:01	BASE	0.09	190	1.39	248	-0.2	52	-8.9	127	310	973.0	NA	0.0000		9999	3350	0	0	0
2017/11/27 21:59:01	BASE	0.00	168	1.39	248	-0.2	51	-9.0	130	314	973.0	NA	0.0000		9999	3450	22310	0	0
2017/11/27 22:00:01	BASE	0.00	174	1.39	248	-0.2	51	-9.0	134	322	973.0	NA	0.0000		9999	3740	0	0	0
2017/11/27 22:01:01	BASE	0.37	195	1.39	248	-0.2	51	-9.2	139	331	973.0	NA	0.0000		9999	3710	0	0	0
2017/11/27 22:02:01	BASE	1.00	201	1.54	195	-0.3	51	-9.2	140	333	973.0	NA	0.0000		9999	3740	0	0	0
2017/11/27 22:03:01	BASE	1.46	194	2.01	185	-0.3	51	-9.1	139	332	973.0	NA	0.0000		9999	3770	0	0	0
2017/11/27 22:04:01	BASE	1.84	192	2.21	195	-0.3	52	-9.1	137	327	973.0	NA	0.0000		9999	3540	0	0	0
2017/11/27 22:05:01	BASE	1.86	192	2.21	195	-0.3	52	-9.0	136	325	973.0	NA	0.0000		9999	3310	3710	0	0
2017/11/27 22:06:01	BASE	1.74	176	2.21	195	-0.3	52	-9.0	136	325	973.0	NA	0.0000		9999	3080	0	0	0
2017/11/27 22:07:01	BASE	1.83	160	3.04	165	-0.3	52	-8.9	136	324	973.0	NA	0.0000		9999	3180	0	0	0
2017/11/27 22:08:01	BASE	1.86	155	3.04	165	-0.3	52	-8.9	132	317	973.0	NA	0.0000		9999	2230	3120	0	0
2017/11/27 22:09:01	BASE	1.26	164	3.04	165	-0.3	52	-9.0	129	312	973.0	NA	0.0000		9999	2170	3120	0	0
2017/11/27 22:10:01	BASE	0.74	172	3.04	165	-0.3	52	-8.9	129	311	973.0	NA	0.0000		9999	2130	0	0	0
2017/11/27 22:11:01	BASE	0.98	168	3.04	165	-0.3	53	-8.7	128	308	973.0	NA	0.0000		9999	2130	0	0	0
2017/11/27 22:12:01	BASE	0.76	190	3.04	165	-0.2	54	-8.4	125	304	973.0	NA	0.0000		9999	2200	0	0	0
2017/11/27 22:13:01	BASE	0.19	229	3.04	165	-0.2	55	-8.1	126	306	973.0	NA	0.0000		9999	2100	0	0	0
2017/11/27 22:14:01	BASE	0.41	242	3.04	165	-0.2	57	-7.7	127	307	973.0	NA	0.0000		9999	2070	0	0	0
2017/11/27 22:15:01	BASE	0.93	232	3.04	165	-0.1	58	-7.4	124	299	973.0	NA	0.0000		9999	2070	0	0	0
2017/11/27 22:16:01	BASE	1.04	215	3.04	165	-0.2	59	-7.3	119	289	973.0	NA	0.0000		9999	2000	2990	0	0
2017/11/27 22:17:01	BASE	0.63	217	2.16	155	-0.2	59	-7.1	115	281	973.0	NA	0.0000		9999	2070	3080	0	0
2017/11/27 22:18:01	BASE	0.32	245	1.75	159	-0.1	60	-6.9	111	272	973.0	NA	0.0000		9999	2920	0	0	0
2017/11/27 22:19:01	BASE	0.66	271	1.75	159	-0.1	61	-6.7	107	264	973.0	NA	0.0000		9999	2100	2890	0	0
2017/11/27 22:20:01	BASE	0.43	299	1.75	159	-0.1	63	-6.4	106	263	973.0	NA	0.0000		9999	2070	2850	0	0
2017/11/27 22:21:01	BASE	0.00	311	1.59	271	0.0	64	-6.1	110	270	973.0	NA	0.0000		9999	2130	0	0	0
2017/11/27 22:22:01	BASE	0.00	323	1.59	271	0.1	64	-5.9	113	277	973.0	NA	0.0000		9999	2030	0	0	0
2017/11/27 22:23:01	BASE	0.00	341	1.59	271	0.1	64	-5.8	114	278	973.0	NA	0.0000		9999	2070	2820	0	0
2017/11/27 22:24:01	BASE	0.33	176	1.59	271	0.2	64	-5.8	113	277	973.0	NA	0.0000		9999	2100	2920	0	0
2017/11/27 22:25:01	BASE	0.81	194	1.80	213	0.2	64	-5.9	114	277	973.0	NA	0.0000		9999	2100	0	0	0
2017/11/27 22:26:01	BASE	0.47	214	1.80	213	0.2	64	-5.8	113	276	973.0	NA	0.0000		9999	2130	0	0	0
2017/11/27 22:27:01	BASE	0.00	218	1.80	213	0.1	64	-5.9	113	277	973.0	NA	0.0000		9999	2200	0	0	0
2017/11/27 22:28:01	BASE	0.00	225	1.80	213	0.1	64	-5.9	114	278	973.0	NA	0.0000		9999	2330	2890	0	0
2017/11/27 22:29:01	BASE	0.39	263	1.80	213	0.1	64	-5.8	114	276	973.0	NA	0.0000		9999	2620	0	0	0
2017/11/27 22:30:01	BASE	0.68	288	1.80	213	0.2	65	-5.5	112	271	973.1	NA	0.0000		9999	2100	2720	0	0
2017/11/27 22:31:01	BASE	0.29	294	1.80	213	0.2	66	-5.4	110	267	973.1	NA	0.0000		9999	2330	0	0	0
2017/11/27 22:32:01	BASE	0.00	272	1.80	213	0.2	66	-5.4	109	265	973.1	NA	0.0000		9999	2460	0	0	0
2017/11/27 22:33:01	BASE	0.00	211	1.80	213	0.2	66	-5.4	108	261	973.1	NA	0.0000		9999	2560	0	0	0
2017/11/27 22:34:01	BASE	0.00	160	1.80	213	0.1	65	-5.7	104	253	973.1	NA	0.0000		9999	2530	0	0	0
2017/11/27 22:35:01	BASE	0.00	139	1.29	277	0.1	64	-5.9	99	243	973.1	NA	0.0000		9999	2230	0	0	0
2017/11/27 22:36:01	BASE	0.00	133	1.29	277	-0.0	63	-6.2	98	240	973.1	NA	0.0000		9999	2530	0	0	0
2017/11/27 22:37:01	BASE	0.19	130	1.29	277	-0.0	63	-6.3	99	241	973.1	NA	0.0000		9999	2430	0	0	0
2017/11/27 22:38:01	BASE	0.60	136	1.29	277	0.0	62	-6.3	99	240	973.1	NA	0.0000		9999	2430	0	0	0
2017/11/27 22:39:01	BASE	1.04	153	1.34	161	0.0	62	-6.4	98	238	973.0	NA	0.0000		9999	2430	0	0	0
2017/11/27 22:40:01	BASE	1.36	160	1.65	143	0.0	62	-6.4	97	235	973.0	NA	0.0000		9999	2430	0	0	0
2017/11/27 22:41:01	BASE	1.55	154	2.11	164	-0.0	62	-6.3	95	231	973.0	NA	0.0000		9999	2530	0	0	0
2017/11/27 22:42:01	BASE	1.74	164	2.21	175	-0.0	62	-6.4	93	228	973.0	NA	0.0000		9999	2530	0	0	0
2017/11/27 22:43:01	BASE	1.76	173	2.21	175	-0.1	63	-6.3	93	226	973.0	NA	0.0000		9999	2530	3080	0	0
2017/11/27 22:44:01	BASE	1.74	174	2.21	175	-0.1	64	-6.1	91	222	973.0	NA	0.0000		9999	2330	0	0	0
2017/11/27 22:45:01	BASE	1.63	178	2.21	175	-0.2	65	-6.0	88	216	973.1	NA	0.0000		9999	2260	0	0	0
2017/11/27 22:46:01	BASE	1.12	171	2.21	175	-0.2	65	-6.0	87	213	973.1	NA	0.0000		9999	2330	3250	0	0
2017/11/27 22:47:01	BASE	1.04	169	2.21	175	-0.2	66	-5.9	84	208	973.0	NA	0.0000		9999	2490	3080	0	0
2017/11/27 22:48:01	BASE	1.30	177	2.21	175	-0.2	66	-5.8	79	198	973.0	NA	0.0000		9999	2850	0	0	0
2017/11/27 22:49:01	BASE	1.74	166	2.52	154	-0.2	66	-5.8	74	188	973.0	NA	0.0000		9999	3250	0	0	0
2017/11/27 22:50:01	BASE	2.35	155	2.83	154	-0.2	66	-5.7	71	182	972.9	NA	0.0000		9999	2950	0	0	0
2017/11/27 22:51:01	BASE	1.65	148	2.83	154	-0.2	66	-5.7	69	177	973.0	NA	0.0000		9999	2920	0	0	0
2017/11/27 22:52:01	BASE	0.39	162	2.83	154	-0.1	66	-5.7	67	173	973.0	NA	0.0000		9999	2720	0	0	0
2017/11/27 22:53:01	BASE	0.57	172	2.83	154	-0.1	66	-5.7	65	168	972.9	NA	0.0000		9999	2720	0	0	0
2017/11/27 22:54:01	BASE	1.16	154	2.83	154	-0.0	65	-5.7	63	163	972.9	NA	0.0000		9999	2660	3410	0	0
2017/11/27 22:55:01	BASE	1.26	125	2.83	154	0.0	65	-5.7	62	161	972.9	NA	0.0000		9999	2760	0	0	0
2017/11/27 22:56:01	BASE	0.80	98	2.83	154	-0.0	65	-5.8	64	164	972.9	NA	0.0000		9999	2820	0	0	0
2017/11/27 22:57:01	BASE	0.13	109	2.83	154	-0.1	65	-5.8	67	170	972.9	NA	0.0000		9999	2560	5220	0	0
2017/11/27 22:58:01	BASE	0.11	153	2.83	154	-0.0	65	-5.7	71	178	972.9	NA	0.0000		9999	2890	4000	5480	0
2017/11/27 22:59:01	BASE	0.63	195	2.83	154	-0.1	65	-5.8	74	184	972.9	NA	0.0000		9999	2330	0	0	0
2017/11/27 23:00:01	BASE	1.26	154	2.42	127	-0.1	65	-5.9	78	191	972.9	NA	0.0000		9999	2330	0	0	0
2017/11/27 23:01:01	BASE	0.75	129	2.42	127	-0.2	65	-6.0	82	198	972.9	NA	0.0000		9999	2400	4130	0	0
2017/11/27 23:02:01	BASE	0.86	103	4.89	16	-0.1	65	-5.9	84	203	972.9	NA	0.0000		9999	2330	0	0	0
2017/11/27 23:03:00	BASE	2.54	21	4.89	16	-0.1	66	-5.6	86	206	972.9	NA	0.0000		9999	2430	4170	0	0
2017/11/27 23:04:01	BASE	2.98	14	4.89	16	0.1	68	-5.2	87	206	972.9	NA	0.0000		9999	2400	22840	0	0
2017/11/27 23:05:01	BASE	2.51	21	4.89	16	0.2	69	-4.8	86	204	972.9	NA	0.0000		9999	2400	0	0	0
2017/11/27 23:06:01	BASE	3.83	19	6.84	360	0.4	71	-4.3	84	200	972.8	NA	0.0000		9999	2490	0	0	0
2017/11/27 23:07:01	BASE	5.05	5	6.84	360	0.5	72	-4.0	81	193	972.8	NA	0.0000		9999	2490	0	0	0
2017/11/27 23:08:01	BASE	4.72	8	6.84	360	0.5	73	-3.9	78	187	972.8	NA	0.0000		9999	3350	0	0	0
2017/11/27 23:09:01	BASE	4.61	8	6.84	360	0.5	73	-3.8	75	181	972.8	NA	0.0000		9999	3050	0	0	0
2017/11/27 23:10:01	BASE	4.78	16	6.84	360	0.5	73	-3.8	72	176	972.9	NA	0.0000		9999	2590	0	0	0
2017/11/27 23:11:01	BASE	5.01	17	6.84	360	0.5	74	-3.7	71	172	972.9	NA	0.0000		9999	2490	0	0	0
2017/11/27 23:12:01	BASE	4.78	13	6.84	360	0.5	74	-3.7	71	172	972.9	NA	0.0000		9999	2560	0	0	0
2017/11/27 23:13:01	BASE	4.22	19	6.84	360	0.5	74	-3.6	71	172	972.9	NA	0.0000		9999	2790	0	0	0
2017/11/27 23:14:00	BASE	3.86	18	6.84	360	0.5	74	-3.6	72	173	972.9	NA	0.0000		9999	2820	0	0	0
2017/11/27 23:15:00	BASE	4.29	10	6.84	360	0.5	74	-3.5	71	172	972.9	NA	0.0000		9999	2920	0	0	0
2017/11/27 23:16:00	BASE	4.65	9	6.58	17	0.4	75	-3.6	70	169	972.9	NA	0.0000		9999	2890	0	0	0
2017/11/27 23:17:00	BASE	5.22	11	7.72	13	0.4	75	-3.5	69	167	972.9	NA	0.0000		9999	3080	0	0	0
2017/11/27 23:18:00	BASE	6.01	11	7.72	13	0.4	75	-3.5	68	165	972.9	NA	0.0000		9999	3080	0	0	0
2017/11/27 23:19:00	BASE	6.02	10	7.72	13	0.3	75	-3.6	68	163	972.9	NA	0.0000		9999	2890	0	0	0
2017/11/27 23:20:00	BASE	5.89	9	7.72	13	0.3	75	-3.6	67	162	972.9	NA	0.0000		9999	2890	0	0	0
2017/11/27 23:21:00	BASE	6.18	6	7.72	13	0.3	75	-3.5	66	160	972.9	NA	0.0000		9999	2990	0	0	0
2017/11/27 23:22:00	BASE	6.53	6	7.72	13	0.3	76	-3.5	65	158	972.9	NA	0.0000		9999	3020	0	0	0
2017/11/27 23:23:00	BASE	6.33	10	7.72	13	0.3	76	-3.4	64	156	972.9	NA	0.0000		9999	3020	0	0	0
2017/11/27 23:24:00	BASE	6.12	4	7.72	13	0.4	76	-3.3	64	154	972.9	NA	0.0000		9999	3050	0	0	0
2017/11/27 23:25:00	BASE	6.32	359	7.72	13	0.3	76	-3.3	63	153	972.9	NA	0.0000		9999	3050	0	0	0
2017/11/27 23:26:00	BASE	6.77	356	7.72	13	0.3	77	-3.3	63	153	972.9	NA	0.0000		9999	3050	3970	0	0
2017/11/27 23:27:00	BASE	6.83	347	7.46	18	0.3	77	-3.3	63	152	972.9	NA	0.0000		9999	3050	0	0	0
2017/11/27 23:28:00	BASE	6.71	352	7.46	18	0.3	77	-3.2	63	152	972.8	NA	0.0000		9999	3180	4230	0	0
2017/11/27 23:29:00	BASE	6.97	2	7.67	2	0.3	77	-3.2	63	151	972.8	NA	0.0000		9999	3020	4070	0	0
2017/11/27 23:30:00	BASE	6.70	1	7.67	2	0.3	78	-3.2	63	150	972.8	NA	0.0000		9999	4130	0	0	0
2017/11/27 23:31:00	BASE	6.12	358	7.67	2	0.3	78	-3.1	62	149	972.8	NA	0.0000		9999	3050	0	0	0
2017/11/27 23:32:00	BASE	6.22	359	7.67	2	0.3	78	-3.1	62	148	972.8	NA	0.0000		9999	3310	3770	0	0
2017/11/27 23:33:00	BASE	6.53	1	7.67	2	0.3	78	-3.1	61	147	972.8	NA	0.0000		9999	3350	3970	0	0
2017/11/27 23:34:00	BASE	6.29	0	7.67	2	0.3	78	-3.1	61	146	972.8	NA	0.0000		9999	3940	12300	0	0
2017/11/27 23:35:00	BASE	5.98	2	7.67	2	0.3	78	-3.1	61	145	972.8	NA	0.0000		9999	3810	0	0	0
2017/11/27 23:36:00	BASE	6.24	2	7.67	2	0.3	78	-3.1	60	143	972.8	NA	0.0000		9999	3610	12210	0	0
2017/11/27 23:37:00	BASE	6.40	1	7.67	2	0.3	78	-3.1	59	140	972.8	NA	0.0000		9999	12170	0	0	0
2017/11/27 23:38:00	BASE	6.14	0	7.67	2	0.3	79	-3.0	57	137	972.8	NA	0.0000		9999	12070	0	0	0
2017/11/27 23:39:00	BASE	6.25	356	7.56	360	0.3	79	-3.0	56	134	972.8	NA	0.0000		9999	3940	0	0	0
2017/11/27 23:40:00	BASE	6.46	353	7.56	360	0.2	79	-3.0	55	132	972.9	NA	0.0000		9999	3970	0	0	0
2017/11/27 23:41:00	BASE	6.42	353	7.56	360	0.3	79	-3.0	54	129	972.9	NA	0.0000		9999	4070	0	0	0
2017/11/27 23:42:00	BASE	6.45	355	7.56	360	0.3	79	-3.0	52	126	972.9	NA	0.0000		9999	4070	0	0	0
2017/11/27 23:43:00	BASE	6.32	355	7.31	348	0.3	79	-2.9	51	122	972.9	NA	0.0000		9999	4300	11940	0	0
2017/11/27 23:44:00	BASE	6.27	351	7.31	348	0.3	79	-3.0	49	119	972.9	NA	0.0000		9999	11940	0	0	0
2017/11/27 23:45:00	BASE	6.21	348	7.31	343	0.3	79	-2.9	48	115	972.9	NA	0.0000		9999	11550	11880	0	0
2017/11/27 23:46:00	BASE	6.45	350	7.31	351	0.3	79	-3.0	45	110	972.9	NA	0.0000		9999	4200	11980	0	0
2017/11/27 23:47:00	BASE	7.11	349	7.97	351	0.2	79	-3.0	42	104	972.9	NA	0.0000		9999	4100	0	0	0
2017/11/27 23:48:00	BASE	7.18	349	7.97	351	0.2	79	-3.0	39	98	972.9	NA	0.0000		9999	11120	0	0	0
2017/11/27 23:49:00	BASE	6.87	351	7.97	351	0.2	79	-3.0	36	92	972.9	NA	0.0000		9999	10500	0	0	0
2017/11/27 23:50:00	BASE	7.11	351	8.49	354	0.2	79	-3.0	34	87	972.9	NA	0.0000		9999	10470	0	0	0
2017/11/27 23:51:00	BASE	7.48	347	8.49	354	0.2	79	-2.9	31	82	972.9	NA	0.0000		9999	10400	11880	0	0
2017/11/27 23:52:00	BASE	7.60	348	8.49	354	0.2	80	-2.9	29	78	972.9	NA	0.0000		9999	10270	0	0	0
2017/11/27 23:53:00	BASE	7.59	352	8.49	354	0.2	80	-2.9	28	76	972.9	NA	0.0000		9999	10340	11480	0	0
2017/11/27 23:54:00	BASE	7.40	349	8.49	354	0.2	80	-2.8	28	75	972.9	NA	0.0000		9999	10200	11480	0	0
2017/11/27 23:55:00	BASE	6.99	347	8.49	354	0.2	80	-2.8	29	76	972.9	NA	0.0000		9999	4360	10170	0	0
2017/11/27 23:56:00	BASE	7.15	347	8.49	354	0.2	80	-2.9	31	78	972.9	NA	0.0000		9999	4360	10010	0	0
2017/11/27 23:57:00	BASE	7.67	350	8.49	354	0.2	80	-2.9	32	81	972.9	NA	0.0000		9999	4400	10070	0	0
2017/11/27 23:58:00	BASE	7.80	350	8.49	354	0.1	80	-2.9	33	82	972.9	NA	0.0000		9999	4530	10110	0	0
2017/11/27 23:59:00	BASE	7.63	348	8.49	354	0.1	80	-2.9	33	82	972.9	NA	0.0000		9999	10070	0	0	0